<?xml version="1.0" encoding="UTF-8" standalone="no" ?>
<gpx xmlns="http://www.topografix.com/GPX/1/1" xmlns:xsi="http://www.w3.org/2001/XMLSchema-instance" xsi:schemaLocation="http://www.topografix.com/GPX/1/1 http://www.topografix.com/GPX/1/1/gpx.xsd" version="1.1" creator="VisuGPX - https://www.visugpx.com">
  <metadata>
    <name>La Chapelle-de-Guinchay VTT</name>
  </metadata>
  <trk>
    <name><![CDATA[La Chapelle-de-Guinchay VTTAE]]></name>
    <trkseg>
      <trkpt lat="46.2144" lon="4.75511">
        <ele>194.39999389648</ele>
        <time>2020-06-25T12:31:06.000Z</time>
      </trkpt>
      <trkpt lat="46.2144" lon="4.7551">
        <ele>194.39999389648</ele>
        <time>2020-06-25T12:31:07.000Z</time>
      </trkpt>
      <trkpt lat="46.21438" lon="4.75506">
        <ele>194</ele>
        <time>2020-06-25T12:31:35.000Z</time>
      </trkpt>
      <trkpt lat="46.21437" lon="4.75501">
        <ele>194.60000610352</ele>
        <time>2020-06-25T12:34:15.000Z</time>
      </trkpt>
      <trkpt lat="46.21428" lon="4.75496">
        <ele>194.60000610352</ele>
        <time>2020-06-25T12:34:31.000Z</time>
      </trkpt>
      <trkpt lat="46.21427" lon="4.75495">
        <ele>194.80000305176</ele>
        <time>2020-06-25T12:34:52.000Z</time>
      </trkpt>
      <trkpt lat="46.21423" lon="4.75495">
        <ele>194.80000305176</ele>
        <time>2020-06-25T12:34:54.000Z</time>
      </trkpt>
      <trkpt lat="46.21421" lon="4.75497">
        <ele>194.80000305176</ele>
        <time>2020-06-25T12:34:55.000Z</time>
      </trkpt>
      <trkpt lat="46.21418" lon="4.755">
        <ele>194.80000305176</ele>
        <time>2020-06-25T12:34:56.000Z</time>
      </trkpt>
      <trkpt lat="46.21416" lon="4.75503">
        <ele>194.80000305176</ele>
        <time>2020-06-25T12:34:57.000Z</time>
      </trkpt>
      <trkpt lat="46.21413" lon="4.75508">
        <ele>194.80000305176</ele>
        <time>2020-06-25T12:34:58.000Z</time>
      </trkpt>
      <trkpt lat="46.21411" lon="4.75513">
        <ele>194.80000305176</ele>
        <time>2020-06-25T12:34:59.000Z</time>
      </trkpt>
      <trkpt lat="46.21403" lon="4.75528">
        <ele>194.80000305176</ele>
        <time>2020-06-25T12:35:02.000Z</time>
      </trkpt>
      <trkpt lat="46.214" lon="4.75533">
        <ele>194.60000610352</ele>
        <time>2020-06-25T12:35:03.000Z</time>
      </trkpt>
      <trkpt lat="46.21358" lon="4.75612">
        <ele>193.60000610352</ele>
        <time>2020-06-25T12:35:16.000Z</time>
      </trkpt>
      <trkpt lat="46.21341" lon="4.75659">
        <ele>193.19999694824</ele>
        <time>2020-06-25T12:35:23.000Z</time>
      </trkpt>
      <trkpt lat="46.21317" lon="4.7567">
        <ele>193.19999694824</ele>
        <time>2020-06-25T12:35:30.000Z</time>
      </trkpt>
      <trkpt lat="46.21217" lon="4.75597">
        <ele>193.60000610352</ele>
        <time>2020-06-25T12:35:50.000Z</time>
      </trkpt>
      <trkpt lat="46.2115" lon="4.75551">
        <ele>197.19999694824</ele>
        <time>2020-06-25T12:36:04.000Z</time>
      </trkpt>
      <trkpt lat="46.2111" lon="4.75524">
        <ele>200.19999694824</ele>
        <time>2020-06-25T12:36:13.000Z</time>
      </trkpt>
      <trkpt lat="46.21106" lon="4.75521">
        <ele>200.60000610352</ele>
        <time>2020-06-25T12:36:14.000Z</time>
      </trkpt>
      <trkpt lat="46.21094" lon="4.75485">
        <ele>202.19999694824</ele>
        <time>2020-06-25T12:36:20.000Z</time>
      </trkpt>
      <trkpt lat="46.21093" lon="4.75454">
        <ele>204.19999694824</ele>
        <time>2020-06-25T12:36:24.000Z</time>
      </trkpt>
      <trkpt lat="46.21097" lon="4.7542">
        <ele>205.80000305176</ele>
        <time>2020-06-25T12:36:29.000Z</time>
      </trkpt>
      <trkpt lat="46.21089" lon="4.75399">
        <ele>206</ele>
        <time>2020-06-25T12:36:34.000Z</time>
      </trkpt>
      <trkpt lat="46.21" lon="4.75342">
        <ele>203.19999694824</ele>
        <time>2020-06-25T12:36:49.000Z</time>
      </trkpt>
      <trkpt lat="46.20922" lon="4.75292">
        <ele>199.60000610352</ele>
        <time>2020-06-25T12:36:59.000Z</time>
      </trkpt>
      <trkpt lat="46.20892" lon="4.75262">
        <ele>197</ele>
        <time>2020-06-25T12:37:03.000Z</time>
      </trkpt>
      <trkpt lat="46.20866" lon="4.75226">
        <ele>194</ele>
        <time>2020-06-25T12:37:07.000Z</time>
      </trkpt>
      <trkpt lat="46.20791" lon="4.75126">
        <ele>190.80000305176</ele>
        <time>2020-06-25T12:37:19.000Z</time>
      </trkpt>
      <trkpt lat="46.20702" lon="4.75027">
        <ele>188.19999694824</ele>
        <time>2020-06-25T12:37:35.000Z</time>
      </trkpt>
      <trkpt lat="46.20607" lon="4.74909">
        <ele>188.19999694824</ele>
        <time>2020-06-25T12:37:55.000Z</time>
      </trkpt>
      <trkpt lat="46.20523" lon="4.74784">
        <ele>191.19999694824</ele>
        <time>2020-06-25T12:38:15.000Z</time>
      </trkpt>
      <trkpt lat="46.20487" lon="4.74718">
        <ele>193.60000610352</ele>
        <time>2020-06-25T12:38:25.000Z</time>
      </trkpt>
      <trkpt lat="46.20473" lon="4.7465">
        <ele>195.80000305176</ele>
        <time>2020-06-25T12:38:34.000Z</time>
      </trkpt>
      <trkpt lat="46.20473" lon="4.74641">
        <ele>196.19999694824</ele>
        <time>2020-06-25T12:38:35.000Z</time>
      </trkpt>
      <trkpt lat="46.20476" lon="4.74625">
        <ele>196.80000305176</ele>
        <time>2020-06-25T12:38:37.000Z</time>
      </trkpt>
      <trkpt lat="46.20489" lon="4.74577">
        <ele>200.19999694824</ele>
        <time>2020-06-25T12:38:43.000Z</time>
      </trkpt>
      <trkpt lat="46.20491" lon="4.74569">
        <ele>200.60000610352</ele>
        <time>2020-06-25T12:38:44.000Z</time>
      </trkpt>
      <trkpt lat="46.20511" lon="4.74508">
        <ele>201.80000305176</ele>
        <time>2020-06-25T12:38:52.000Z</time>
      </trkpt>
      <trkpt lat="46.20527" lon="4.74462">
        <ele>202.80000305176</ele>
        <time>2020-06-25T12:38:58.000Z</time>
      </trkpt>
      <trkpt lat="46.20576" lon="4.74324">
        <ele>205.39999389648</ele>
        <time>2020-06-25T12:39:16.000Z</time>
      </trkpt>
      <trkpt lat="46.20648" lon="4.74154">
        <ele>208</ele>
        <time>2020-06-25T12:39:39.000Z</time>
      </trkpt>
      <trkpt lat="46.20686" lon="4.74046">
        <ele>211.19999694824</ele>
        <time>2020-06-25T12:39:53.000Z</time>
      </trkpt>
      <trkpt lat="46.20701" lon="4.73883">
        <ele>212.80000305176</ele>
        <time>2020-06-25T12:40:12.000Z</time>
      </trkpt>
      <trkpt lat="46.2072" lon="4.73727">
        <ele>215.80000305176</ele>
        <time>2020-06-25T12:40:30.000Z</time>
      </trkpt>
      <trkpt lat="46.2073" lon="4.73607">
        <ele>219</ele>
        <time>2020-06-25T12:40:44.000Z</time>
      </trkpt>
      <trkpt lat="46.2074" lon="4.73517">
        <ele>222.39999389648</ele>
        <time>2020-06-25T12:40:55.000Z</time>
      </trkpt>
      <trkpt lat="46.20748" lon="4.7346">
        <ele>225.60000610352</ele>
        <time>2020-06-25T12:41:03.000Z</time>
      </trkpt>
      <trkpt lat="46.20748" lon="4.73454">
        <ele>226.19999694824</ele>
        <time>2020-06-25T12:41:04.000Z</time>
      </trkpt>
      <trkpt lat="46.20732" lon="4.73442">
        <ele>228.60000610352</ele>
        <time>2020-06-25T12:41:09.000Z</time>
      </trkpt>
      <trkpt lat="46.20726" lon="4.73443">
        <ele>228.60000610352</ele>
        <time>2020-06-25T12:41:10.000Z</time>
      </trkpt>
      <trkpt lat="46.2066" lon="4.73446">
        <ele>227</ele>
        <time>2020-06-25T12:41:21.000Z</time>
      </trkpt>
      <trkpt lat="46.20557" lon="4.73443">
        <ele>223.80000305176</ele>
        <time>2020-06-25T12:41:37.000Z</time>
      </trkpt>
      <trkpt lat="46.205" lon="4.73433">
        <ele>222.60000610352</ele>
        <time>2020-06-25T12:41:46.000Z</time>
      </trkpt>
      <trkpt lat="46.20409" lon="4.73369">
        <ele>221.19999694824</ele>
        <time>2020-06-25T12:42:02.000Z</time>
      </trkpt>
      <trkpt lat="46.20399" lon="4.73364">
        <ele>221.60000610352</ele>
        <time>2020-06-25T12:42:09.000Z</time>
      </trkpt>
      <trkpt lat="46.20399" lon="4.73364">
        <ele>222.19999694824</ele>
        <time>2020-06-25T12:42:10.000Z</time>
      </trkpt>
      <trkpt lat="46.20407" lon="4.73349">
        <ele>225.19999694824</ele>
        <time>2020-06-25T12:43:09.000Z</time>
      </trkpt>
      <trkpt lat="46.20408" lon="4.73343">
        <ele>225.19999694824</ele>
        <time>2020-06-25T12:43:10.000Z</time>
      </trkpt>
      <trkpt lat="46.20436" lon="4.73257">
        <ele>226.39999389648</ele>
        <time>2020-06-25T12:43:23.000Z</time>
      </trkpt>
      <trkpt lat="46.20471" lon="4.73151">
        <ele>229.39999389648</ele>
        <time>2020-06-25T12:43:37.000Z</time>
      </trkpt>
      <trkpt lat="46.20519" lon="4.73001">
        <ele>232.39999389648</ele>
        <time>2020-06-25T12:43:57.000Z</time>
      </trkpt>
      <trkpt lat="46.20535" lon="4.72955">
        <ele>234.80000305176</ele>
        <time>2020-06-25T12:44:05.000Z</time>
      </trkpt>
      <trkpt lat="46.20537" lon="4.72948">
        <ele>235.60000610352</ele>
        <time>2020-06-25T12:44:08.000Z</time>
      </trkpt>
      <trkpt lat="46.20543" lon="4.7292">
        <ele>238.80000305176</ele>
        <time>2020-06-25T12:44:14.000Z</time>
      </trkpt>
      <trkpt lat="46.20546" lon="4.72914">
        <ele>239.19999694824</ele>
        <time>2020-06-25T12:44:17.000Z</time>
      </trkpt>
      <trkpt lat="46.20543" lon="4.72912">
        <ele>239.39999389648</ele>
        <time>2020-06-25T12:44:21.000Z</time>
      </trkpt>
      <trkpt lat="46.20535" lon="4.72949">
        <ele>239.60000610352</ele>
        <time>2020-06-25T12:44:29.000Z</time>
      </trkpt>
      <trkpt lat="46.20522" lon="4.72964">
        <ele>239.39999389648</ele>
        <time>2020-06-25T12:44:34.000Z</time>
      </trkpt>
      <trkpt lat="46.20437" lon="4.72927">
        <ele>239.60000610352</ele>
        <time>2020-06-25T12:44:52.000Z</time>
      </trkpt>
      <trkpt lat="46.20396" lon="4.72916">
        <ele>241.80000305176</ele>
        <time>2020-06-25T12:45:01.000Z</time>
      </trkpt>
      <trkpt lat="46.20386" lon="4.72913">
        <ele>242</ele>
        <time>2020-06-25T12:45:03.000Z</time>
      </trkpt>
      <trkpt lat="46.20377" lon="4.72911">
        <ele>242.19999694824</ele>
        <time>2020-06-25T12:45:05.000Z</time>
      </trkpt>
      <trkpt lat="46.20327" lon="4.72897">
        <ele>245.39999389648</ele>
        <time>2020-06-25T12:45:15.000Z</time>
      </trkpt>
      <trkpt lat="46.20274" lon="4.72885">
        <ele>248.80000305176</ele>
        <time>2020-06-25T12:45:25.000Z</time>
      </trkpt>
      <trkpt lat="46.20249" lon="4.72878">
        <ele>249.80000305176</ele>
        <time>2020-06-25T12:45:31.000Z</time>
      </trkpt>
      <trkpt lat="46.20202" lon="4.72842">
        <ele>249.39999389648</ele>
        <time>2020-06-25T12:45:44.000Z</time>
      </trkpt>
      <trkpt lat="46.20206" lon="4.72823">
        <ele>248</ele>
        <time>2020-06-25T12:45:48.000Z</time>
      </trkpt>
      <trkpt lat="46.20247" lon="4.72724">
        <ele>248.80000305176</ele>
        <time>2020-06-25T12:46:02.000Z</time>
      </trkpt>
      <trkpt lat="46.20285" lon="4.72672">
        <ele>251.39999389648</ele>
        <time>2020-06-25T12:46:11.000Z</time>
      </trkpt>
      <trkpt lat="46.20323" lon="4.72647">
        <ele>255</ele>
        <time>2020-06-25T12:46:18.000Z</time>
      </trkpt>
      <trkpt lat="46.20394" lon="4.72613">
        <ele>258.20001220703</ele>
        <time>2020-06-25T12:46:31.000Z</time>
      </trkpt>
      <trkpt lat="46.20399" lon="4.7261">
        <ele>258.60000610352</ele>
        <time>2020-06-25T12:46:32.000Z</time>
      </trkpt>
      <trkpt lat="46.20404" lon="4.72606">
        <ele>258.79998779297</ele>
        <time>2020-06-25T12:46:33.000Z</time>
      </trkpt>
      <trkpt lat="46.20452" lon="4.72535">
        <ele>260.60000610352</ele>
        <time>2020-06-25T12:46:46.000Z</time>
      </trkpt>
      <trkpt lat="46.20473" lon="4.72503">
        <ele>260.79998779297</ele>
        <time>2020-06-25T12:46:54.000Z</time>
      </trkpt>
      <trkpt lat="46.20535" lon="4.72411">
        <ele>260.20001220703</ele>
        <time>2020-06-25T12:47:09.000Z</time>
      </trkpt>
      <trkpt lat="46.2057" lon="4.72356">
        <ele>260.79998779297</ele>
        <time>2020-06-25T12:47:18.000Z</time>
      </trkpt>
      <trkpt lat="46.20577" lon="4.72341">
        <ele>261.60000610352</ele>
        <time>2020-06-25T12:47:21.000Z</time>
      </trkpt>
      <trkpt lat="46.20547" lon="4.72307">
        <ele>262.39999389648</ele>
        <time>2020-06-25T12:47:29.000Z</time>
      </trkpt>
      <trkpt lat="46.20542" lon="4.72302">
        <ele>262.39999389648</ele>
        <time>2020-06-25T12:47:30.000Z</time>
      </trkpt>
      <trkpt lat="46.20534" lon="4.72273">
        <ele>262.39999389648</ele>
        <time>2020-06-25T12:47:34.000Z</time>
      </trkpt>
      <trkpt lat="46.20561" lon="4.72195">
        <ele>261.79998779297</ele>
        <time>2020-06-25T12:47:45.000Z</time>
      </trkpt>
      <trkpt lat="46.20565" lon="4.72182">
        <ele>261.79998779297</ele>
        <time>2020-06-25T12:47:47.000Z</time>
      </trkpt>
      <trkpt lat="46.20553" lon="4.72147">
        <ele>262.60000610352</ele>
        <time>2020-06-25T12:47:53.000Z</time>
      </trkpt>
      <trkpt lat="46.20532" lon="4.7213">
        <ele>262.60000610352</ele>
        <time>2020-06-25T12:47:57.000Z</time>
      </trkpt>
      <trkpt lat="46.20487" lon="4.72107">
        <ele>260.20001220703</ele>
        <time>2020-06-25T12:48:04.000Z</time>
      </trkpt>
      <trkpt lat="46.20452" lon="4.72076">
        <ele>257</ele>
        <time>2020-06-25T12:48:10.000Z</time>
      </trkpt>
      <trkpt lat="46.20415" lon="4.72033">
        <ele>255.19999694824</ele>
        <time>2020-06-25T12:48:18.000Z</time>
      </trkpt>
      <trkpt lat="46.20399" lon="4.72022">
        <ele>255</ele>
        <time>2020-06-25T12:48:21.000Z</time>
      </trkpt>
      <trkpt lat="46.20376" lon="4.72014">
        <ele>254.80000305176</ele>
        <time>2020-06-25T12:48:25.000Z</time>
      </trkpt>
      <trkpt lat="46.20365" lon="4.72008">
        <ele>254.80000305176</ele>
        <time>2020-06-25T12:48:32.000Z</time>
      </trkpt>
      <trkpt lat="46.20357" lon="4.72007">
        <ele>255</ele>
        <time>2020-06-25T12:49:11.000Z</time>
      </trkpt>
      <trkpt lat="46.20353" lon="4.72006">
        <ele>255</ele>
        <time>2020-06-25T12:49:12.000Z</time>
      </trkpt>
      <trkpt lat="46.20321" lon="4.71981">
        <ele>254.19999694824</ele>
        <time>2020-06-25T12:49:19.000Z</time>
      </trkpt>
      <trkpt lat="46.2029" lon="4.71951">
        <ele>253</ele>
        <time>2020-06-25T12:49:26.000Z</time>
      </trkpt>
      <trkpt lat="46.20252" lon="4.71924">
        <ele>252.19999694824</ele>
        <time>2020-06-25T12:49:33.000Z</time>
      </trkpt>
      <trkpt lat="46.20198" lon="4.71886">
        <ele>250</ele>
        <time>2020-06-25T12:49:41.000Z</time>
      </trkpt>
      <trkpt lat="46.20171" lon="4.71857">
        <ele>248.60000610352</ele>
        <time>2020-06-25T12:49:45.000Z</time>
      </trkpt>
      <trkpt lat="46.20141" lon="4.71847">
        <ele>245.80000305176</ele>
        <time>2020-06-25T12:49:49.000Z</time>
      </trkpt>
      <trkpt lat="46.20128" lon="4.7185">
        <ele>245.39999389648</ele>
        <time>2020-06-25T12:49:51.000Z</time>
      </trkpt>
      <trkpt lat="46.20105" lon="4.71848">
        <ele>245.19999694824</ele>
        <time>2020-06-25T12:49:55.000Z</time>
      </trkpt>
      <trkpt lat="46.20004" lon="4.71778">
        <ele>247</ele>
        <time>2020-06-25T12:50:12.000Z</time>
      </trkpt>
      <trkpt lat="46.19979" lon="4.71762">
        <ele>246.19999694824</ele>
        <time>2020-06-25T12:50:16.000Z</time>
      </trkpt>
      <trkpt lat="46.19939" lon="4.7175">
        <ele>245.80000305176</ele>
        <time>2020-06-25T12:50:23.000Z</time>
      </trkpt>
      <trkpt lat="46.19855" lon="4.71685">
        <ele>248.19999694824</ele>
        <time>2020-06-25T12:50:39.000Z</time>
      </trkpt>
      <trkpt lat="46.19787" lon="4.7162">
        <ele>251.60000610352</ele>
        <time>2020-06-25T12:50:53.000Z</time>
      </trkpt>
      <trkpt lat="46.19774" lon="4.71606">
        <ele>252.60000610352</ele>
        <time>2020-06-25T12:50:57.000Z</time>
      </trkpt>
      <trkpt lat="46.19776" lon="4.71593">
        <ele>253.60000610352</ele>
        <time>2020-06-25T12:51:01.000Z</time>
      </trkpt>
      <trkpt lat="46.19833" lon="4.71516">
        <ele>257.79998779297</ele>
        <time>2020-06-25T12:51:16.000Z</time>
      </trkpt>
      <trkpt lat="46.19858" lon="4.71477">
        <ele>260.60000610352</ele>
        <time>2020-06-25T12:51:23.000Z</time>
      </trkpt>
      <trkpt lat="46.19872" lon="4.71465">
        <ele>262.39999389648</ele>
        <time>2020-06-25T12:51:26.000Z</time>
      </trkpt>
      <trkpt lat="46.19901" lon="4.71437">
        <ele>266.20001220703</ele>
        <time>2020-06-25T12:51:33.000Z</time>
      </trkpt>
      <trkpt lat="46.1991" lon="4.7143">
        <ele>267.39999389648</ele>
        <time>2020-06-25T12:51:35.000Z</time>
      </trkpt>
      <trkpt lat="46.19933" lon="4.71397">
        <ele>271.20001220703</ele>
        <time>2020-06-25T12:51:42.000Z</time>
      </trkpt>
      <trkpt lat="46.19941" lon="4.71388">
        <ele>272.20001220703</ele>
        <time>2020-06-25T12:51:44.000Z</time>
      </trkpt>
      <trkpt lat="46.1996" lon="4.71365">
        <ele>274.20001220703</ele>
        <time>2020-06-25T12:51:49.000Z</time>
      </trkpt>
      <trkpt lat="46.19976" lon="4.71341">
        <ele>276</ele>
        <time>2020-06-25T12:51:54.000Z</time>
      </trkpt>
      <trkpt lat="46.19982" lon="4.71333">
        <ele>276.39999389648</ele>
        <time>2020-06-25T12:51:56.000Z</time>
      </trkpt>
      <trkpt lat="46.20004" lon="4.71298">
        <ele>279.79998779297</ele>
        <time>2020-06-25T12:52:03.000Z</time>
      </trkpt>
      <trkpt lat="46.20019" lon="4.71271">
        <ele>282.39999389648</ele>
        <time>2020-06-25T12:52:08.000Z</time>
      </trkpt>
      <trkpt lat="46.20037" lon="4.71244">
        <ele>285.39999389648</ele>
        <time>2020-06-25T12:52:14.000Z</time>
      </trkpt>
      <trkpt lat="46.20045" lon="4.71235">
        <ele>287.20001220703</ele>
        <time>2020-06-25T12:52:17.000Z</time>
      </trkpt>
      <trkpt lat="46.20113" lon="4.71209">
        <ele>289.60000610352</ele>
        <time>2020-06-25T12:52:32.000Z</time>
      </trkpt>
      <trkpt lat="46.20121" lon="4.71206">
        <ele>289.60000610352</ele>
        <time>2020-06-25T12:52:35.000Z</time>
      </trkpt>
      <trkpt lat="46.20174" lon="4.71224">
        <ele>289.20001220703</ele>
        <time>2020-06-25T12:52:46.000Z</time>
      </trkpt>
      <trkpt lat="46.20193" lon="4.71186">
        <ele>288.60000610352</ele>
        <time>2020-06-25T12:52:55.000Z</time>
      </trkpt>
      <trkpt lat="46.20218" lon="4.71117">
        <ele>291.79998779297</ele>
        <time>2020-06-25T12:53:06.000Z</time>
      </trkpt>
      <trkpt lat="46.20228" lon="4.71084">
        <ele>295.20001220703</ele>
        <time>2020-06-25T12:53:11.000Z</time>
      </trkpt>
      <trkpt lat="46.20232" lon="4.71071">
        <ele>296.39999389648</ele>
        <time>2020-06-25T12:53:13.000Z</time>
      </trkpt>
      <trkpt lat="46.20241" lon="4.71045">
        <ele>298.20001220703</ele>
        <time>2020-06-25T12:53:17.000Z</time>
      </trkpt>
      <trkpt lat="46.20252" lon="4.71013">
        <ele>301.39999389648</ele>
        <time>2020-06-25T12:53:22.000Z</time>
      </trkpt>
      <trkpt lat="46.20262" lon="4.70975">
        <ele>305</ele>
        <time>2020-06-25T12:53:28.000Z</time>
      </trkpt>
      <trkpt lat="46.20278" lon="4.70923">
        <ele>308.39999389648</ele>
        <time>2020-06-25T12:53:36.000Z</time>
      </trkpt>
      <trkpt lat="46.20288" lon="4.70884">
        <ele>312</ele>
        <time>2020-06-25T12:53:42.000Z</time>
      </trkpt>
      <trkpt lat="46.2029" lon="4.7087">
        <ele>313.60000610352</ele>
        <time>2020-06-25T12:53:44.000Z</time>
      </trkpt>
      <trkpt lat="46.20293" lon="4.70836">
        <ele>316</ele>
        <time>2020-06-25T12:53:49.000Z</time>
      </trkpt>
      <trkpt lat="46.20292" lon="4.70809">
        <ele>317.20001220703</ele>
        <time>2020-06-25T12:53:53.000Z</time>
      </trkpt>
      <trkpt lat="46.20291" lon="4.70789">
        <ele>319</ele>
        <time>2020-06-25T12:53:56.000Z</time>
      </trkpt>
      <trkpt lat="46.20286" lon="4.70763">
        <ele>321.79998779297</ele>
        <time>2020-06-25T12:54:01.000Z</time>
      </trkpt>
      <trkpt lat="46.20283" lon="4.70739">
        <ele>323.39999389648</ele>
        <time>2020-06-25T12:54:05.000Z</time>
      </trkpt>
      <trkpt lat="46.20281" lon="4.70715">
        <ele>325.60000610352</ele>
        <time>2020-06-25T12:54:09.000Z</time>
      </trkpt>
      <trkpt lat="46.20277" lon="4.70693">
        <ele>328.39999389648</ele>
        <time>2020-06-25T12:54:13.000Z</time>
      </trkpt>
      <trkpt lat="46.20273" lon="4.70683">
        <ele>329.60000610352</ele>
        <time>2020-06-25T12:54:15.000Z</time>
      </trkpt>
      <trkpt lat="46.20263" lon="4.70661">
        <ele>332.60000610352</ele>
        <time>2020-06-25T12:54:20.000Z</time>
      </trkpt>
      <trkpt lat="46.20254" lon="4.70639">
        <ele>334.39999389648</ele>
        <time>2020-06-25T12:54:24.000Z</time>
      </trkpt>
      <trkpt lat="46.20234" lon="4.70584">
        <ele>335.60000610352</ele>
        <time>2020-06-25T12:54:33.000Z</time>
      </trkpt>
      <trkpt lat="46.20239" lon="4.70482">
        <ele>335.79998779297</ele>
        <time>2020-06-25T12:54:47.000Z</time>
      </trkpt>
      <trkpt lat="46.20244" lon="4.70425">
        <ele>335</ele>
        <time>2020-06-25T12:54:54.000Z</time>
      </trkpt>
      <trkpt lat="46.20248" lon="4.70368">
        <ele>334.20001220703</ele>
        <time>2020-06-25T12:55:02.000Z</time>
      </trkpt>
      <trkpt lat="46.20262" lon="4.70363">
        <ele>333</ele>
        <time>2020-06-25T12:55:07.000Z</time>
      </trkpt>
      <trkpt lat="46.20322" lon="4.70394">
        <ele>333.39999389648</ele>
        <time>2020-06-25T12:55:20.000Z</time>
      </trkpt>
      <trkpt lat="46.20337" lon="4.70401">
        <ele>333.39999389648</ele>
        <time>2020-06-25T12:55:23.000Z</time>
      </trkpt>
      <trkpt lat="46.20352" lon="4.70391">
        <ele>333.39999389648</ele>
        <time>2020-06-25T12:55:27.000Z</time>
      </trkpt>
      <trkpt lat="46.2038" lon="4.70297">
        <ele>333.79998779297</ele>
        <time>2020-06-25T12:55:41.000Z</time>
      </trkpt>
      <trkpt lat="46.20386" lon="4.70269">
        <ele>335.60000610352</ele>
        <time>2020-06-25T12:55:46.000Z</time>
      </trkpt>
      <trkpt lat="46.20409" lon="4.70271">
        <ele>339</ele>
        <time>2020-06-25T12:55:52.000Z</time>
      </trkpt>
      <trkpt lat="46.20493" lon="4.70308">
        <ele>338</ele>
        <time>2020-06-25T12:56:04.000Z</time>
      </trkpt>
      <trkpt lat="46.20548" lon="4.70327">
        <ele>335</ele>
        <time>2020-06-25T12:56:12.000Z</time>
      </trkpt>
      <trkpt lat="46.20562" lon="4.70357">
        <ele>335</ele>
        <time>2020-06-25T12:56:17.000Z</time>
      </trkpt>
      <trkpt lat="46.20563" lon="4.70423">
        <ele>337.60000610352</ele>
        <time>2020-06-25T12:56:25.000Z</time>
      </trkpt>
      <trkpt lat="46.20573" lon="4.70446">
        <ele>339.20001220703</ele>
        <time>2020-06-25T12:56:29.000Z</time>
      </trkpt>
      <trkpt lat="46.20588" lon="4.70456">
        <ele>340.39999389648</ele>
        <time>2020-06-25T12:56:32.000Z</time>
      </trkpt>
      <trkpt lat="46.20603" lon="4.70466">
        <ele>341.79998779297</ele>
        <time>2020-06-25T12:56:35.000Z</time>
      </trkpt>
      <trkpt lat="46.2065" lon="4.70505">
        <ele>345</ele>
        <time>2020-06-25T12:56:45.000Z</time>
      </trkpt>
      <trkpt lat="46.20671" lon="4.70522">
        <ele>348.20001220703</ele>
        <time>2020-06-25T12:56:50.000Z</time>
      </trkpt>
      <trkpt lat="46.20685" lon="4.70534">
        <ele>349.39999389648</ele>
        <time>2020-06-25T12:56:53.000Z</time>
      </trkpt>
      <trkpt lat="46.20718" lon="4.70559">
        <ele>352.20001220703</ele>
        <time>2020-06-25T12:57:00.000Z</time>
      </trkpt>
      <trkpt lat="46.20742" lon="4.70599">
        <ele>352.79998779297</ele>
        <time>2020-06-25T12:57:07.000Z</time>
      </trkpt>
      <trkpt lat="46.20751" lon="4.7062">
        <ele>353.39999389648</ele>
        <time>2020-06-25T12:57:11.000Z</time>
      </trkpt>
      <trkpt lat="46.20768" lon="4.70647">
        <ele>355.20001220703</ele>
        <time>2020-06-25T12:57:17.000Z</time>
      </trkpt>
      <trkpt lat="46.20785" lon="4.70656">
        <ele>359.39999389648</ele>
        <time>2020-06-25T12:57:23.000Z</time>
      </trkpt>
      <trkpt lat="46.20789" lon="4.70658">
        <ele>361.79998779297</ele>
        <time>2020-06-25T12:57:26.000Z</time>
      </trkpt>
      <trkpt lat="46.2079" lon="4.70659">
        <ele>365.39999389648</ele>
        <time>2020-06-25T12:57:30.000Z</time>
      </trkpt>
      <trkpt lat="46.2079" lon="4.70659">
        <ele>365.79998779297</ele>
        <time>2020-06-25T12:57:31.000Z</time>
      </trkpt>
      <trkpt lat="46.20784" lon="4.70654">
        <ele>366.79998779297</ele>
        <time>2020-06-25T12:57:44.000Z</time>
      </trkpt>
      <trkpt lat="46.20782" lon="4.70652">
        <ele>366.79998779297</ele>
        <time>2020-06-25T12:57:50.000Z</time>
      </trkpt>
      <trkpt lat="46.20782" lon="4.70642">
        <ele>366.39999389648</ele>
        <time>2020-06-25T12:58:04.000Z</time>
      </trkpt>
      <trkpt lat="46.20801" lon="4.70594">
        <ele>367.60000610352</ele>
        <time>2020-06-25T12:58:16.000Z</time>
      </trkpt>
      <trkpt lat="46.20807" lon="4.70576">
        <ele>371</ele>
        <time>2020-06-25T12:58:21.000Z</time>
      </trkpt>
      <trkpt lat="46.20808" lon="4.70575">
        <ele>374.20001220703</ele>
        <time>2020-06-25T12:58:26.000Z</time>
      </trkpt>
      <trkpt lat="46.20803" lon="4.70585">
        <ele>376.39999389648</ele>
        <time>2020-06-25T12:58:47.000Z</time>
      </trkpt>
      <trkpt lat="46.20782" lon="4.70632">
        <ele>373.39999389648</ele>
        <time>2020-06-25T12:59:00.000Z</time>
      </trkpt>
      <trkpt lat="46.2078" lon="4.70648">
        <ele>370</ele>
        <time>2020-06-25T12:59:05.000Z</time>
      </trkpt>
      <trkpt lat="46.20781" lon="4.70652">
        <ele>369.39999389648</ele>
        <time>2020-06-25T12:59:07.000Z</time>
      </trkpt>
      <trkpt lat="46.20794" lon="4.70637">
        <ele>367.60000610352</ele>
        <time>2020-06-25T12:59:16.000Z</time>
      </trkpt>
      <trkpt lat="46.20799" lon="4.70627">
        <ele>367.60000610352</ele>
        <time>2020-06-25T12:59:19.000Z</time>
      </trkpt>
      <trkpt lat="46.20814" lon="4.70602">
        <ele>371.20001220703</ele>
        <time>2020-06-25T12:59:27.000Z</time>
      </trkpt>
      <trkpt lat="46.20816" lon="4.70598">
        <ele>371.20001220703</ele>
        <time>2020-06-25T12:59:28.000Z</time>
      </trkpt>
      <trkpt lat="46.20824" lon="4.70584">
        <ele>374.20001220703</ele>
        <time>2020-06-25T12:59:32.000Z</time>
      </trkpt>
      <trkpt lat="46.20835" lon="4.70568">
        <ele>377.20001220703</ele>
        <time>2020-06-25T12:59:38.000Z</time>
      </trkpt>
      <trkpt lat="46.2085" lon="4.70557">
        <ele>380.60000610352</ele>
        <time>2020-06-25T12:59:43.000Z</time>
      </trkpt>
      <trkpt lat="46.20864" lon="4.70544">
        <ele>383.60000610352</ele>
        <time>2020-06-25T12:59:48.000Z</time>
      </trkpt>
      <trkpt lat="46.20875" lon="4.70534">
        <ele>385.60000610352</ele>
        <time>2020-06-25T12:59:52.000Z</time>
      </trkpt>
      <trkpt lat="46.2089" lon="4.70521">
        <ele>388.79998779297</ele>
        <time>2020-06-25T12:59:57.000Z</time>
      </trkpt>
      <trkpt lat="46.20913" lon="4.70497">
        <ele>392</ele>
        <time>2020-06-25T13:00:05.000Z</time>
      </trkpt>
      <trkpt lat="46.2094" lon="4.70458">
        <ele>395</ele>
        <time>2020-06-25T13:00:16.000Z</time>
      </trkpt>
      <trkpt lat="46.20971" lon="4.70434">
        <ele>398</ele>
        <time>2020-06-25T13:00:26.000Z</time>
      </trkpt>
      <trkpt lat="46.20976" lon="4.70414">
        <ele>398.79998779297</ele>
        <time>2020-06-25T13:00:30.000Z</time>
      </trkpt>
      <trkpt lat="46.20975" lon="4.70301">
        <ele>399.20001220703</ele>
        <time>2020-06-25T13:00:47.000Z</time>
      </trkpt>
      <trkpt lat="46.20975" lon="4.70276">
        <ele>400.20001220703</ele>
        <time>2020-06-25T13:00:51.000Z</time>
      </trkpt>
      <trkpt lat="46.20974" lon="4.70243">
        <ele>402.39999389648</ele>
        <time>2020-06-25T13:00:57.000Z</time>
      </trkpt>
      <trkpt lat="46.20975" lon="4.70217">
        <ele>405.79998779297</ele>
        <time>2020-06-25T13:01:02.000Z</time>
      </trkpt>
      <trkpt lat="46.20976" lon="4.70192">
        <ele>409</ele>
        <time>2020-06-25T13:01:07.000Z</time>
      </trkpt>
      <trkpt lat="46.20977" lon="4.70168">
        <ele>412.20001220703</ele>
        <time>2020-06-25T13:01:12.000Z</time>
      </trkpt>
      <trkpt lat="46.20975" lon="4.70142">
        <ele>415.79998779297</ele>
        <time>2020-06-25T13:01:17.000Z</time>
      </trkpt>
      <trkpt lat="46.20971" lon="4.70106">
        <ele>419.39999389648</ele>
        <time>2020-06-25T13:01:24.000Z</time>
      </trkpt>
      <trkpt lat="46.20971" lon="4.70088">
        <ele>422.39999389648</ele>
        <time>2020-06-25T13:01:33.000Z</time>
      </trkpt>
      <trkpt lat="46.20972" lon="4.70078">
        <ele>425.20001220703</ele>
        <time>2020-06-25T13:01:53.000Z</time>
      </trkpt>
      <trkpt lat="46.20974" lon="4.70066">
        <ele>425.20001220703</ele>
        <time>2020-06-25T13:01:56.000Z</time>
      </trkpt>
      <trkpt lat="46.20973" lon="4.69994">
        <ele>427.39999389648</ele>
        <time>2020-06-25T13:02:10.000Z</time>
      </trkpt>
      <trkpt lat="46.2097" lon="4.69967">
        <ele>430.39999389648</ele>
        <time>2020-06-25T13:02:15.000Z</time>
      </trkpt>
      <trkpt lat="46.20966" lon="4.6994">
        <ele>434</ele>
        <time>2020-06-25T13:02:20.000Z</time>
      </trkpt>
      <trkpt lat="46.20963" lon="4.69913">
        <ele>436.20001220703</ele>
        <time>2020-06-25T13:02:26.000Z</time>
      </trkpt>
      <trkpt lat="46.20971" lon="4.69919">
        <ele>437.79998779297</ele>
        <time>2020-06-25T13:02:31.000Z</time>
      </trkpt>
      <trkpt lat="46.20973" lon="4.69926">
        <ele>440.20001220703</ele>
        <time>2020-06-25T13:02:39.000Z</time>
      </trkpt>
      <trkpt lat="46.20971" lon="4.6992">
        <ele>440.39999389648</ele>
        <time>2020-06-25T13:02:43.000Z</time>
      </trkpt>
      <trkpt lat="46.20963" lon="4.69908">
        <ele>440.60000610352</ele>
        <time>2020-06-25T13:02:49.000Z</time>
      </trkpt>
      <trkpt lat="46.20968" lon="4.69864">
        <ele>441</ele>
        <time>2020-06-25T13:03:00.000Z</time>
      </trkpt>
      <trkpt lat="46.20969" lon="4.69862">
        <ele>443.39999389648</ele>
        <time>2020-06-25T13:03:06.000Z</time>
      </trkpt>
      <trkpt lat="46.20966" lon="4.69873">
        <ele>445.39999389648</ele>
        <time>2020-06-25T13:03:21.000Z</time>
      </trkpt>
      <trkpt lat="46.20965" lon="4.69886">
        <ele>445.20001220703</ele>
        <time>2020-06-25T13:03:24.000Z</time>
      </trkpt>
      <trkpt lat="46.20962" lon="4.69908">
        <ele>444.60000610352</ele>
        <time>2020-06-25T13:03:30.000Z</time>
      </trkpt>
      <trkpt lat="46.20964" lon="4.69914">
        <ele>442.60000610352</ele>
        <time>2020-06-25T13:03:33.000Z</time>
      </trkpt>
      <trkpt lat="46.20987" lon="4.69957">
        <ele>440.60000610352</ele>
        <time>2020-06-25T13:03:44.000Z</time>
      </trkpt>
      <trkpt lat="46.21023" lon="4.70031">
        <ele>442.60000610352</ele>
        <time>2020-06-25T13:04:03.000Z</time>
      </trkpt>
      <trkpt lat="46.21024" lon="4.70031">
        <ele>443.79998779297</ele>
        <time>2020-06-25T13:04:07.000Z</time>
      </trkpt>
      <trkpt lat="46.21022" lon="4.70024">
        <ele>444.79998779297</ele>
        <time>2020-06-25T13:04:14.000Z</time>
      </trkpt>
      <trkpt lat="46.21004" lon="4.69983">
        <ele>444</ele>
        <time>2020-06-25T13:04:28.000Z</time>
      </trkpt>
      <trkpt lat="46.20978" lon="4.6994">
        <ele>442.60000610352</ele>
        <time>2020-06-25T13:04:40.000Z</time>
      </trkpt>
      <trkpt lat="46.20968" lon="4.69918">
        <ele>441.79998779297</ele>
        <time>2020-06-25T13:04:47.000Z</time>
      </trkpt>
      <trkpt lat="46.20962" lon="4.69931">
        <ele>440.79998779297</ele>
        <time>2020-06-25T13:04:54.000Z</time>
      </trkpt>
      <trkpt lat="46.20972" lon="4.69997">
        <ele>437.79998779297</ele>
        <time>2020-06-25T13:05:07.000Z</time>
      </trkpt>
      <trkpt lat="46.20976" lon="4.70039">
        <ele>434.60000610352</ele>
        <time>2020-06-25T13:05:16.000Z</time>
      </trkpt>
      <trkpt lat="46.20971" lon="4.70069">
        <ele>431.60000610352</ele>
        <time>2020-06-25T13:05:22.000Z</time>
      </trkpt>
      <trkpt lat="46.20969" lon="4.70087">
        <ele>428.39999389648</ele>
        <time>2020-06-25T13:05:28.000Z</time>
      </trkpt>
      <trkpt lat="46.20969" lon="4.70088">
        <ele>428</ele>
        <time>2020-06-25T13:05:29.000Z</time>
      </trkpt>
      <trkpt lat="46.20972" lon="4.70094">
        <ele>426.79998779297</ele>
        <time>2020-06-25T13:05:32.000Z</time>
      </trkpt>
      <trkpt lat="46.20974" lon="4.70096">
        <ele>426.39999389648</ele>
        <time>2020-06-25T13:05:33.000Z</time>
      </trkpt>
      <trkpt lat="46.21007" lon="4.70125">
        <ele>426.39999389648</ele>
        <time>2020-06-25T13:05:45.000Z</time>
      </trkpt>
      <trkpt lat="46.2104" lon="4.70118">
        <ele>428.20001220703</ele>
        <time>2020-06-25T13:05:55.000Z</time>
      </trkpt>
      <trkpt lat="46.21073" lon="4.70126">
        <ele>431.39999389648</ele>
        <time>2020-06-25T13:06:05.000Z</time>
      </trkpt>
      <trkpt lat="46.21108" lon="4.70138">
        <ele>433.79998779297</ele>
        <time>2020-06-25T13:06:14.000Z</time>
      </trkpt>
      <trkpt lat="46.21151" lon="4.70129">
        <ele>436.60000610352</ele>
        <time>2020-06-25T13:06:25.000Z</time>
      </trkpt>
      <trkpt lat="46.21185" lon="4.70108">
        <ele>439.39999389648</ele>
        <time>2020-06-25T13:06:35.000Z</time>
      </trkpt>
      <trkpt lat="46.21213" lon="4.70072">
        <ele>442</ele>
        <time>2020-06-25T13:06:45.000Z</time>
      </trkpt>
      <trkpt lat="46.21219" lon="4.70057">
        <ele>443.39999389648</ele>
        <time>2020-06-25T13:06:48.000Z</time>
      </trkpt>
      <trkpt lat="46.21241" lon="4.70014">
        <ele>445.79998779297</ele>
        <time>2020-06-25T13:06:58.000Z</time>
      </trkpt>
      <trkpt lat="46.21259" lon="4.69969">
        <ele>448.39999389648</ele>
        <time>2020-06-25T13:07:08.000Z</time>
      </trkpt>
      <trkpt lat="46.21281" lon="4.6991">
        <ele>451.39999389648</ele>
        <time>2020-06-25T13:07:19.000Z</time>
      </trkpt>
      <trkpt lat="46.21295" lon="4.6988">
        <ele>453.20001220703</ele>
        <time>2020-06-25T13:07:25.000Z</time>
      </trkpt>
      <trkpt lat="46.21316" lon="4.69847">
        <ele>454.79998779297</ele>
        <time>2020-06-25T13:07:32.000Z</time>
      </trkpt>
      <trkpt lat="46.21329" lon="4.69831">
        <ele>456</ele>
        <time>2020-06-25T13:07:36.000Z</time>
      </trkpt>
      <trkpt lat="46.21343" lon="4.69803">
        <ele>457.60000610352</ele>
        <time>2020-06-25T13:07:42.000Z</time>
      </trkpt>
      <trkpt lat="46.21363" lon="4.69775">
        <ele>458.20001220703</ele>
        <time>2020-06-25T13:07:49.000Z</time>
      </trkpt>
      <trkpt lat="46.21401" lon="4.69718">
        <ele>458.79998779297</ele>
        <time>2020-06-25T13:08:01.000Z</time>
      </trkpt>
      <trkpt lat="46.21406" lon="4.69711">
        <ele>459</ele>
        <time>2020-06-25T13:08:03.000Z</time>
      </trkpt>
      <trkpt lat="46.21437" lon="4.69655">
        <ele>459.60000610352</ele>
        <time>2020-06-25T13:08:13.000Z</time>
      </trkpt>
      <trkpt lat="46.2144" lon="4.69642">
        <ele>460</ele>
        <time>2020-06-25T13:08:15.000Z</time>
      </trkpt>
      <trkpt lat="46.21451" lon="4.69633">
        <ele>460.20001220703</ele>
        <time>2020-06-25T13:08:18.000Z</time>
      </trkpt>
      <trkpt lat="46.21492" lon="4.6961">
        <ele>460.79998779297</ele>
        <time>2020-06-25T13:08:29.000Z</time>
      </trkpt>
      <trkpt lat="46.21531" lon="4.69587">
        <ele>461.60000610352</ele>
        <time>2020-06-25T13:08:40.000Z</time>
      </trkpt>
      <trkpt lat="46.21536" lon="4.69584">
        <ele>461.60000610352</ele>
        <time>2020-06-25T13:08:41.000Z</time>
      </trkpt>
      <trkpt lat="46.21562" lon="4.69583">
        <ele>462</ele>
        <time>2020-06-25T13:08:47.000Z</time>
      </trkpt>
      <trkpt lat="46.21589" lon="4.69582">
        <ele>462.60000610352</ele>
        <time>2020-06-25T13:08:54.000Z</time>
      </trkpt>
      <trkpt lat="46.21618" lon="4.69592">
        <ele>463.20001220703</ele>
        <time>2020-06-25T13:09:02.000Z</time>
      </trkpt>
      <trkpt lat="46.21624" lon="4.69595">
        <ele>463.39999389648</ele>
        <time>2020-06-25T13:09:04.000Z</time>
      </trkpt>
      <trkpt lat="46.21638" lon="4.69609">
        <ele>463.60000610352</ele>
        <time>2020-06-25T13:09:08.000Z</time>
      </trkpt>
      <trkpt lat="46.21644" lon="4.69618">
        <ele>463.60000610352</ele>
        <time>2020-06-25T13:09:10.000Z</time>
      </trkpt>
      <trkpt lat="46.21665" lon="4.69657">
        <ele>464.60000610352</ele>
        <time>2020-06-25T13:09:21.000Z</time>
      </trkpt>
      <trkpt lat="46.21679" lon="4.69673">
        <ele>464.60000610352</ele>
        <time>2020-06-25T13:09:25.000Z</time>
      </trkpt>
      <trkpt lat="46.21733" lon="4.69706">
        <ele>462.20001220703</ele>
        <time>2020-06-25T13:09:38.000Z</time>
      </trkpt>
      <trkpt lat="46.21735" lon="4.6971">
        <ele>461.60000610352</ele>
        <time>2020-06-25T13:09:39.000Z</time>
      </trkpt>
      <trkpt lat="46.21736" lon="4.69714">
        <ele>461.20001220703</ele>
        <time>2020-06-25T13:09:40.000Z</time>
      </trkpt>
      <trkpt lat="46.21738" lon="4.69718">
        <ele>461</ele>
        <time>2020-06-25T13:09:41.000Z</time>
      </trkpt>
      <trkpt lat="46.21743" lon="4.69731">
        <ele>460</ele>
        <time>2020-06-25T13:09:45.000Z</time>
      </trkpt>
      <trkpt lat="46.21751" lon="4.69729">
        <ele>459.60000610352</ele>
        <time>2020-06-25T13:09:48.000Z</time>
      </trkpt>
      <trkpt lat="46.21753" lon="4.69726">
        <ele>459.60000610352</ele>
        <time>2020-06-25T13:09:49.000Z</time>
      </trkpt>
      <trkpt lat="46.21756" lon="4.69722">
        <ele>459.20001220703</ele>
        <time>2020-06-25T13:09:50.000Z</time>
      </trkpt>
      <trkpt lat="46.21759" lon="4.69719">
        <ele>459.20001220703</ele>
        <time>2020-06-25T13:09:51.000Z</time>
      </trkpt>
      <trkpt lat="46.21762" lon="4.69715">
        <ele>459</ele>
        <time>2020-06-25T13:09:52.000Z</time>
      </trkpt>
      <trkpt lat="46.21765" lon="4.69712">
        <ele>459</ele>
        <time>2020-06-25T13:09:53.000Z</time>
      </trkpt>
      <trkpt lat="46.21767" lon="4.69708">
        <ele>459</ele>
        <time>2020-06-25T13:09:54.000Z</time>
      </trkpt>
      <trkpt lat="46.21769" lon="4.69705">
        <ele>459</ele>
        <time>2020-06-25T13:09:55.000Z</time>
      </trkpt>
      <trkpt lat="46.21773" lon="4.69702">
        <ele>459</ele>
        <time>2020-06-25T13:09:56.000Z</time>
      </trkpt>
      <trkpt lat="46.21776" lon="4.697">
        <ele>459</ele>
        <time>2020-06-25T13:09:57.000Z</time>
      </trkpt>
      <trkpt lat="46.21779" lon="4.69696">
        <ele>459</ele>
        <time>2020-06-25T13:09:58.000Z</time>
      </trkpt>
      <trkpt lat="46.21783" lon="4.69694">
        <ele>459</ele>
        <time>2020-06-25T13:09:59.000Z</time>
      </trkpt>
      <trkpt lat="46.21786" lon="4.69691">
        <ele>459</ele>
        <time>2020-06-25T13:10:00.000Z</time>
      </trkpt>
      <trkpt lat="46.21787" lon="4.69688">
        <ele>459</ele>
        <time>2020-06-25T13:10:01.000Z</time>
      </trkpt>
      <trkpt lat="46.21789" lon="4.69685">
        <ele>459.20001220703</ele>
        <time>2020-06-25T13:10:02.000Z</time>
      </trkpt>
      <trkpt lat="46.21791" lon="4.69682">
        <ele>459.20001220703</ele>
        <time>2020-06-25T13:10:03.000Z</time>
      </trkpt>
      <trkpt lat="46.21823" lon="4.69645">
        <ele>459.60000610352</ele>
        <time>2020-06-25T13:10:13.000Z</time>
      </trkpt>
      <trkpt lat="46.2184" lon="4.69622">
        <ele>458.39999389648</ele>
        <time>2020-06-25T13:10:24.000Z</time>
      </trkpt>
      <trkpt lat="46.2184" lon="4.69621">
        <ele>458.20001220703</ele>
        <time>2020-06-25T13:10:25.000Z</time>
      </trkpt>
      <trkpt lat="46.21843" lon="4.69607">
        <ele>458</ele>
        <time>2020-06-25T13:10:55.000Z</time>
      </trkpt>
      <trkpt lat="46.21843" lon="4.69596">
        <ele>458</ele>
        <time>2020-06-25T13:10:57.000Z</time>
      </trkpt>
      <trkpt lat="46.21837" lon="4.69506">
        <ele>456.79998779297</ele>
        <time>2020-06-25T13:11:11.000Z</time>
      </trkpt>
      <trkpt lat="46.21835" lon="4.69481">
        <ele>456.39999389648</ele>
        <time>2020-06-25T13:11:15.000Z</time>
      </trkpt>
      <trkpt lat="46.21832" lon="4.69462">
        <ele>455.79998779297</ele>
        <time>2020-06-25T13:11:18.000Z</time>
      </trkpt>
      <trkpt lat="46.21827" lon="4.69445">
        <ele>455.39999389648</ele>
        <time>2020-06-25T13:11:21.000Z</time>
      </trkpt>
      <trkpt lat="46.21821" lon="4.69432">
        <ele>455</ele>
        <time>2020-06-25T13:11:23.000Z</time>
      </trkpt>
      <trkpt lat="46.21801" lon="4.69393">
        <ele>453.79998779297</ele>
        <time>2020-06-25T13:11:29.000Z</time>
      </trkpt>
      <trkpt lat="46.21791" lon="4.69374">
        <ele>453.20001220703</ele>
        <time>2020-06-25T13:11:32.000Z</time>
      </trkpt>
      <trkpt lat="46.21773" lon="4.69315">
        <ele>452.60000610352</ele>
        <time>2020-06-25T13:11:40.000Z</time>
      </trkpt>
      <trkpt lat="46.21773" lon="4.69291">
        <ele>452.20001220703</ele>
        <time>2020-06-25T13:11:43.000Z</time>
      </trkpt>
      <trkpt lat="46.21771" lon="4.69268">
        <ele>451.60000610352</ele>
        <time>2020-06-25T13:11:46.000Z</time>
      </trkpt>
      <trkpt lat="46.2175" lon="4.69232">
        <ele>451.20001220703</ele>
        <time>2020-06-25T13:11:53.000Z</time>
      </trkpt>
      <trkpt lat="46.21732" lon="4.69224">
        <ele>451</ele>
        <time>2020-06-25T13:11:57.000Z</time>
      </trkpt>
      <trkpt lat="46.21721" lon="4.69221">
        <ele>450.79998779297</ele>
        <time>2020-06-25T13:11:59.000Z</time>
      </trkpt>
      <trkpt lat="46.21702" lon="4.69215">
        <ele>450.39999389648</ele>
        <time>2020-06-25T13:12:02.000Z</time>
      </trkpt>
      <trkpt lat="46.21643" lon="4.69195">
        <ele>448.20001220703</ele>
        <time>2020-06-25T13:12:13.000Z</time>
      </trkpt>
      <trkpt lat="46.21631" lon="4.6919">
        <ele>448</ele>
        <time>2020-06-25T13:12:15.000Z</time>
      </trkpt>
      <trkpt lat="46.21603" lon="4.69167">
        <ele>447.39999389648</ele>
        <time>2020-06-25T13:12:20.000Z</time>
      </trkpt>
      <trkpt lat="46.21584" lon="4.69137">
        <ele>446.79998779297</ele>
        <time>2020-06-25T13:12:25.000Z</time>
      </trkpt>
      <trkpt lat="46.2156" lon="4.69075">
        <ele>445.79998779297</ele>
        <time>2020-06-25T13:12:33.000Z</time>
      </trkpt>
      <trkpt lat="46.21549" lon="4.69052">
        <ele>445.20001220703</ele>
        <time>2020-06-25T13:12:36.000Z</time>
      </trkpt>
      <trkpt lat="46.21534" lon="4.69009">
        <ele>444.20001220703</ele>
        <time>2020-06-25T13:12:41.000Z</time>
      </trkpt>
      <trkpt lat="46.21529" lon="4.68994">
        <ele>443.79998779297</ele>
        <time>2020-06-25T13:12:43.000Z</time>
      </trkpt>
      <trkpt lat="46.21525" lon="4.6898">
        <ele>443.60000610352</ele>
        <time>2020-06-25T13:12:45.000Z</time>
      </trkpt>
      <trkpt lat="46.21519" lon="4.68963">
        <ele>443.20001220703</ele>
        <time>2020-06-25T13:12:47.000Z</time>
      </trkpt>
      <trkpt lat="46.21511" lon="4.68933">
        <ele>442.60000610352</ele>
        <time>2020-06-25T13:12:51.000Z</time>
      </trkpt>
      <trkpt lat="46.2148" lon="4.68895">
        <ele>441.79998779297</ele>
        <time>2020-06-25T13:12:57.000Z</time>
      </trkpt>
      <trkpt lat="46.21468" lon="4.68888">
        <ele>441.60000610352</ele>
        <time>2020-06-25T13:12:59.000Z</time>
      </trkpt>
      <trkpt lat="46.21409" lon="4.68824">
        <ele>440</ele>
        <time>2020-06-25T13:13:10.000Z</time>
      </trkpt>
      <trkpt lat="46.21392" lon="4.68775">
        <ele>439.20001220703</ele>
        <time>2020-06-25T13:13:17.000Z</time>
      </trkpt>
      <trkpt lat="46.21395" lon="4.68699">
        <ele>438.39999389648</ele>
        <time>2020-06-25T13:13:26.000Z</time>
      </trkpt>
      <trkpt lat="46.21394" lon="4.68683">
        <ele>438.20001220703</ele>
        <time>2020-06-25T13:13:28.000Z</time>
      </trkpt>
      <trkpt lat="46.21391" lon="4.68659">
        <ele>437.79998779297</ele>
        <time>2020-06-25T13:13:31.000Z</time>
      </trkpt>
      <trkpt lat="46.21383" lon="4.68594">
        <ele>436.79998779297</ele>
        <time>2020-06-25T13:13:39.000Z</time>
      </trkpt>
      <trkpt lat="46.21382" lon="4.68579">
        <ele>436.39999389648</ele>
        <time>2020-06-25T13:13:41.000Z</time>
      </trkpt>
      <trkpt lat="46.21378" lon="4.68545">
        <ele>435.39999389648</ele>
        <time>2020-06-25T13:13:45.000Z</time>
      </trkpt>
      <trkpt lat="46.21371" lon="4.68509">
        <ele>434.79998779297</ele>
        <time>2020-06-25T13:13:49.000Z</time>
      </trkpt>
      <trkpt lat="46.21357" lon="4.68472">
        <ele>434.20001220703</ele>
        <time>2020-06-25T13:13:54.000Z</time>
      </trkpt>
      <trkpt lat="46.2131" lon="4.68424">
        <ele>432.79998779297</ele>
        <time>2020-06-25T13:14:05.000Z</time>
      </trkpt>
      <trkpt lat="46.21291" lon="4.68403">
        <ele>431.79998779297</ele>
        <time>2020-06-25T13:14:09.000Z</time>
      </trkpt>
      <trkpt lat="46.21236" lon="4.68333">
        <ele>429.39999389648</ele>
        <time>2020-06-25T13:14:21.000Z</time>
      </trkpt>
      <trkpt lat="46.21222" lon="4.68309">
        <ele>428.79998779297</ele>
        <time>2020-06-25T13:14:25.000Z</time>
      </trkpt>
      <trkpt lat="46.21209" lon="4.68293">
        <ele>428.60000610352</ele>
        <time>2020-06-25T13:14:34.000Z</time>
      </trkpt>
      <trkpt lat="46.21201" lon="4.6829">
        <ele>430.20001220703</ele>
        <time>2020-06-25T13:16:42.000Z</time>
      </trkpt>
      <trkpt lat="46.21193" lon="4.68287">
        <ele>430.20001220703</ele>
        <time>2020-06-25T13:16:44.000Z</time>
      </trkpt>
      <trkpt lat="46.21118" lon="4.68299">
        <ele>427</ele>
        <time>2020-06-25T13:16:57.000Z</time>
      </trkpt>
      <trkpt lat="46.21034" lon="4.68339">
        <ele>424.60000610352</ele>
        <time>2020-06-25T13:17:12.000Z</time>
      </trkpt>
      <trkpt lat="46.20961" lon="4.68399">
        <ele>422.79998779297</ele>
        <time>2020-06-25T13:17:26.000Z</time>
      </trkpt>
      <trkpt lat="46.20929" lon="4.68422">
        <ele>422.39999389648</ele>
        <time>2020-06-25T13:17:32.000Z</time>
      </trkpt>
      <trkpt lat="46.20864" lon="4.68436">
        <ele>422</ele>
        <time>2020-06-25T13:17:44.000Z</time>
      </trkpt>
      <trkpt lat="46.20843" lon="4.68428">
        <ele>421.39999389648</ele>
        <time>2020-06-25T13:17:49.000Z</time>
      </trkpt>
      <trkpt lat="46.20771" lon="4.68355">
        <ele>420.60000610352</ele>
        <time>2020-06-25T13:18:04.000Z</time>
      </trkpt>
      <trkpt lat="46.20708" lon="4.68295">
        <ele>422</ele>
        <time>2020-06-25T13:18:19.000Z</time>
      </trkpt>
      <trkpt lat="46.20688" lon="4.68288">
        <ele>423.39999389648</ele>
        <time>2020-06-25T13:18:24.000Z</time>
      </trkpt>
      <trkpt lat="46.20676" lon="4.68286">
        <ele>424.20001220703</ele>
        <time>2020-06-25T13:18:27.000Z</time>
      </trkpt>
      <trkpt lat="46.20674" lon="4.68275">
        <ele>425.60000610352</ele>
        <time>2020-06-25T13:18:31.000Z</time>
      </trkpt>
      <trkpt lat="46.20696" lon="4.68235">
        <ele>427.39999389648</ele>
        <time>2020-06-25T13:18:41.000Z</time>
      </trkpt>
      <trkpt lat="46.207" lon="4.68221">
        <ele>427.79998779297</ele>
        <time>2020-06-25T13:18:43.000Z</time>
      </trkpt>
      <trkpt lat="46.20686" lon="4.68173">
        <ele>429</ele>
        <time>2020-06-25T13:18:50.000Z</time>
      </trkpt>
      <trkpt lat="46.20629" lon="4.68131">
        <ele>432.39999389648</ele>
        <time>2020-06-25T13:19:02.000Z</time>
      </trkpt>
      <trkpt lat="46.20608" lon="4.68118">
        <ele>436</ele>
        <time>2020-06-25T13:19:06.000Z</time>
      </trkpt>
      <trkpt lat="46.20582" lon="4.68106">
        <ele>439</ele>
        <time>2020-06-25T13:19:11.000Z</time>
      </trkpt>
      <trkpt lat="46.20524" lon="4.68079">
        <ele>442.39999389648</ele>
        <time>2020-06-25T13:19:23.000Z</time>
      </trkpt>
      <trkpt lat="46.20506" lon="4.68073">
        <ele>445.39999389648</ele>
        <time>2020-06-25T13:19:27.000Z</time>
      </trkpt>
      <trkpt lat="46.20489" lon="4.68066">
        <ele>448.39999389648</ele>
        <time>2020-06-25T13:19:31.000Z</time>
      </trkpt>
      <trkpt lat="46.20473" lon="4.68057">
        <ele>450.79998779297</ele>
        <time>2020-06-25T13:19:35.000Z</time>
      </trkpt>
      <trkpt lat="46.20462" lon="4.68049">
        <ele>452.20001220703</ele>
        <time>2020-06-25T13:19:38.000Z</time>
      </trkpt>
      <trkpt lat="46.20448" lon="4.68035">
        <ele>455.39999389648</ele>
        <time>2020-06-25T13:19:44.000Z</time>
      </trkpt>
      <trkpt lat="46.20448" lon="4.68035">
        <ele>457</ele>
        <time>2020-06-25T13:19:47.000Z</time>
      </trkpt>
      <trkpt lat="46.20443" lon="4.68028">
        <ele>458.20001220703</ele>
        <time>2020-06-25T13:20:25.000Z</time>
      </trkpt>
      <trkpt lat="46.20422" lon="4.67998">
        <ele>457.79998779297</ele>
        <time>2020-06-25T13:20:32.000Z</time>
      </trkpt>
      <trkpt lat="46.20388" lon="4.67903">
        <ele>454.60000610352</ele>
        <time>2020-06-25T13:20:46.000Z</time>
      </trkpt>
      <trkpt lat="46.20386" lon="4.67897">
        <ele>454.39999389648</ele>
        <time>2020-06-25T13:20:47.000Z</time>
      </trkpt>
      <trkpt lat="46.2037" lon="4.67851">
        <ele>453.60000610352</ele>
        <time>2020-06-25T13:20:53.000Z</time>
      </trkpt>
      <trkpt lat="46.20343" lon="4.6782">
        <ele>452.79998779297</ele>
        <time>2020-06-25T13:20:59.000Z</time>
      </trkpt>
      <trkpt lat="46.20255" lon="4.67761">
        <ele>453.79998779297</ele>
        <time>2020-06-25T13:21:16.000Z</time>
      </trkpt>
      <trkpt lat="46.20209" lon="4.67697">
        <ele>454.39999389648</ele>
        <time>2020-06-25T13:21:27.000Z</time>
      </trkpt>
      <trkpt lat="46.20199" lon="4.67668">
        <ele>454.20001220703</ele>
        <time>2020-06-25T13:21:31.000Z</time>
      </trkpt>
      <trkpt lat="46.20188" lon="4.67613">
        <ele>454.20001220703</ele>
        <time>2020-06-25T13:21:38.000Z</time>
      </trkpt>
      <trkpt lat="46.20172" lon="4.67538">
        <ele>454.79998779297</ele>
        <time>2020-06-25T13:21:47.000Z</time>
      </trkpt>
      <trkpt lat="46.20129" lon="4.67406">
        <ele>457.79998779297</ele>
        <time>2020-06-25T13:22:05.000Z</time>
      </trkpt>
      <trkpt lat="46.20126" lon="4.67394">
        <ele>458.60000610352</ele>
        <time>2020-06-25T13:22:07.000Z</time>
      </trkpt>
      <trkpt lat="46.20121" lon="4.67368">
        <ele>460</ele>
        <time>2020-06-25T13:22:11.000Z</time>
      </trkpt>
      <trkpt lat="46.20118" lon="4.67318">
        <ele>460.60000610352</ele>
        <time>2020-06-25T13:22:17.000Z</time>
      </trkpt>
      <trkpt lat="46.20114" lon="4.67296">
        <ele>460.39999389648</ele>
        <time>2020-06-25T13:22:20.000Z</time>
      </trkpt>
      <trkpt lat="46.20093" lon="4.67267">
        <ele>458.79998779297</ele>
        <time>2020-06-25T13:22:27.000Z</time>
      </trkpt>
      <trkpt lat="46.20009" lon="4.67235">
        <ele>457.60000610352</ele>
        <time>2020-06-25T13:22:42.000Z</time>
      </trkpt>
      <trkpt lat="46.19968" lon="4.67209">
        <ele>458</ele>
        <time>2020-06-25T13:22:50.000Z</time>
      </trkpt>
      <trkpt lat="46.19927" lon="4.6717">
        <ele>460.39999389648</ele>
        <time>2020-06-25T13:22:59.000Z</time>
      </trkpt>
      <trkpt lat="46.19902" lon="4.67156">
        <ele>461.79998779297</ele>
        <time>2020-06-25T13:23:04.000Z</time>
      </trkpt>
      <trkpt lat="46.19843" lon="4.67147">
        <ele>463.20001220703</ele>
        <time>2020-06-25T13:23:15.000Z</time>
      </trkpt>
      <trkpt lat="46.19832" lon="4.67149">
        <ele>464</ele>
        <time>2020-06-25T13:23:17.000Z</time>
      </trkpt>
      <trkpt lat="46.19818" lon="4.67155">
        <ele>465.79998779297</ele>
        <time>2020-06-25T13:23:20.000Z</time>
      </trkpt>
      <trkpt lat="46.1977" lon="4.67181">
        <ele>469.60000610352</ele>
        <time>2020-06-25T13:23:29.000Z</time>
      </trkpt>
      <trkpt lat="46.19707" lon="4.67213">
        <ele>473</ele>
        <time>2020-06-25T13:23:41.000Z</time>
      </trkpt>
      <trkpt lat="46.19633" lon="4.67241">
        <ele>473.60000610352</ele>
        <time>2020-06-25T13:23:53.000Z</time>
      </trkpt>
      <trkpt lat="46.19592" lon="4.67263">
        <ele>470.60000610352</ele>
        <time>2020-06-25T13:24:02.000Z</time>
      </trkpt>
      <trkpt lat="46.19524" lon="4.6728">
        <ele>469.20001220703</ele>
        <time>2020-06-25T13:24:16.000Z</time>
      </trkpt>
      <trkpt lat="46.19472" lon="4.67305">
        <ele>468.60000610352</ele>
        <time>2020-06-25T13:24:26.000Z</time>
      </trkpt>
      <trkpt lat="46.19436" lon="4.67301">
        <ele>467.60000610352</ele>
        <time>2020-06-25T13:24:33.000Z</time>
      </trkpt>
      <trkpt lat="46.19422" lon="4.67292">
        <ele>467.20001220703</ele>
        <time>2020-06-25T13:24:36.000Z</time>
      </trkpt>
      <trkpt lat="46.19412" lon="4.67287">
        <ele>466.39999389648</ele>
        <time>2020-06-25T13:24:38.000Z</time>
      </trkpt>
      <trkpt lat="46.19389" lon="4.67287">
        <ele>465.20001220703</ele>
        <time>2020-06-25T13:24:43.000Z</time>
      </trkpt>
      <trkpt lat="46.19358" lon="4.67299">
        <ele>464</ele>
        <time>2020-06-25T13:24:48.000Z</time>
      </trkpt>
      <trkpt lat="46.19345" lon="4.67306">
        <ele>463</ele>
        <time>2020-06-25T13:24:50.000Z</time>
      </trkpt>
      <trkpt lat="46.1931" lon="4.67335">
        <ele>459.39999389648</ele>
        <time>2020-06-25T13:24:56.000Z</time>
      </trkpt>
      <trkpt lat="46.19282" lon="4.67359">
        <ele>456.39999389648</ele>
        <time>2020-06-25T13:25:01.000Z</time>
      </trkpt>
      <trkpt lat="46.19257" lon="4.67377">
        <ele>454.39999389648</ele>
        <time>2020-06-25T13:25:05.000Z</time>
      </trkpt>
      <trkpt lat="46.19245" lon="4.67387">
        <ele>454.20001220703</ele>
        <time>2020-06-25T13:25:07.000Z</time>
      </trkpt>
      <trkpt lat="46.19216" lon="4.67426">
        <ele>451.39999389648</ele>
        <time>2020-06-25T13:25:13.000Z</time>
      </trkpt>
      <trkpt lat="46.192" lon="4.67442">
        <ele>449.39999389648</ele>
        <time>2020-06-25T13:25:16.000Z</time>
      </trkpt>
      <trkpt lat="46.19161" lon="4.67488">
        <ele>445.60000610352</ele>
        <time>2020-06-25T13:25:25.000Z</time>
      </trkpt>
      <trkpt lat="46.19127" lon="4.67544">
        <ele>442</ele>
        <time>2020-06-25T13:25:33.000Z</time>
      </trkpt>
      <trkpt lat="46.19114" lon="4.6757">
        <ele>440</ele>
        <time>2020-06-25T13:25:36.000Z</time>
      </trkpt>
      <trkpt lat="46.19104" lon="4.6761">
        <ele>437.39999389648</ele>
        <time>2020-06-25T13:25:40.000Z</time>
      </trkpt>
      <trkpt lat="46.191" lon="4.67671">
        <ele>435</ele>
        <time>2020-06-25T13:25:46.000Z</time>
      </trkpt>
      <trkpt lat="46.1909" lon="4.67707">
        <ele>432.79998779297</ele>
        <time>2020-06-25T13:25:51.000Z</time>
      </trkpt>
      <trkpt lat="46.19084" lon="4.6772">
        <ele>432</ele>
        <time>2020-06-25T13:25:53.000Z</time>
      </trkpt>
      <trkpt lat="46.19078" lon="4.67745">
        <ele>430.39999389648</ele>
        <time>2020-06-25T13:25:56.000Z</time>
      </trkpt>
      <trkpt lat="46.19075" lon="4.67777">
        <ele>428.39999389648</ele>
        <time>2020-06-25T13:25:59.000Z</time>
      </trkpt>
      <trkpt lat="46.19091" lon="4.67825">
        <ele>423.20001220703</ele>
        <time>2020-06-25T13:26:05.000Z</time>
      </trkpt>
      <trkpt lat="46.19093" lon="4.67868">
        <ele>418</ele>
        <time>2020-06-25T13:26:11.000Z</time>
      </trkpt>
      <trkpt lat="46.19086" lon="4.67881">
        <ele>416.39999389648</ele>
        <time>2020-06-25T13:26:13.000Z</time>
      </trkpt>
      <trkpt lat="46.19071" lon="4.67895">
        <ele>413</ele>
        <time>2020-06-25T13:26:16.000Z</time>
      </trkpt>
      <trkpt lat="46.19055" lon="4.6791">
        <ele>409.60000610352</ele>
        <time>2020-06-25T13:26:19.000Z</time>
      </trkpt>
      <trkpt lat="46.19051" lon="4.6792">
        <ele>408.39999389648</ele>
        <time>2020-06-25T13:26:20.000Z</time>
      </trkpt>
      <trkpt lat="46.1903" lon="4.67987">
        <ele>403.60000610352</ele>
        <time>2020-06-25T13:26:26.000Z</time>
      </trkpt>
      <trkpt lat="46.19025" lon="4.68024">
        <ele>399</ele>
        <time>2020-06-25T13:26:29.000Z</time>
      </trkpt>
      <trkpt lat="46.19025" lon="4.6805">
        <ele>394.39999389648</ele>
        <time>2020-06-25T13:26:31.000Z</time>
      </trkpt>
      <trkpt lat="46.19024" lon="4.68075">
        <ele>391.39999389648</ele>
        <time>2020-06-25T13:26:33.000Z</time>
      </trkpt>
      <trkpt lat="46.19022" lon="4.68087">
        <ele>390.39999389648</ele>
        <time>2020-06-25T13:26:34.000Z</time>
      </trkpt>
      <trkpt lat="46.19014" lon="4.68121">
        <ele>387</ele>
        <time>2020-06-25T13:26:37.000Z</time>
      </trkpt>
      <trkpt lat="46.19011" lon="4.68131">
        <ele>385.39999389648</ele>
        <time>2020-06-25T13:26:38.000Z</time>
      </trkpt>
      <trkpt lat="46.18997" lon="4.68163">
        <ele>379.79998779297</ele>
        <time>2020-06-25T13:26:41.000Z</time>
      </trkpt>
      <trkpt lat="46.18977" lon="4.68199">
        <ele>376.79998779297</ele>
        <time>2020-06-25T13:26:44.000Z</time>
      </trkpt>
      <trkpt lat="46.18959" lon="4.6823">
        <ele>373.79998779297</ele>
        <time>2020-06-25T13:26:47.000Z</time>
      </trkpt>
      <trkpt lat="46.18942" lon="4.68247">
        <ele>369</ele>
        <time>2020-06-25T13:26:50.000Z</time>
      </trkpt>
      <trkpt lat="46.18929" lon="4.6825">
        <ele>365</ele>
        <time>2020-06-25T13:26:52.000Z</time>
      </trkpt>
      <trkpt lat="46.18921" lon="4.68249">
        <ele>363.60000610352</ele>
        <time>2020-06-25T13:26:53.000Z</time>
      </trkpt>
      <trkpt lat="46.18873" lon="4.68204">
        <ele>359.60000610352</ele>
        <time>2020-06-25T13:27:01.000Z</time>
      </trkpt>
      <trkpt lat="46.18869" lon="4.68183">
        <ele>357.60000610352</ele>
        <time>2020-06-25T13:27:03.000Z</time>
      </trkpt>
      <trkpt lat="46.18868" lon="4.68166">
        <ele>355.20001220703</ele>
        <time>2020-06-25T13:27:05.000Z</time>
      </trkpt>
      <trkpt lat="46.18857" lon="4.68154">
        <ele>352.79998779297</ele>
        <time>2020-06-25T13:27:11.000Z</time>
      </trkpt>
      <trkpt lat="46.18824" lon="4.68249">
        <ele>350.39999389648</ele>
        <time>2020-06-25T13:27:20.000Z</time>
      </trkpt>
      <trkpt lat="46.18817" lon="4.68276">
        <ele>348.20001220703</ele>
        <time>2020-06-25T13:27:22.000Z</time>
      </trkpt>
      <trkpt lat="46.18795" lon="4.68325">
        <ele>342.39999389648</ele>
        <time>2020-06-25T13:27:26.000Z</time>
      </trkpt>
      <trkpt lat="46.18782" lon="4.68348">
        <ele>339</ele>
        <time>2020-06-25T13:27:28.000Z</time>
      </trkpt>
      <trkpt lat="46.18771" lon="4.68366">
        <ele>335</ele>
        <time>2020-06-25T13:27:30.000Z</time>
      </trkpt>
      <trkpt lat="46.18766" lon="4.68373">
        <ele>333.39999389648</ele>
        <time>2020-06-25T13:27:31.000Z</time>
      </trkpt>
      <trkpt lat="46.18759" lon="4.68387">
        <ele>330.20001220703</ele>
        <time>2020-06-25T13:27:33.000Z</time>
      </trkpt>
      <trkpt lat="46.18733" lon="4.68429">
        <ele>326</ele>
        <time>2020-06-25T13:27:38.000Z</time>
      </trkpt>
      <trkpt lat="46.18713" lon="4.68488">
        <ele>324.39999389648</ele>
        <time>2020-06-25T13:27:43.000Z</time>
      </trkpt>
      <trkpt lat="46.18694" lon="4.68525">
        <ele>319.39999389648</ele>
        <time>2020-06-25T13:27:48.000Z</time>
      </trkpt>
      <trkpt lat="46.18687" lon="4.68524">
        <ele>318</ele>
        <time>2020-06-25T13:27:49.000Z</time>
      </trkpt>
      <trkpt lat="46.18658" lon="4.68509">
        <ele>312.79998779297</ele>
        <time>2020-06-25T13:27:53.000Z</time>
      </trkpt>
      <trkpt lat="46.18634" lon="4.68497">
        <ele>309.79998779297</ele>
        <time>2020-06-25T13:27:56.000Z</time>
      </trkpt>
      <trkpt lat="46.18598" lon="4.68488">
        <ele>306.39999389648</ele>
        <time>2020-06-25T13:28:00.000Z</time>
      </trkpt>
      <trkpt lat="46.18551" lon="4.68485">
        <ele>302.79998779297</ele>
        <time>2020-06-25T13:28:05.000Z</time>
      </trkpt>
      <trkpt lat="46.18532" lon="4.68486">
        <ele>300.39999389648</ele>
        <time>2020-06-25T13:28:09.000Z</time>
      </trkpt>
      <trkpt lat="46.18524" lon="4.68472">
        <ele>298.79998779297</ele>
        <time>2020-06-25T13:28:13.000Z</time>
      </trkpt>
      <trkpt lat="46.18519" lon="4.68412">
        <ele>297.60000610352</ele>
        <time>2020-06-25T13:28:21.000Z</time>
      </trkpt>
      <trkpt lat="46.18505" lon="4.6838">
        <ele>296.60000610352</ele>
        <time>2020-06-25T13:28:26.000Z</time>
      </trkpt>
      <trkpt lat="46.18489" lon="4.6837">
        <ele>296.39999389648</ele>
        <time>2020-06-25T13:28:29.000Z</time>
      </trkpt>
      <trkpt lat="46.18465" lon="4.6834">
        <ele>296.39999389648</ele>
        <time>2020-06-25T13:28:35.000Z</time>
      </trkpt>
      <trkpt lat="46.18446" lon="4.68291">
        <ele>299.60000610352</ele>
        <time>2020-06-25T13:28:42.000Z</time>
      </trkpt>
      <trkpt lat="46.18433" lon="4.68257">
        <ele>301.60000610352</ele>
        <time>2020-06-25T13:28:47.000Z</time>
      </trkpt>
      <trkpt lat="46.18426" lon="4.68229">
        <ele>303.39999389648</ele>
        <time>2020-06-25T13:28:51.000Z</time>
      </trkpt>
      <trkpt lat="46.18405" lon="4.68217">
        <ele>307.20001220703</ele>
        <time>2020-06-25T13:28:58.000Z</time>
      </trkpt>
      <trkpt lat="46.18389" lon="4.68238">
        <ele>311.39999389648</ele>
        <time>2020-06-25T13:29:03.000Z</time>
      </trkpt>
      <trkpt lat="46.18382" lon="4.68244">
        <ele>312.20001220703</ele>
        <time>2020-06-25T13:29:05.000Z</time>
      </trkpt>
      <trkpt lat="46.1836" lon="4.68265">
        <ele>316</ele>
        <time>2020-06-25T13:29:11.000Z</time>
      </trkpt>
      <trkpt lat="46.18352" lon="4.68272">
        <ele>316.79998779297</ele>
        <time>2020-06-25T13:29:13.000Z</time>
      </trkpt>
      <trkpt lat="46.18329" lon="4.68276">
        <ele>318.60000610352</ele>
        <time>2020-06-25T13:29:18.000Z</time>
      </trkpt>
      <trkpt lat="46.1828" lon="4.68254">
        <ele>322.20001220703</ele>
        <time>2020-06-25T13:29:29.000Z</time>
      </trkpt>
      <trkpt lat="46.18272" lon="4.68248">
        <ele>322.79998779297</ele>
        <time>2020-06-25T13:29:31.000Z</time>
      </trkpt>
      <trkpt lat="46.18268" lon="4.68246">
        <ele>323.79998779297</ele>
        <time>2020-06-25T13:29:32.000Z</time>
      </trkpt>
      <trkpt lat="46.18263" lon="4.68244">
        <ele>324</ele>
        <time>2020-06-25T13:29:33.000Z</time>
      </trkpt>
      <trkpt lat="46.18254" lon="4.68242">
        <ele>324.60000610352</ele>
        <time>2020-06-25T13:29:35.000Z</time>
      </trkpt>
      <trkpt lat="46.18221" lon="4.68238">
        <ele>327.79998779297</ele>
        <time>2020-06-25T13:29:42.000Z</time>
      </trkpt>
      <trkpt lat="46.18154" lon="4.68238">
        <ele>328.20001220703</ele>
        <time>2020-06-25T13:29:54.000Z</time>
      </trkpt>
      <trkpt lat="46.18095" lon="4.68218">
        <ele>326.79998779297</ele>
        <time>2020-06-25T13:30:05.000Z</time>
      </trkpt>
      <trkpt lat="46.18085" lon="4.68214">
        <ele>326.60000610352</ele>
        <time>2020-06-25T13:30:07.000Z</time>
      </trkpt>
      <trkpt lat="46.1807" lon="4.68207">
        <ele>326.39999389648</ele>
        <time>2020-06-25T13:30:10.000Z</time>
      </trkpt>
      <trkpt lat="46.18036" lon="4.68201">
        <ele>326.60000610352</ele>
        <time>2020-06-25T13:30:20.000Z</time>
      </trkpt>
      <trkpt lat="46.18004" lon="4.68228">
        <ele>326.20001220703</ele>
        <time>2020-06-25T13:30:26.000Z</time>
      </trkpt>
      <trkpt lat="46.17979" lon="4.68258">
        <ele>323</ele>
        <time>2020-06-25T13:30:30.000Z</time>
      </trkpt>
      <trkpt lat="46.17948" lon="4.68292">
        <ele>319.60000610352</ele>
        <time>2020-06-25T13:30:34.000Z</time>
      </trkpt>
      <trkpt lat="46.17925" lon="4.68318">
        <ele>316.20001220703</ele>
        <time>2020-06-25T13:30:38.000Z</time>
      </trkpt>
      <trkpt lat="46.179" lon="4.6835">
        <ele>311.39999389648</ele>
        <time>2020-06-25T13:30:43.000Z</time>
      </trkpt>
      <trkpt lat="46.17885" lon="4.6837">
        <ele>310.20001220703</ele>
        <time>2020-06-25T13:30:46.000Z</time>
      </trkpt>
      <trkpt lat="46.17859" lon="4.68404">
        <ele>307.60000610352</ele>
        <time>2020-06-25T13:30:51.000Z</time>
      </trkpt>
      <trkpt lat="46.17848" lon="4.68438">
        <ele>306.39999389648</ele>
        <time>2020-06-25T13:30:55.000Z</time>
      </trkpt>
      <trkpt lat="46.17845" lon="4.68517">
        <ele>304.60000610352</ele>
        <time>2020-06-25T13:31:03.000Z</time>
      </trkpt>
      <trkpt lat="46.17838" lon="4.68517">
        <ele>302.20001220703</ele>
        <time>2020-06-25T13:31:08.000Z</time>
      </trkpt>
      <trkpt lat="46.17823" lon="4.68481">
        <ele>302</ele>
        <time>2020-06-25T13:31:20.000Z</time>
      </trkpt>
      <trkpt lat="46.17823" lon="4.68481">
        <ele>302.39999389648</ele>
        <time>2020-06-25T13:31:24.000Z</time>
      </trkpt>
      <trkpt lat="46.17825" lon="4.68489">
        <ele>303.60000610352</ele>
        <time>2020-06-25T13:31:43.000Z</time>
      </trkpt>
      <trkpt lat="46.17831" lon="4.68501">
        <ele>303.60000610352</ele>
        <time>2020-06-25T13:31:46.000Z</time>
      </trkpt>
      <trkpt lat="46.17813" lon="4.68511">
        <ele>302.79998779297</ele>
        <time>2020-06-25T13:31:54.000Z</time>
      </trkpt>
      <trkpt lat="46.17777" lon="4.68501">
        <ele>301.60000610352</ele>
        <time>2020-06-25T13:32:01.000Z</time>
      </trkpt>
      <trkpt lat="46.17767" lon="4.68501">
        <ele>301.60000610352</ele>
        <time>2020-06-25T13:32:03.000Z</time>
      </trkpt>
      <trkpt lat="46.17738" lon="4.68499">
        <ele>301</ele>
        <time>2020-06-25T13:32:08.000Z</time>
      </trkpt>
      <trkpt lat="46.17718" lon="4.6853">
        <ele>301</ele>
        <time>2020-06-25T13:32:15.000Z</time>
      </trkpt>
      <trkpt lat="46.17705" lon="4.68537">
        <ele>301.20001220703</ele>
        <time>2020-06-25T13:32:18.000Z</time>
      </trkpt>
      <trkpt lat="46.17639" lon="4.68536">
        <ele>302</ele>
        <time>2020-06-25T13:32:30.000Z</time>
      </trkpt>
      <trkpt lat="46.1761" lon="4.6853">
        <ele>302</ele>
        <time>2020-06-25T13:32:35.000Z</time>
      </trkpt>
      <trkpt lat="46.17547" lon="4.68516">
        <ele>301.79998779297</ele>
        <time>2020-06-25T13:32:46.000Z</time>
      </trkpt>
      <trkpt lat="46.17525" lon="4.68512">
        <ele>301.79998779297</ele>
        <time>2020-06-25T13:32:50.000Z</time>
      </trkpt>
      <trkpt lat="46.17442" lon="4.68498">
        <ele>302</ele>
        <time>2020-06-25T13:33:05.000Z</time>
      </trkpt>
      <trkpt lat="46.17433" lon="4.68498">
        <ele>302</ele>
        <time>2020-06-25T13:33:07.000Z</time>
      </trkpt>
      <trkpt lat="46.17371" lon="4.68474">
        <ele>301</ele>
        <time>2020-06-25T13:33:19.000Z</time>
      </trkpt>
      <trkpt lat="46.1735" lon="4.68455">
        <ele>300.60000610352</ele>
        <time>2020-06-25T13:33:24.000Z</time>
      </trkpt>
      <trkpt lat="46.17328" lon="4.68444">
        <ele>300.60000610352</ele>
        <time>2020-06-25T13:33:29.000Z</time>
      </trkpt>
      <trkpt lat="46.17279" lon="4.68419">
        <ele>299.20001220703</ele>
        <time>2020-06-25T13:33:41.000Z</time>
      </trkpt>
      <trkpt lat="46.1727" lon="4.68414">
        <ele>298</ele>
        <time>2020-06-25T13:33:44.000Z</time>
      </trkpt>
      <trkpt lat="46.17255" lon="4.68404">
        <ele>297.20001220703</ele>
        <time>2020-06-25T13:33:51.000Z</time>
      </trkpt>
      <trkpt lat="46.17262" lon="4.68395">
        <ele>296.79998779297</ele>
        <time>2020-06-25T13:33:55.000Z</time>
      </trkpt>
      <trkpt lat="46.17283" lon="4.6839">
        <ele>295.60000610352</ele>
        <time>2020-06-25T13:34:00.000Z</time>
      </trkpt>
      <trkpt lat="46.17359" lon="4.68361">
        <ele>295</ele>
        <time>2020-06-25T13:34:14.000Z</time>
      </trkpt>
      <trkpt lat="46.17412" lon="4.6833">
        <ele>295.79998779297</ele>
        <time>2020-06-25T13:34:24.000Z</time>
      </trkpt>
      <trkpt lat="46.17451" lon="4.6827">
        <ele>296</ele>
        <time>2020-06-25T13:34:34.000Z</time>
      </trkpt>
      <trkpt lat="46.17459" lon="4.68256">
        <ele>295.39999389648</ele>
        <time>2020-06-25T13:34:36.000Z</time>
      </trkpt>
      <trkpt lat="46.17467" lon="4.68233">
        <ele>295</ele>
        <time>2020-06-25T13:34:39.000Z</time>
      </trkpt>
      <trkpt lat="46.17469" lon="4.68199">
        <ele>294.39999389648</ele>
        <time>2020-06-25T13:34:43.000Z</time>
      </trkpt>
      <trkpt lat="46.17466" lon="4.68177">
        <ele>294</ele>
        <time>2020-06-25T13:34:46.000Z</time>
      </trkpt>
      <trkpt lat="46.17436" lon="4.6807">
        <ele>294</ele>
        <time>2020-06-25T13:35:00.000Z</time>
      </trkpt>
      <trkpt lat="46.17439" lon="4.67988">
        <ele>296</ele>
        <time>2020-06-25T13:35:11.000Z</time>
      </trkpt>
      <trkpt lat="46.17454" lon="4.67947">
        <ele>297.60000610352</ele>
        <time>2020-06-25T13:35:17.000Z</time>
      </trkpt>
      <trkpt lat="46.17512" lon="4.67867">
        <ele>299.79998779297</ele>
        <time>2020-06-25T13:35:31.000Z</time>
      </trkpt>
      <trkpt lat="46.1758" lon="4.67796">
        <ele>297.39999389648</ele>
        <time>2020-06-25T13:35:44.000Z</time>
      </trkpt>
      <trkpt lat="46.17582" lon="4.67793">
        <ele>297.20001220703</ele>
        <time>2020-06-25T13:35:45.000Z</time>
      </trkpt>
      <trkpt lat="46.17567" lon="4.67794">
        <ele>296.79998779297</ele>
        <time>2020-06-25T13:35:51.000Z</time>
      </trkpt>
      <trkpt lat="46.17496" lon="4.67805">
        <ele>294.79998779297</ele>
        <time>2020-06-25T13:36:01.000Z</time>
      </trkpt>
      <trkpt lat="46.17444" lon="4.67832">
        <ele>290</ele>
        <time>2020-06-25T13:36:07.000Z</time>
      </trkpt>
      <trkpt lat="46.17408" lon="4.67854">
        <ele>286</ele>
        <time>2020-06-25T13:36:11.000Z</time>
      </trkpt>
      <trkpt lat="46.1737" lon="4.6788">
        <ele>283</ele>
        <time>2020-06-25T13:36:15.000Z</time>
      </trkpt>
      <trkpt lat="46.17352" lon="4.67893">
        <ele>281</ele>
        <time>2020-06-25T13:36:17.000Z</time>
      </trkpt>
      <trkpt lat="46.17312" lon="4.67907">
        <ele>277.39999389648</ele>
        <time>2020-06-25T13:36:21.000Z</time>
      </trkpt>
      <trkpt lat="46.17303" lon="4.67909">
        <ele>276.79998779297</ele>
        <time>2020-06-25T13:36:22.000Z</time>
      </trkpt>
      <trkpt lat="46.17266" lon="4.6794">
        <ele>273</ele>
        <time>2020-06-25T13:36:27.000Z</time>
      </trkpt>
      <trkpt lat="46.17236" lon="4.67977">
        <ele>271</ele>
        <time>2020-06-25T13:36:31.000Z</time>
      </trkpt>
      <trkpt lat="46.17216" lon="4.68">
        <ele>270</ele>
        <time>2020-06-25T13:36:34.000Z</time>
      </trkpt>
      <trkpt lat="46.17207" lon="4.68044">
        <ele>266</ele>
        <time>2020-06-25T13:36:39.000Z</time>
      </trkpt>
      <trkpt lat="46.17211" lon="4.68063">
        <ele>265.39999389648</ele>
        <time>2020-06-25T13:36:41.000Z</time>
      </trkpt>
      <trkpt lat="46.17192" lon="4.68093">
        <ele>264.39999389648</ele>
        <time>2020-06-25T13:36:46.000Z</time>
      </trkpt>
      <trkpt lat="46.17185" lon="4.68095">
        <ele>264</ele>
        <time>2020-06-25T13:36:47.000Z</time>
      </trkpt>
      <trkpt lat="46.17142" lon="4.68105">
        <ele>260.20001220703</ele>
        <time>2020-06-25T13:36:53.000Z</time>
      </trkpt>
      <trkpt lat="46.17123" lon="4.6809">
        <ele>256.60000610352</ele>
        <time>2020-06-25T13:36:59.000Z</time>
      </trkpt>
      <trkpt lat="46.17121" lon="4.68053">
        <ele>255</ele>
        <time>2020-06-25T13:37:04.000Z</time>
      </trkpt>
      <trkpt lat="46.17126" lon="4.67996">
        <ele>254</ele>
        <time>2020-06-25T13:37:11.000Z</time>
      </trkpt>
      <trkpt lat="46.17132" lon="4.67968">
        <ele>253.80000305176</ele>
        <time>2020-06-25T13:37:15.000Z</time>
      </trkpt>
      <trkpt lat="46.17151" lon="4.67925">
        <ele>256.79998779297</ele>
        <time>2020-06-25T13:37:24.000Z</time>
      </trkpt>
      <trkpt lat="46.1716" lon="4.67906">
        <ele>260.20001220703</ele>
        <time>2020-06-25T13:37:28.000Z</time>
      </trkpt>
      <trkpt lat="46.17172" lon="4.67878">
        <ele>263.60000610352</ele>
        <time>2020-06-25T13:37:33.000Z</time>
      </trkpt>
      <trkpt lat="46.17189" lon="4.67841">
        <ele>266.60000610352</ele>
        <time>2020-06-25T13:37:40.000Z</time>
      </trkpt>
      <trkpt lat="46.17207" lon="4.67801">
        <ele>268</ele>
        <time>2020-06-25T13:37:47.000Z</time>
      </trkpt>
      <trkpt lat="46.17213" lon="4.67763">
        <ele>269.60000610352</ele>
        <time>2020-06-25T13:37:53.000Z</time>
      </trkpt>
      <trkpt lat="46.17226" lon="4.6767">
        <ele>272.20001220703</ele>
        <time>2020-06-25T13:38:07.000Z</time>
      </trkpt>
      <trkpt lat="46.17228" lon="4.67649">
        <ele>272.60000610352</ele>
        <time>2020-06-25T13:38:10.000Z</time>
      </trkpt>
      <trkpt lat="46.17252" lon="4.67597">
        <ele>274.60000610352</ele>
        <time>2020-06-25T13:38:21.000Z</time>
      </trkpt>
      <trkpt lat="46.17254" lon="4.67582">
        <ele>277.20001220703</ele>
        <time>2020-06-25T13:38:24.000Z</time>
      </trkpt>
      <trkpt lat="46.17251" lon="4.67555">
        <ele>281.60000610352</ele>
        <time>2020-06-25T13:38:29.000Z</time>
      </trkpt>
      <trkpt lat="46.17264" lon="4.67515">
        <ele>284.79998779297</ele>
        <time>2020-06-25T13:38:37.000Z</time>
      </trkpt>
      <trkpt lat="46.17287" lon="4.67463">
        <ele>288.39999389648</ele>
        <time>2020-06-25T13:38:48.000Z</time>
      </trkpt>
      <trkpt lat="46.17289" lon="4.67459">
        <ele>288.60000610352</ele>
        <time>2020-06-25T13:38:49.000Z</time>
      </trkpt>
      <trkpt lat="46.17295" lon="4.67445">
        <ele>289.79998779297</ele>
        <time>2020-06-25T13:38:52.000Z</time>
      </trkpt>
      <trkpt lat="46.173" lon="4.67432">
        <ele>290.79998779297</ele>
        <time>2020-06-25T13:38:55.000Z</time>
      </trkpt>
      <trkpt lat="46.1731" lon="4.67394">
        <ele>294</ele>
        <time>2020-06-25T13:39:03.000Z</time>
      </trkpt>
      <trkpt lat="46.17312" lon="4.67386">
        <ele>294.79998779297</ele>
        <time>2020-06-25T13:39:05.000Z</time>
      </trkpt>
      <trkpt lat="46.17306" lon="4.67374">
        <ele>296.79998779297</ele>
        <time>2020-06-25T13:39:09.000Z</time>
      </trkpt>
      <trkpt lat="46.17257" lon="4.67311">
        <ele>298.79998779297</ele>
        <time>2020-06-25T13:39:24.000Z</time>
      </trkpt>
      <trkpt lat="46.1725" lon="4.67303">
        <ele>298.39999389648</ele>
        <time>2020-06-25T13:39:26.000Z</time>
      </trkpt>
      <trkpt lat="46.1723" lon="4.67285">
        <ele>297.39999389648</ele>
        <time>2020-06-25T13:39:31.000Z</time>
      </trkpt>
      <trkpt lat="46.17206" lon="4.67242">
        <ele>293.20001220703</ele>
        <time>2020-06-25T13:39:38.000Z</time>
      </trkpt>
      <trkpt lat="46.17192" lon="4.67212">
        <ele>289.60000610352</ele>
        <time>2020-06-25T13:39:43.000Z</time>
      </trkpt>
      <trkpt lat="46.17189" lon="4.67172">
        <ele>286.39999389648</ele>
        <time>2020-06-25T13:39:48.000Z</time>
      </trkpt>
      <trkpt lat="46.17189" lon="4.67142">
        <ele>284</ele>
        <time>2020-06-25T13:39:52.000Z</time>
      </trkpt>
      <trkpt lat="46.17191" lon="4.67138">
        <ele>283.79998779297</ele>
        <time>2020-06-25T13:39:53.000Z</time>
      </trkpt>
      <trkpt lat="46.17193" lon="4.67134">
        <ele>280.20001220703</ele>
        <time>2020-06-25T13:40:00.000Z</time>
      </trkpt>
      <trkpt lat="46.17191" lon="4.67132">
        <ele>278.79998779297</ele>
        <time>2020-06-25T13:40:07.000Z</time>
      </trkpt>
      <trkpt lat="46.17191" lon="4.6712">
        <ele>278.79998779297</ele>
        <time>2020-06-25T13:40:14.000Z</time>
      </trkpt>
      <trkpt lat="46.1716" lon="4.67088">
        <ele>278.39999389648</ele>
        <time>2020-06-25T13:40:23.000Z</time>
      </trkpt>
      <trkpt lat="46.17154" lon="4.67085">
        <ele>278.39999389648</ele>
        <time>2020-06-25T13:40:24.000Z</time>
      </trkpt>
      <trkpt lat="46.17125" lon="4.67089">
        <ele>279.20001220703</ele>
        <time>2020-06-25T13:40:32.000Z</time>
      </trkpt>
      <trkpt lat="46.17106" lon="4.67088">
        <ele>283.60000610352</ele>
        <time>2020-06-25T13:40:37.000Z</time>
      </trkpt>
      <trkpt lat="46.17094" lon="4.67085">
        <ele>287.20001220703</ele>
        <time>2020-06-25T13:40:41.000Z</time>
      </trkpt>
      <trkpt lat="46.17084" lon="4.67082">
        <ele>290.20001220703</ele>
        <time>2020-06-25T13:40:45.000Z</time>
      </trkpt>
      <trkpt lat="46.17073" lon="4.67079">
        <ele>293</ele>
        <time>2020-06-25T13:40:49.000Z</time>
      </trkpt>
      <trkpt lat="46.17057" lon="4.67099">
        <ele>296.20001220703</ele>
        <time>2020-06-25T13:40:54.000Z</time>
      </trkpt>
      <trkpt lat="46.17052" lon="4.67107">
        <ele>298</ele>
        <time>2020-06-25T13:40:56.000Z</time>
      </trkpt>
      <trkpt lat="46.17038" lon="4.67125">
        <ele>298.79998779297</ele>
        <time>2020-06-25T13:41:00.000Z</time>
      </trkpt>
      <trkpt lat="46.17017" lon="4.67148">
        <ele>299.20001220703</ele>
        <time>2020-06-25T13:41:06.000Z</time>
      </trkpt>
      <trkpt lat="46.17001" lon="4.67166">
        <ele>299.39999389648</ele>
        <time>2020-06-25T13:41:11.000Z</time>
      </trkpt>
      <trkpt lat="46.16987" lon="4.67154">
        <ele>300.20001220703</ele>
        <time>2020-06-25T13:41:17.000Z</time>
      </trkpt>
      <trkpt lat="46.16985" lon="4.67123">
        <ele>301.79998779297</ele>
        <time>2020-06-25T13:41:22.000Z</time>
      </trkpt>
      <trkpt lat="46.1699" lon="4.67054">
        <ele>305.39999389648</ele>
        <time>2020-06-25T13:41:33.000Z</time>
      </trkpt>
      <trkpt lat="46.16991" lon="4.67047">
        <ele>305.79998779297</ele>
        <time>2020-06-25T13:41:34.000Z</time>
      </trkpt>
      <trkpt lat="46.16988" lon="4.66994">
        <ele>308.60000610352</ele>
        <time>2020-06-25T13:41:42.000Z</time>
      </trkpt>
      <trkpt lat="46.16983" lon="4.66982">
        <ele>309.60000610352</ele>
        <time>2020-06-25T13:41:44.000Z</time>
      </trkpt>
      <trkpt lat="46.16978" lon="4.66971">
        <ele>310.20001220703</ele>
        <time>2020-06-25T13:41:46.000Z</time>
      </trkpt>
      <trkpt lat="46.16954" lon="4.66926">
        <ele>313.79998779297</ele>
        <time>2020-06-25T13:41:56.000Z</time>
      </trkpt>
      <trkpt lat="46.16945" lon="4.66908">
        <ele>317</ele>
        <time>2020-06-25T13:42:00.000Z</time>
      </trkpt>
      <trkpt lat="46.16935" lon="4.66879">
        <ele>320.20001220703</ele>
        <time>2020-06-25T13:42:06.000Z</time>
      </trkpt>
      <trkpt lat="46.16932" lon="4.66863">
        <ele>323.79998779297</ele>
        <time>2020-06-25T13:42:12.000Z</time>
      </trkpt>
      <trkpt lat="46.16932" lon="4.66864">
        <ele>325.60000610352</ele>
        <time>2020-06-25T13:42:14.000Z</time>
      </trkpt>
      <trkpt lat="46.16933" lon="4.66875">
        <ele>328.20001220703</ele>
        <time>2020-06-25T13:42:22.000Z</time>
      </trkpt>
      <trkpt lat="46.16936" lon="4.66885">
        <ele>328.20001220703</ele>
        <time>2020-06-25T13:42:25.000Z</time>
      </trkpt>
      <trkpt lat="46.16936" lon="4.66894">
        <ele>328.20001220703</ele>
        <time>2020-06-25T13:42:28.000Z</time>
      </trkpt>
      <trkpt lat="46.16906" lon="4.66909">
        <ele>325.20001220703</ele>
        <time>2020-06-25T13:42:39.000Z</time>
      </trkpt>
      <trkpt lat="46.16898" lon="4.66896">
        <ele>324.39999389648</ele>
        <time>2020-06-25T13:42:44.000Z</time>
      </trkpt>
      <trkpt lat="46.16893" lon="4.6689">
        <ele>324.39999389648</ele>
        <time>2020-06-25T13:42:47.000Z</time>
      </trkpt>
      <trkpt lat="46.16843" lon="4.66891">
        <ele>324</ele>
        <time>2020-06-25T13:43:00.000Z</time>
      </trkpt>
      <trkpt lat="46.168" lon="4.6687">
        <ele>322.60000610352</ele>
        <time>2020-06-25T13:43:12.000Z</time>
      </trkpt>
      <trkpt lat="46.16796" lon="4.66868">
        <ele>322.60000610352</ele>
        <time>2020-06-25T13:43:19.000Z</time>
      </trkpt>
      <trkpt lat="46.16801" lon="4.66867">
        <ele>323.79998779297</ele>
        <time>2020-06-25T13:43:43.000Z</time>
      </trkpt>
      <trkpt lat="46.16804" lon="4.66857">
        <ele>324</ele>
        <time>2020-06-25T13:43:46.000Z</time>
      </trkpt>
      <trkpt lat="46.16819" lon="4.66801">
        <ele>324.60000610352</ele>
        <time>2020-06-25T13:43:59.000Z</time>
      </trkpt>
      <trkpt lat="46.16822" lon="4.66784">
        <ele>325.60000610352</ele>
        <time>2020-06-25T13:44:03.000Z</time>
      </trkpt>
      <trkpt lat="46.16813" lon="4.66738">
        <ele>328.79998779297</ele>
        <time>2020-06-25T13:44:14.000Z</time>
      </trkpt>
      <trkpt lat="46.16811" lon="4.66705">
        <ele>330.39999389648</ele>
        <time>2020-06-25T13:44:23.000Z</time>
      </trkpt>
      <trkpt lat="46.16811" lon="4.66637">
        <ele>333.60000610352</ele>
        <time>2020-06-25T13:44:37.000Z</time>
      </trkpt>
      <trkpt lat="46.16819" lon="4.66588">
        <ele>336.79998779297</ele>
        <time>2020-06-25T13:44:48.000Z</time>
      </trkpt>
      <trkpt lat="46.16819" lon="4.66584">
        <ele>337</ele>
        <time>2020-06-25T13:44:49.000Z</time>
      </trkpt>
      <trkpt lat="46.16834" lon="4.66583">
        <ele>338.60000610352</ele>
        <time>2020-06-25T13:44:55.000Z</time>
      </trkpt>
      <trkpt lat="46.16852" lon="4.66594">
        <ele>342.20001220703</ele>
        <time>2020-06-25T13:45:01.000Z</time>
      </trkpt>
      <trkpt lat="46.16855" lon="4.66597">
        <ele>342.39999389648</ele>
        <time>2020-06-25T13:45:02.000Z</time>
      </trkpt>
      <trkpt lat="46.16879" lon="4.66616">
        <ele>345.60000610352</ele>
        <time>2020-06-25T13:45:10.000Z</time>
      </trkpt>
      <trkpt lat="46.16903" lon="4.66634">
        <ele>349</ele>
        <time>2020-06-25T13:45:19.000Z</time>
      </trkpt>
      <trkpt lat="46.16911" lon="4.66638">
        <ele>349.79998779297</ele>
        <time>2020-06-25T13:45:22.000Z</time>
      </trkpt>
      <trkpt lat="46.16922" lon="4.66625">
        <ele>351</ele>
        <time>2020-06-25T13:45:27.000Z</time>
      </trkpt>
      <trkpt lat="46.16936" lon="4.66563">
        <ele>354.60000610352</ele>
        <time>2020-06-25T13:45:39.000Z</time>
      </trkpt>
      <trkpt lat="46.16947" lon="4.66532">
        <ele>358.20001220703</ele>
        <time>2020-06-25T13:45:45.000Z</time>
      </trkpt>
      <trkpt lat="46.16949" lon="4.66527">
        <ele>358.20001220703</ele>
        <time>2020-06-25T13:45:46.000Z</time>
      </trkpt>
      <trkpt lat="46.16972" lon="4.6647">
        <ele>361.20001220703</ele>
        <time>2020-06-25T13:45:58.000Z</time>
      </trkpt>
      <trkpt lat="46.16978" lon="4.66431">
        <ele>364.39999389648</ele>
        <time>2020-06-25T13:46:06.000Z</time>
      </trkpt>
      <trkpt lat="46.1698" lon="4.66422">
        <ele>365.20001220703</ele>
        <time>2020-06-25T13:46:08.000Z</time>
      </trkpt>
      <trkpt lat="46.16982" lon="4.66402">
        <ele>367.20001220703</ele>
        <time>2020-06-25T13:46:12.000Z</time>
      </trkpt>
      <trkpt lat="46.1698" lon="4.66394">
        <ele>369</ele>
        <time>2020-06-25T13:46:14.000Z</time>
      </trkpt>
      <trkpt lat="46.16946" lon="4.66381">
        <ele>370.60000610352</ele>
        <time>2020-06-25T13:46:24.000Z</time>
      </trkpt>
      <trkpt lat="46.16934" lon="4.66378">
        <ele>371</ele>
        <time>2020-06-25T13:46:27.000Z</time>
      </trkpt>
      <trkpt lat="46.16896" lon="4.66363">
        <ele>374</ele>
        <time>2020-06-25T13:46:37.000Z</time>
      </trkpt>
      <trkpt lat="46.16853" lon="4.66338">
        <ele>375</ele>
        <time>2020-06-25T13:46:47.000Z</time>
      </trkpt>
      <trkpt lat="46.16839" lon="4.66333">
        <ele>375.20001220703</ele>
        <time>2020-06-25T13:46:50.000Z</time>
      </trkpt>
      <trkpt lat="46.16768" lon="4.66345">
        <ele>373.39999389648</ele>
        <time>2020-06-25T13:47:04.000Z</time>
      </trkpt>
      <trkpt lat="46.16728" lon="4.66332">
        <ele>373</ele>
        <time>2020-06-25T13:47:12.000Z</time>
      </trkpt>
      <trkpt lat="46.16665" lon="4.66306">
        <ele>376</ele>
        <time>2020-06-25T13:47:26.000Z</time>
      </trkpt>
      <trkpt lat="46.16656" lon="4.66317">
        <ele>377</ele>
        <time>2020-06-25T13:47:30.000Z</time>
      </trkpt>
      <trkpt lat="46.16645" lon="4.66339">
        <ele>377.20001220703</ele>
        <time>2020-06-25T13:47:35.000Z</time>
      </trkpt>
      <trkpt lat="46.16608" lon="4.66319">
        <ele>374.79998779297</ele>
        <time>2020-06-25T13:47:44.000Z</time>
      </trkpt>
      <trkpt lat="46.16598" lon="4.66313">
        <ele>374</ele>
        <time>2020-06-25T13:47:46.000Z</time>
      </trkpt>
      <trkpt lat="46.16549" lon="4.66275">
        <ele>371</ele>
        <time>2020-06-25T13:47:55.000Z</time>
      </trkpt>
      <trkpt lat="46.16487" lon="4.66228">
        <ele>367.20001220703</ele>
        <time>2020-06-25T13:48:04.000Z</time>
      </trkpt>
      <trkpt lat="46.1645" lon="4.66201">
        <ele>364</ele>
        <time>2020-06-25T13:48:10.000Z</time>
      </trkpt>
      <trkpt lat="46.16441" lon="4.66194">
        <ele>363</ele>
        <time>2020-06-25T13:48:12.000Z</time>
      </trkpt>
      <trkpt lat="46.16432" lon="4.66184">
        <ele>361.60000610352</ele>
        <time>2020-06-25T13:48:17.000Z</time>
      </trkpt>
      <trkpt lat="46.1642" lon="4.66182">
        <ele>361.39999389648</ele>
        <time>2020-06-25T13:48:21.000Z</time>
      </trkpt>
      <trkpt lat="46.16349" lon="4.66167">
        <ele>360.39999389648</ele>
        <time>2020-06-25T13:48:39.000Z</time>
      </trkpt>
      <trkpt lat="46.16293" lon="4.66148">
        <ele>360.39999389648</ele>
        <time>2020-06-25T13:48:51.000Z</time>
      </trkpt>
      <trkpt lat="46.16272" lon="4.66141">
        <ele>360.39999389648</ele>
        <time>2020-06-25T13:48:55.000Z</time>
      </trkpt>
      <trkpt lat="46.16239" lon="4.66137">
        <ele>361.20001220703</ele>
        <time>2020-06-25T13:49:02.000Z</time>
      </trkpt>
      <trkpt lat="46.1619" lon="4.66118">
        <ele>361.20001220703</ele>
        <time>2020-06-25T13:49:12.000Z</time>
      </trkpt>
      <trkpt lat="46.16112" lon="4.66103">
        <ele>358.79998779297</ele>
        <time>2020-06-25T13:49:23.000Z</time>
      </trkpt>
      <trkpt lat="46.16101" lon="4.66101">
        <ele>356.39999389648</ele>
        <time>2020-06-25T13:49:26.000Z</time>
      </trkpt>
      <trkpt lat="46.16093" lon="4.66111">
        <ele>355.39999389648</ele>
        <time>2020-06-25T13:49:31.000Z</time>
      </trkpt>
      <trkpt lat="46.16088" lon="4.66149">
        <ele>354.79998779297</ele>
        <time>2020-06-25T13:49:37.000Z</time>
      </trkpt>
      <trkpt lat="46.16091" lon="4.66189">
        <ele>354.60000610352</ele>
        <time>2020-06-25T13:49:42.000Z</time>
      </trkpt>
      <trkpt lat="46.16105" lon="4.66246">
        <ele>352.79998779297</ele>
        <time>2020-06-25T13:49:49.000Z</time>
      </trkpt>
      <trkpt lat="46.16105" lon="4.66276">
        <ele>351.39999389648</ele>
        <time>2020-06-25T13:49:53.000Z</time>
      </trkpt>
      <trkpt lat="46.16099" lon="4.66313">
        <ele>349.60000610352</ele>
        <time>2020-06-25T13:49:57.000Z</time>
      </trkpt>
      <trkpt lat="46.16092" lon="4.66358">
        <ele>346.60000610352</ele>
        <time>2020-06-25T13:50:01.000Z</time>
      </trkpt>
      <trkpt lat="46.1608" lon="4.66406">
        <ele>343.39999389648</ele>
        <time>2020-06-25T13:50:05.000Z</time>
      </trkpt>
      <trkpt lat="46.16068" lon="4.66456">
        <ele>340</ele>
        <time>2020-06-25T13:50:09.000Z</time>
      </trkpt>
      <trkpt lat="46.16058" lon="4.66493">
        <ele>336.60000610352</ele>
        <time>2020-06-25T13:50:12.000Z</time>
      </trkpt>
      <trkpt lat="46.16045" lon="4.66539">
        <ele>333.39999389648</ele>
        <time>2020-06-25T13:50:16.000Z</time>
      </trkpt>
      <trkpt lat="46.16035" lon="4.66563">
        <ele>329.79998779297</ele>
        <time>2020-06-25T13:50:19.000Z</time>
      </trkpt>
      <trkpt lat="46.1603" lon="4.66574">
        <ele>329.20001220703</ele>
        <time>2020-06-25T13:50:21.000Z</time>
      </trkpt>
      <trkpt lat="46.16015" lon="4.66605">
        <ele>328</ele>
        <time>2020-06-25T13:50:27.000Z</time>
      </trkpt>
      <trkpt lat="46.16" lon="4.66716">
        <ele>324.79998779297</ele>
        <time>2020-06-25T13:50:39.000Z</time>
      </trkpt>
      <trkpt lat="46.15992" lon="4.66777">
        <ele>321.60000610352</ele>
        <time>2020-06-25T13:50:45.000Z</time>
      </trkpt>
      <trkpt lat="46.15984" lon="4.66846">
        <ele>319.79998779297</ele>
        <time>2020-06-25T13:50:52.000Z</time>
      </trkpt>
      <trkpt lat="46.15977" lon="4.66903">
        <ele>318.60000610352</ele>
        <time>2020-06-25T13:50:58.000Z</time>
      </trkpt>
      <trkpt lat="46.15961" lon="4.67047">
        <ele>315.39999389648</ele>
        <time>2020-06-25T13:51:13.000Z</time>
      </trkpt>
      <trkpt lat="46.15946" lon="4.6718">
        <ele>314.60000610352</ele>
        <time>2020-06-25T13:51:28.000Z</time>
      </trkpt>
      <trkpt lat="46.15937" lon="4.67277">
        <ele>317.39999389648</ele>
        <time>2020-06-25T13:51:40.000Z</time>
      </trkpt>
      <trkpt lat="46.1593" lon="4.67315">
        <ele>318.39999389648</ele>
        <time>2020-06-25T13:51:46.000Z</time>
      </trkpt>
      <trkpt lat="46.15916" lon="4.67328">
        <ele>319.60000610352</ele>
        <time>2020-06-25T13:51:50.000Z</time>
      </trkpt>
      <trkpt lat="46.15888" lon="4.67347">
        <ele>319.79998779297</ele>
        <time>2020-06-25T13:51:57.000Z</time>
      </trkpt>
      <trkpt lat="46.15863" lon="4.67365">
        <ele>319.39999389648</ele>
        <time>2020-06-25T13:52:04.000Z</time>
      </trkpt>
      <trkpt lat="46.15858" lon="4.67362">
        <ele>319.39999389648</ele>
        <time>2020-06-25T13:52:06.000Z</time>
      </trkpt>
      <trkpt lat="46.15855" lon="4.67357">
        <ele>319.39999389648</ele>
        <time>2020-06-25T13:52:07.000Z</time>
      </trkpt>
      <trkpt lat="46.15854" lon="4.6735">
        <ele>319.20001220703</ele>
        <time>2020-06-25T13:52:08.000Z</time>
      </trkpt>
      <trkpt lat="46.15849" lon="4.6721">
        <ele>317.39999389648</ele>
        <time>2020-06-25T13:52:25.000Z</time>
      </trkpt>
      <trkpt lat="46.15848" lon="4.67176">
        <ele>317</ele>
        <time>2020-06-25T13:52:29.000Z</time>
      </trkpt>
      <trkpt lat="46.15834" lon="4.67128">
        <ele>316.60000610352</ele>
        <time>2020-06-25T13:52:35.000Z</time>
      </trkpt>
      <trkpt lat="46.15775" lon="4.67056">
        <ele>313</ele>
        <time>2020-06-25T13:52:46.000Z</time>
      </trkpt>
      <trkpt lat="46.15759" lon="4.67032">
        <ele>311.79998779297</ele>
        <time>2020-06-25T13:52:49.000Z</time>
      </trkpt>
      <trkpt lat="46.15745" lon="4.67004">
        <ele>310.39999389648</ele>
        <time>2020-06-25T13:52:52.000Z</time>
      </trkpt>
      <trkpt lat="46.15716" lon="4.66889">
        <ele>306.79998779297</ele>
        <time>2020-06-25T13:53:03.000Z</time>
      </trkpt>
      <trkpt lat="46.15695" lon="4.66809">
        <ele>307</ele>
        <time>2020-06-25T13:53:13.000Z</time>
      </trkpt>
      <trkpt lat="46.15673" lon="4.66752">
        <ele>310.60000610352</ele>
        <time>2020-06-25T13:53:21.000Z</time>
      </trkpt>
      <trkpt lat="46.15653" lon="4.66706">
        <ele>314</ele>
        <time>2020-06-25T13:53:28.000Z</time>
      </trkpt>
      <trkpt lat="46.15644" lon="4.66686">
        <ele>315.60000610352</ele>
        <time>2020-06-25T13:53:31.000Z</time>
      </trkpt>
      <trkpt lat="46.15622" lon="4.66645">
        <ele>318.79998779297</ele>
        <time>2020-06-25T13:53:38.000Z</time>
      </trkpt>
      <trkpt lat="46.15588" lon="4.66582">
        <ele>322</ele>
        <time>2020-06-25T13:53:48.000Z</time>
      </trkpt>
      <trkpt lat="46.15576" lon="4.6656">
        <ele>322.39999389648</ele>
        <time>2020-06-25T13:53:52.000Z</time>
      </trkpt>
      <trkpt lat="46.15571" lon="4.6655">
        <ele>322.79998779297</ele>
        <time>2020-06-25T13:53:54.000Z</time>
      </trkpt>
      <trkpt lat="46.15569" lon="4.66512">
        <ele>323.79998779297</ele>
        <time>2020-06-25T13:53:59.000Z</time>
      </trkpt>
      <trkpt lat="46.15573" lon="4.66404">
        <ele>323.60000610352</ele>
        <time>2020-06-25T13:54:11.000Z</time>
      </trkpt>
      <trkpt lat="46.15568" lon="4.66379">
        <ele>322.79998779297</ele>
        <time>2020-06-25T13:54:14.000Z</time>
      </trkpt>
      <trkpt lat="46.15579" lon="4.66286">
        <ele>319.60000610352</ele>
        <time>2020-06-25T13:54:22.000Z</time>
      </trkpt>
      <trkpt lat="46.15591" lon="4.66265">
        <ele>318.60000610352</ele>
        <time>2020-06-25T13:54:24.000Z</time>
      </trkpt>
      <trkpt lat="46.15607" lon="4.66214">
        <ele>314.39999389648</ele>
        <time>2020-06-25T13:54:29.000Z</time>
      </trkpt>
      <trkpt lat="46.15605" lon="4.66204">
        <ele>313</ele>
        <time>2020-06-25T13:54:30.000Z</time>
      </trkpt>
      <trkpt lat="46.15601" lon="4.66178">
        <ele>311.60000610352</ele>
        <time>2020-06-25T13:54:33.000Z</time>
      </trkpt>
      <trkpt lat="46.15599" lon="4.6617">
        <ele>311.60000610352</ele>
        <time>2020-06-25T13:54:34.000Z</time>
      </trkpt>
      <trkpt lat="46.15571" lon="4.66127">
        <ele>311.79998779297</ele>
        <time>2020-06-25T13:54:43.000Z</time>
      </trkpt>
      <trkpt lat="46.15565" lon="4.66128">
        <ele>312.20001220703</ele>
        <time>2020-06-25T13:54:44.000Z</time>
      </trkpt>
      <trkpt lat="46.15545" lon="4.66136">
        <ele>315.79998779297</ele>
        <time>2020-06-25T13:54:48.000Z</time>
      </trkpt>
      <trkpt lat="46.15528" lon="4.6613">
        <ele>317.60000610352</ele>
        <time>2020-06-25T13:54:52.000Z</time>
      </trkpt>
      <trkpt lat="46.15524" lon="4.66124">
        <ele>318.79998779297</ele>
        <time>2020-06-25T13:54:55.000Z</time>
      </trkpt>
      <trkpt lat="46.15528" lon="4.66119">
        <ele>320.20001220703</ele>
        <time>2020-06-25T13:54:58.000Z</time>
      </trkpt>
      <trkpt lat="46.15541" lon="4.66113">
        <ele>322.79998779297</ele>
        <time>2020-06-25T13:55:02.000Z</time>
      </trkpt>
      <trkpt lat="46.15543" lon="4.66111">
        <ele>323.39999389648</ele>
        <time>2020-06-25T13:55:03.000Z</time>
      </trkpt>
      <trkpt lat="46.15547" lon="4.66107">
        <ele>324</ele>
        <time>2020-06-25T13:55:05.000Z</time>
      </trkpt>
      <trkpt lat="46.15537" lon="4.6611">
        <ele>325.20001220703</ele>
        <time>2020-06-25T13:55:11.000Z</time>
      </trkpt>
      <trkpt lat="46.15523" lon="4.6612">
        <ele>325.20001220703</ele>
        <time>2020-06-25T13:55:15.000Z</time>
      </trkpt>
      <trkpt lat="46.15499" lon="4.66096">
        <ele>325.20001220703</ele>
        <time>2020-06-25T13:55:22.000Z</time>
      </trkpt>
      <trkpt lat="46.15465" lon="4.66057">
        <ele>325</ele>
        <time>2020-06-25T13:55:31.000Z</time>
      </trkpt>
      <trkpt lat="46.15404" lon="4.65937">
        <ele>326</ele>
        <time>2020-06-25T13:55:49.000Z</time>
      </trkpt>
      <trkpt lat="46.1536" lon="4.65878">
        <ele>325.20001220703</ele>
        <time>2020-06-25T13:55:59.000Z</time>
      </trkpt>
      <trkpt lat="46.15299" lon="4.65772">
        <ele>324.20001220703</ele>
        <time>2020-06-25T13:56:14.000Z</time>
      </trkpt>
      <trkpt lat="46.15247" lon="4.65682">
        <ele>321.39999389648</ele>
        <time>2020-06-25T13:56:26.000Z</time>
      </trkpt>
      <trkpt lat="46.15237" lon="4.65661">
        <ele>321</ele>
        <time>2020-06-25T13:56:29.000Z</time>
      </trkpt>
      <trkpt lat="46.1521" lon="4.65612">
        <ele>320.79998779297</ele>
        <time>2020-06-25T13:56:36.000Z</time>
      </trkpt>
      <trkpt lat="46.15203" lon="4.65578">
        <ele>321</ele>
        <time>2020-06-25T13:56:40.000Z</time>
      </trkpt>
      <trkpt lat="46.15192" lon="4.65432">
        <ele>321.60000610352</ele>
        <time>2020-06-25T13:56:57.000Z</time>
      </trkpt>
      <trkpt lat="46.15183" lon="4.65298">
        <ele>323.20001220703</ele>
        <time>2020-06-25T13:57:13.000Z</time>
      </trkpt>
      <trkpt lat="46.15183" lon="4.65151">
        <ele>320.39999389648</ele>
        <time>2020-06-25T13:57:27.000Z</time>
      </trkpt>
      <trkpt lat="46.15182" lon="4.65079">
        <ele>317.20001220703</ele>
        <time>2020-06-25T13:57:34.000Z</time>
      </trkpt>
      <trkpt lat="46.15182" lon="4.6505">
        <ele>316.20001220703</ele>
        <time>2020-06-25T13:57:37.000Z</time>
      </trkpt>
      <trkpt lat="46.15208" lon="4.65004">
        <ele>312.79998779297</ele>
        <time>2020-06-25T13:57:44.000Z</time>
      </trkpt>
      <trkpt lat="46.152" lon="4.64963">
        <ele>310.20001220703</ele>
        <time>2020-06-25T13:57:50.000Z</time>
      </trkpt>
      <trkpt lat="46.15173" lon="4.64929">
        <ele>309.79998779297</ele>
        <time>2020-06-25T13:57:57.000Z</time>
      </trkpt>
      <trkpt lat="46.15134" lon="4.64901">
        <ele>310</ele>
        <time>2020-06-25T13:58:05.000Z</time>
      </trkpt>
      <trkpt lat="46.15076" lon="4.64894">
        <ele>310.20001220703</ele>
        <time>2020-06-25T13:58:14.000Z</time>
      </trkpt>
      <trkpt lat="46.15058" lon="4.64895">
        <ele>310.20001220703</ele>
        <time>2020-06-25T13:58:17.000Z</time>
      </trkpt>
      <trkpt lat="46.15015" lon="4.64888">
        <ele>309.79998779297</ele>
        <time>2020-06-25T13:58:24.000Z</time>
      </trkpt>
      <trkpt lat="46.14929" lon="4.64848">
        <ele>308.60000610352</ele>
        <time>2020-06-25T13:58:39.000Z</time>
      </trkpt>
      <trkpt lat="46.14923" lon="4.64846">
        <ele>308.39999389648</ele>
        <time>2020-06-25T13:58:40.000Z</time>
      </trkpt>
      <trkpt lat="46.1484" lon="4.64813">
        <ele>307.39999389648</ele>
        <time>2020-06-25T13:58:55.000Z</time>
      </trkpt>
      <trkpt lat="46.14764" lon="4.64795">
        <ele>306.60000610352</ele>
        <time>2020-06-25T13:59:09.000Z</time>
      </trkpt>
      <trkpt lat="46.14758" lon="4.64793">
        <ele>306.60000610352</ele>
        <time>2020-06-25T13:59:10.000Z</time>
      </trkpt>
      <trkpt lat="46.14703" lon="4.64778">
        <ele>304.60000610352</ele>
        <time>2020-06-25T13:59:20.000Z</time>
      </trkpt>
      <trkpt lat="46.1464" lon="4.64757">
        <ele>301.20001220703</ele>
        <time>2020-06-25T13:59:34.000Z</time>
      </trkpt>
      <trkpt lat="46.14615" lon="4.64746">
        <ele>298.20001220703</ele>
        <time>2020-06-25T13:59:45.000Z</time>
      </trkpt>
      <trkpt lat="46.14612" lon="4.64749">
        <ele>298</ele>
        <time>2020-06-25T13:59:46.000Z</time>
      </trkpt>
      <trkpt lat="46.1461" lon="4.64754">
        <ele>297.79998779297</ele>
        <time>2020-06-25T13:59:47.000Z</time>
      </trkpt>
      <trkpt lat="46.14609" lon="4.6476">
        <ele>297.60000610352</ele>
        <time>2020-06-25T13:59:48.000Z</time>
      </trkpt>
      <trkpt lat="46.14609" lon="4.64766">
        <ele>297.20001220703</ele>
        <time>2020-06-25T13:59:49.000Z</time>
      </trkpt>
      <trkpt lat="46.14608" lon="4.64771">
        <ele>297</ele>
        <time>2020-06-25T13:59:50.000Z</time>
      </trkpt>
      <trkpt lat="46.14608" lon="4.64776">
        <ele>296.79998779297</ele>
        <time>2020-06-25T13:59:51.000Z</time>
      </trkpt>
      <trkpt lat="46.14608" lon="4.64781">
        <ele>296.60000610352</ele>
        <time>2020-06-25T13:59:52.000Z</time>
      </trkpt>
      <trkpt lat="46.14608" lon="4.64784">
        <ele>296.60000610352</ele>
        <time>2020-06-25T13:59:53.000Z</time>
      </trkpt>
      <trkpt lat="46.14606" lon="4.64787">
        <ele>295.60000610352</ele>
        <time>2020-06-25T13:59:59.000Z</time>
      </trkpt>
      <trkpt lat="46.14609" lon="4.64801">
        <ele>296.20001220703</ele>
        <time>2020-06-25T14:00:12.000Z</time>
      </trkpt>
      <trkpt lat="46.14608" lon="4.64817">
        <ele>296</ele>
        <time>2020-06-25T14:00:15.000Z</time>
      </trkpt>
      <trkpt lat="46.1459" lon="4.6489">
        <ele>294.20001220703</ele>
        <time>2020-06-25T14:00:25.000Z</time>
      </trkpt>
      <trkpt lat="46.14584" lon="4.64919">
        <ele>292.60000610352</ele>
        <time>2020-06-25T14:00:29.000Z</time>
      </trkpt>
      <trkpt lat="46.14572" lon="4.64925">
        <ele>292</ele>
        <time>2020-06-25T14:00:33.000Z</time>
      </trkpt>
      <trkpt lat="46.14562" lon="4.6492">
        <ele>291.79998779297</ele>
        <time>2020-06-25T14:00:35.000Z</time>
      </trkpt>
      <trkpt lat="46.14546" lon="4.64913">
        <ele>291.39999389648</ele>
        <time>2020-06-25T14:00:40.000Z</time>
      </trkpt>
      <trkpt lat="46.14545" lon="4.64915">
        <ele>291.39999389648</ele>
        <time>2020-06-25T14:00:41.000Z</time>
      </trkpt>
      <trkpt lat="46.14542" lon="4.64921">
        <ele>290.39999389648</ele>
        <time>2020-06-25T14:00:43.000Z</time>
      </trkpt>
      <trkpt lat="46.1454" lon="4.64932">
        <ele>289.79998779297</ele>
        <time>2020-06-25T14:00:45.000Z</time>
      </trkpt>
      <trkpt lat="46.14528" lon="4.64975">
        <ele>289</ele>
        <time>2020-06-25T14:00:52.000Z</time>
      </trkpt>
      <trkpt lat="46.14525" lon="4.64977">
        <ele>288.39999389648</ele>
        <time>2020-06-25T14:00:53.000Z</time>
      </trkpt>
      <trkpt lat="46.1451" lon="4.64976">
        <ele>287.39999389648</ele>
        <time>2020-06-25T14:00:56.000Z</time>
      </trkpt>
      <trkpt lat="46.14426" lon="4.64963">
        <ele>284.60000610352</ele>
        <time>2020-06-25T14:01:10.000Z</time>
      </trkpt>
      <trkpt lat="46.14394" lon="4.64959">
        <ele>282</ele>
        <time>2020-06-25T14:01:15.000Z</time>
      </trkpt>
      <trkpt lat="46.1437" lon="4.64955">
        <ele>278.60000610352</ele>
        <time>2020-06-25T14:01:20.000Z</time>
      </trkpt>
      <trkpt lat="46.14361" lon="4.64949">
        <ele>276</ele>
        <time>2020-06-25T14:01:23.000Z</time>
      </trkpt>
      <trkpt lat="46.14325" lon="4.64957">
        <ele>273.79998779297</ele>
        <time>2020-06-25T14:01:31.000Z</time>
      </trkpt>
      <trkpt lat="46.14282" lon="4.6496">
        <ele>273</ele>
        <time>2020-06-25T14:01:42.000Z</time>
      </trkpt>
      <trkpt lat="46.14282" lon="4.64984">
        <ele>273</ele>
        <time>2020-06-25T14:01:47.000Z</time>
      </trkpt>
      <trkpt lat="46.143" lon="4.65077">
        <ele>273</ele>
        <time>2020-06-25T14:01:59.000Z</time>
      </trkpt>
      <trkpt lat="46.1431" lon="4.65112">
        <ele>272.79998779297</ele>
        <time>2020-06-25T14:02:04.000Z</time>
      </trkpt>
      <trkpt lat="46.14283" lon="4.65156">
        <ele>275.20001220703</ele>
        <time>2020-06-25T14:02:13.000Z</time>
      </trkpt>
      <trkpt lat="46.14273" lon="4.65174">
        <ele>275.79998779297</ele>
        <time>2020-06-25T14:02:16.000Z</time>
      </trkpt>
      <trkpt lat="46.14264" lon="4.65201">
        <ele>276.79998779297</ele>
        <time>2020-06-25T14:02:20.000Z</time>
      </trkpt>
      <trkpt lat="46.14258" lon="4.65231">
        <ele>279.39999389648</ele>
        <time>2020-06-25T14:02:30.000Z</time>
      </trkpt>
      <trkpt lat="46.14258" lon="4.65231">
        <ele>280.60000610352</ele>
        <time>2020-06-25T14:02:32.000Z</time>
      </trkpt>
      <trkpt lat="46.14263" lon="4.65236">
        <ele>282</ele>
        <time>2020-06-25T14:03:20.000Z</time>
      </trkpt>
      <trkpt lat="46.14268" lon="4.65251">
        <ele>282</ele>
        <time>2020-06-25T14:03:23.000Z</time>
      </trkpt>
      <trkpt lat="46.14317" lon="4.65343">
        <ele>283.20001220703</ele>
        <time>2020-06-25T14:03:39.000Z</time>
      </trkpt>
      <trkpt lat="46.14352" lon="4.65407">
        <ele>284.60000610352</ele>
        <time>2020-06-25T14:03:50.000Z</time>
      </trkpt>
      <trkpt lat="46.14354" lon="4.65413">
        <ele>284.79998779297</ele>
        <time>2020-06-25T14:03:51.000Z</time>
      </trkpt>
      <trkpt lat="46.14355" lon="4.6542">
        <ele>284.79998779297</ele>
        <time>2020-06-25T14:03:52.000Z</time>
      </trkpt>
      <trkpt lat="46.14356" lon="4.65426">
        <ele>284.79998779297</ele>
        <time>2020-06-25T14:03:53.000Z</time>
      </trkpt>
      <trkpt lat="46.14357" lon="4.65433">
        <ele>284.79998779297</ele>
        <time>2020-06-25T14:03:54.000Z</time>
      </trkpt>
      <trkpt lat="46.14361" lon="4.65477">
        <ele>284.79998779297</ele>
        <time>2020-06-25T14:04:00.000Z</time>
      </trkpt>
      <trkpt lat="46.14354" lon="4.65538">
        <ele>284</ele>
        <time>2020-06-25T14:04:07.000Z</time>
      </trkpt>
      <trkpt lat="46.14363" lon="4.65576">
        <ele>282.79998779297</ele>
        <time>2020-06-25T14:04:14.000Z</time>
      </trkpt>
      <trkpt lat="46.14387" lon="4.65591">
        <ele>282.39999389648</ele>
        <time>2020-06-25T14:04:19.000Z</time>
      </trkpt>
      <trkpt lat="46.14407" lon="4.65615">
        <ele>282.39999389648</ele>
        <time>2020-06-25T14:04:27.000Z</time>
      </trkpt>
      <trkpt lat="46.14411" lon="4.65622">
        <ele>282.39999389648</ele>
        <time>2020-06-25T14:04:29.000Z</time>
      </trkpt>
      <trkpt lat="46.14398" lon="4.65649">
        <ele>282</ele>
        <time>2020-06-25T14:04:36.000Z</time>
      </trkpt>
      <trkpt lat="46.14388" lon="4.65649">
        <ele>281.39999389648</ele>
        <time>2020-06-25T14:04:38.000Z</time>
      </trkpt>
      <trkpt lat="46.14371" lon="4.65656">
        <ele>281</ele>
        <time>2020-06-25T14:04:42.000Z</time>
      </trkpt>
      <trkpt lat="46.14343" lon="4.6568">
        <ele>281</ele>
        <time>2020-06-25T14:04:48.000Z</time>
      </trkpt>
      <trkpt lat="46.14329" lon="4.65721">
        <ele>281.60000610352</ele>
        <time>2020-06-25T14:04:54.000Z</time>
      </trkpt>
      <trkpt lat="46.14325" lon="4.65786">
        <ele>285</ele>
        <time>2020-06-25T14:05:02.000Z</time>
      </trkpt>
      <trkpt lat="46.14324" lon="4.65802">
        <ele>285.79998779297</ele>
        <time>2020-06-25T14:05:04.000Z</time>
      </trkpt>
      <trkpt lat="46.14326" lon="4.6587">
        <ele>289.39999389648</ele>
        <time>2020-06-25T14:05:13.000Z</time>
      </trkpt>
      <trkpt lat="46.14326" lon="4.65877">
        <ele>290</ele>
        <time>2020-06-25T14:05:14.000Z</time>
      </trkpt>
      <trkpt lat="46.1432" lon="4.65901">
        <ele>292.39999389648</ele>
        <time>2020-06-25T14:05:18.000Z</time>
      </trkpt>
      <trkpt lat="46.14313" lon="4.65911">
        <ele>293.39999389648</ele>
        <time>2020-06-25T14:05:20.000Z</time>
      </trkpt>
      <trkpt lat="46.14301" lon="4.65932">
        <ele>297</ele>
        <time>2020-06-25T14:05:24.000Z</time>
      </trkpt>
      <trkpt lat="46.14294" lon="4.65942">
        <ele>298.20001220703</ele>
        <time>2020-06-25T14:05:26.000Z</time>
      </trkpt>
      <trkpt lat="46.14279" lon="4.65969">
        <ele>300.20001220703</ele>
        <time>2020-06-25T14:05:31.000Z</time>
      </trkpt>
      <trkpt lat="46.14266" lon="4.65987">
        <ele>301.79998779297</ele>
        <time>2020-06-25T14:05:36.000Z</time>
      </trkpt>
      <trkpt lat="46.1424" lon="4.65976">
        <ele>303.60000610352</ele>
        <time>2020-06-25T14:05:47.000Z</time>
      </trkpt>
      <trkpt lat="46.14193" lon="4.65952">
        <ele>301.79998779297</ele>
        <time>2020-06-25T14:05:59.000Z</time>
      </trkpt>
      <trkpt lat="46.14164" lon="4.65938">
        <ele>301.39999389648</ele>
        <time>2020-06-25T14:06:07.000Z</time>
      </trkpt>
      <trkpt lat="46.14127" lon="4.65923">
        <ele>298.20001220703</ele>
        <time>2020-06-25T14:06:18.000Z</time>
      </trkpt>
      <trkpt lat="46.14125" lon="4.65922">
        <ele>297.79998779297</ele>
        <time>2020-06-25T14:06:19.000Z</time>
      </trkpt>
      <trkpt lat="46.14121" lon="4.65932">
        <ele>296.60000610352</ele>
        <time>2020-06-25T14:06:23.000Z</time>
      </trkpt>
      <trkpt lat="46.1412" lon="4.65992">
        <ele>294.60000610352</ele>
        <time>2020-06-25T14:06:34.000Z</time>
      </trkpt>
      <trkpt lat="46.14103" lon="4.65994">
        <ele>294.79998779297</ele>
        <time>2020-06-25T14:06:40.000Z</time>
      </trkpt>
      <trkpt lat="46.14033" lon="4.65974">
        <ele>293</ele>
        <time>2020-06-25T14:06:53.000Z</time>
      </trkpt>
      <trkpt lat="46.14017" lon="4.65969">
        <ele>291.20001220703</ele>
        <time>2020-06-25T14:06:56.000Z</time>
      </trkpt>
      <trkpt lat="46.13981" lon="4.65962">
        <ele>289.39999389648</ele>
        <time>2020-06-25T14:07:05.000Z</time>
      </trkpt>
      <trkpt lat="46.13956" lon="4.6596">
        <ele>288.79998779297</ele>
        <time>2020-06-25T14:07:12.000Z</time>
      </trkpt>
      <trkpt lat="46.13952" lon="4.65982">
        <ele>286.60000610352</ele>
        <time>2020-06-25T14:07:17.000Z</time>
      </trkpt>
      <trkpt lat="46.13948" lon="4.66031">
        <ele>286</ele>
        <time>2020-06-25T14:07:24.000Z</time>
      </trkpt>
      <trkpt lat="46.13946" lon="4.66089">
        <ele>286.79998779297</ele>
        <time>2020-06-25T14:07:34.000Z</time>
      </trkpt>
      <trkpt lat="46.13948" lon="4.66129">
        <ele>287</ele>
        <time>2020-06-25T14:07:42.000Z</time>
      </trkpt>
      <trkpt lat="46.13946" lon="4.66142">
        <ele>287</ele>
        <time>2020-06-25T14:07:46.000Z</time>
      </trkpt>
      <trkpt lat="46.13938" lon="4.66184">
        <ele>287.20001220703</ele>
        <time>2020-06-25T14:07:54.000Z</time>
      </trkpt>
      <trkpt lat="46.1392" lon="4.66188">
        <ele>287</ele>
        <time>2020-06-25T14:07:59.000Z</time>
      </trkpt>
      <trkpt lat="46.13828" lon="4.66153">
        <ele>283.79998779297</ele>
        <time>2020-06-25T14:08:15.000Z</time>
      </trkpt>
      <trkpt lat="46.13803" lon="4.66147">
        <ele>282.20001220703</ele>
        <time>2020-06-25T14:08:22.000Z</time>
      </trkpt>
      <trkpt lat="46.1379" lon="4.66164">
        <ele>281.79998779297</ele>
        <time>2020-06-25T14:08:26.000Z</time>
      </trkpt>
      <trkpt lat="46.13776" lon="4.66198">
        <ele>281.60000610352</ele>
        <time>2020-06-25T14:08:32.000Z</time>
      </trkpt>
      <trkpt lat="46.1375" lon="4.66281">
        <ele>282</ele>
        <time>2020-06-25T14:08:44.000Z</time>
      </trkpt>
      <trkpt lat="46.13746" lon="4.66292">
        <ele>282</ele>
        <time>2020-06-25T14:08:46.000Z</time>
      </trkpt>
      <trkpt lat="46.13732" lon="4.66298">
        <ele>280.79998779297</ele>
        <time>2020-06-25T14:08:52.000Z</time>
      </trkpt>
      <trkpt lat="46.13682" lon="4.66288">
        <ele>277.39999389648</ele>
        <time>2020-06-25T14:09:04.000Z</time>
      </trkpt>
      <trkpt lat="46.13645" lon="4.66282">
        <ele>274</ele>
        <time>2020-06-25T14:09:12.000Z</time>
      </trkpt>
      <trkpt lat="46.13638" lon="4.66281">
        <ele>271</ele>
        <time>2020-06-25T14:09:17.000Z</time>
      </trkpt>
      <trkpt lat="46.13638" lon="4.66281">
        <ele>269.79998779297</ele>
        <time>2020-06-25T14:09:19.000Z</time>
      </trkpt>
      <trkpt lat="46.13631" lon="4.66282">
        <ele>268.60000610352</ele>
        <time>2020-06-25T14:09:29.000Z</time>
      </trkpt>
      <trkpt lat="46.13568" lon="4.66271">
        <ele>265.79998779297</ele>
        <time>2020-06-25T14:09:42.000Z</time>
      </trkpt>
      <trkpt lat="46.13547" lon="4.66267">
        <ele>263.39999389648</ele>
        <time>2020-06-25T14:09:46.000Z</time>
      </trkpt>
      <trkpt lat="46.13541" lon="4.6627">
        <ele>261.20001220703</ele>
        <time>2020-06-25T14:09:50.000Z</time>
      </trkpt>
      <trkpt lat="46.13541" lon="4.66271">
        <ele>259.20001220703</ele>
        <time>2020-06-25T14:09:53.000Z</time>
      </trkpt>
      <trkpt lat="46.13537" lon="4.66285">
        <ele>258.60000610352</ele>
        <time>2020-06-25T14:10:10.000Z</time>
      </trkpt>
      <trkpt lat="46.13516" lon="4.66351">
        <ele>257.79998779297</ele>
        <time>2020-06-25T14:10:22.000Z</time>
      </trkpt>
      <trkpt lat="46.13508" lon="4.66366">
        <ele>258.20001220703</ele>
        <time>2020-06-25T14:10:31.000Z</time>
      </trkpt>
      <trkpt lat="46.13508" lon="4.66366">
        <ele>258.39999389648</ele>
        <time>2020-06-25T14:10:32.000Z</time>
      </trkpt>
      <trkpt lat="46.13502" lon="4.6636">
        <ele>259.60000610352</ele>
        <time>2020-06-25T14:10:40.000Z</time>
      </trkpt>
      <trkpt lat="46.13495" lon="4.66359">
        <ele>259.60000610352</ele>
        <time>2020-06-25T14:10:42.000Z</time>
      </trkpt>
      <trkpt lat="46.13443" lon="4.66347">
        <ele>257.60000610352</ele>
        <time>2020-06-25T14:10:52.000Z</time>
      </trkpt>
      <trkpt lat="46.13431" lon="4.66346">
        <ele>256.79998779297</ele>
        <time>2020-06-25T14:10:54.000Z</time>
      </trkpt>
      <trkpt lat="46.13394" lon="4.66338">
        <ele>252.80000305176</ele>
        <time>2020-06-25T14:11:01.000Z</time>
      </trkpt>
      <trkpt lat="46.13372" lon="4.66332">
        <ele>251.39999389648</ele>
        <time>2020-06-25T14:11:07.000Z</time>
      </trkpt>
      <trkpt lat="46.13362" lon="4.66345">
        <ele>250.19999694824</ele>
        <time>2020-06-25T14:11:11.000Z</time>
      </trkpt>
      <trkpt lat="46.13325" lon="4.66415">
        <ele>248.39999389648</ele>
        <time>2020-06-25T14:11:24.000Z</time>
      </trkpt>
      <trkpt lat="46.13308" lon="4.66422">
        <ele>248.19999694824</ele>
        <time>2020-06-25T14:11:28.000Z</time>
      </trkpt>
      <trkpt lat="46.13292" lon="4.66428">
        <ele>248.39999389648</ele>
        <time>2020-06-25T14:11:32.000Z</time>
      </trkpt>
      <trkpt lat="46.13277" lon="4.66445">
        <ele>248.39999389648</ele>
        <time>2020-06-25T14:11:37.000Z</time>
      </trkpt>
      <trkpt lat="46.13276" lon="4.66463">
        <ele>249</ele>
        <time>2020-06-25T14:11:41.000Z</time>
      </trkpt>
      <trkpt lat="46.13264" lon="4.66474">
        <ele>250.19999694824</ele>
        <time>2020-06-25T14:11:46.000Z</time>
      </trkpt>
      <trkpt lat="46.13242" lon="4.66475">
        <ele>251.80000305176</ele>
        <time>2020-06-25T14:11:57.000Z</time>
      </trkpt>
      <trkpt lat="46.13237" lon="4.66476">
        <ele>252.80000305176</ele>
        <time>2020-06-25T14:12:20.000Z</time>
      </trkpt>
      <trkpt lat="46.13227" lon="4.66482">
        <ele>252.80000305176</ele>
        <time>2020-06-25T14:12:23.000Z</time>
      </trkpt>
      <trkpt lat="46.13219" lon="4.66484">
        <ele>252.80000305176</ele>
        <time>2020-06-25T14:12:25.000Z</time>
      </trkpt>
      <trkpt lat="46.13207" lon="4.66492">
        <ele>252.60000610352</ele>
        <time>2020-06-25T14:12:28.000Z</time>
      </trkpt>
      <trkpt lat="46.13203" lon="4.66497">
        <ele>252.60000610352</ele>
        <time>2020-06-25T14:12:29.000Z</time>
      </trkpt>
      <trkpt lat="46.13143" lon="4.66578">
        <ele>253.19999694824</ele>
        <time>2020-06-25T14:12:45.000Z</time>
      </trkpt>
      <trkpt lat="46.13087" lon="4.66659">
        <ele>254.80000305176</ele>
        <time>2020-06-25T14:12:59.000Z</time>
      </trkpt>
      <trkpt lat="46.13081" lon="4.66672">
        <ele>254.80000305176</ele>
        <time>2020-06-25T14:13:01.000Z</time>
      </trkpt>
      <trkpt lat="46.13074" lon="4.66692">
        <ele>255</ele>
        <time>2020-06-25T14:13:04.000Z</time>
      </trkpt>
      <trkpt lat="46.13052" lon="4.66811">
        <ele>255.39999389648</ele>
        <time>2020-06-25T14:13:19.000Z</time>
      </trkpt>
      <trkpt lat="46.13008" lon="4.66933">
        <ele>256.60000610352</ele>
        <time>2020-06-25T14:13:36.000Z</time>
      </trkpt>
      <trkpt lat="46.12964" lon="4.67042">
        <ele>256.60000610352</ele>
        <time>2020-06-25T14:13:52.000Z</time>
      </trkpt>
      <trkpt lat="46.12948" lon="4.67134">
        <ele>255.39999389648</ele>
        <time>2020-06-25T14:14:04.000Z</time>
      </trkpt>
      <trkpt lat="46.12939" lon="4.67162">
        <ele>254.60000610352</ele>
        <time>2020-06-25T14:14:08.000Z</time>
      </trkpt>
      <trkpt lat="46.1293" lon="4.67176">
        <ele>254</ele>
        <time>2020-06-25T14:14:10.000Z</time>
      </trkpt>
      <trkpt lat="46.12879" lon="4.67224">
        <ele>250.60000610352</ele>
        <time>2020-06-25T14:14:18.000Z</time>
      </trkpt>
      <trkpt lat="46.12854" lon="4.67243">
        <ele>247.60000610352</ele>
        <time>2020-06-25T14:14:22.000Z</time>
      </trkpt>
      <trkpt lat="46.12843" lon="4.67252">
        <ele>244.19999694824</ele>
        <time>2020-06-25T14:14:25.000Z</time>
      </trkpt>
      <trkpt lat="46.12831" lon="4.67262">
        <ele>241.39999389648</ele>
        <time>2020-06-25T14:14:28.000Z</time>
      </trkpt>
      <trkpt lat="46.12828" lon="4.67268">
        <ele>240.80000305176</ele>
        <time>2020-06-25T14:14:29.000Z</time>
      </trkpt>
      <trkpt lat="46.12827" lon="4.67276">
        <ele>240.39999389648</ele>
        <time>2020-06-25T14:14:30.000Z</time>
      </trkpt>
      <trkpt lat="46.12828" lon="4.67285">
        <ele>240.19999694824</ele>
        <time>2020-06-25T14:14:31.000Z</time>
      </trkpt>
      <trkpt lat="46.1283" lon="4.67293">
        <ele>240</ele>
        <time>2020-06-25T14:14:32.000Z</time>
      </trkpt>
      <trkpt lat="46.1285" lon="4.67321">
        <ele>237.60000610352</ele>
        <time>2020-06-25T14:14:37.000Z</time>
      </trkpt>
      <trkpt lat="46.12861" lon="4.67336">
        <ele>235.19999694824</ele>
        <time>2020-06-25T14:14:40.000Z</time>
      </trkpt>
      <trkpt lat="46.12868" lon="4.67349">
        <ele>233.80000305176</ele>
        <time>2020-06-25T14:14:42.000Z</time>
      </trkpt>
      <trkpt lat="46.12875" lon="4.67361">
        <ele>232.80000305176</ele>
        <time>2020-06-25T14:14:44.000Z</time>
      </trkpt>
      <trkpt lat="46.1289" lon="4.6742">
        <ele>231.39999389648</ele>
        <time>2020-06-25T14:14:56.000Z</time>
      </trkpt>
      <trkpt lat="46.1289" lon="4.67423">
        <ele>231.39999389648</ele>
        <time>2020-06-25T14:14:57.000Z</time>
      </trkpt>
      <trkpt lat="46.1289" lon="4.67406">
        <ele>233</ele>
        <time>2020-06-25T14:15:04.000Z</time>
      </trkpt>
      <trkpt lat="46.12889" lon="4.67401">
        <ele>233.19999694824</ele>
        <time>2020-06-25T14:15:05.000Z</time>
      </trkpt>
      <trkpt lat="46.12878" lon="4.6736">
        <ele>233.39999389648</ele>
        <time>2020-06-25T14:15:11.000Z</time>
      </trkpt>
      <trkpt lat="46.12863" lon="4.67339">
        <ele>233.19999694824</ele>
        <time>2020-06-25T14:15:15.000Z</time>
      </trkpt>
      <trkpt lat="46.12791" lon="4.67303">
        <ele>229.80000305176</ele>
        <time>2020-06-25T14:15:29.000Z</time>
      </trkpt>
      <trkpt lat="46.12779" lon="4.67294">
        <ele>228.60000610352</ele>
        <time>2020-06-25T14:15:34.000Z</time>
      </trkpt>
      <trkpt lat="46.12737" lon="4.67244">
        <ele>226.80000305176</ele>
        <time>2020-06-25T14:15:46.000Z</time>
      </trkpt>
      <trkpt lat="46.12732" lon="4.67279">
        <ele>225.80000305176</ele>
        <time>2020-06-25T14:15:53.000Z</time>
      </trkpt>
      <trkpt lat="46.12734" lon="4.67334">
        <ele>225</ele>
        <time>2020-06-25T14:16:03.000Z</time>
      </trkpt>
      <trkpt lat="46.12735" lon="4.67336">
        <ele>225</ele>
        <time>2020-06-25T14:16:04.000Z</time>
      </trkpt>
      <trkpt lat="46.12737" lon="4.67337">
        <ele>225</ele>
        <time>2020-06-25T14:16:05.000Z</time>
      </trkpt>
      <trkpt lat="46.1274" lon="4.67338">
        <ele>225</ele>
        <time>2020-06-25T14:16:06.000Z</time>
      </trkpt>
      <trkpt lat="46.12743" lon="4.67338">
        <ele>225</ele>
        <time>2020-06-25T14:16:07.000Z</time>
      </trkpt>
      <trkpt lat="46.12746" lon="4.67337">
        <ele>225.19999694824</ele>
        <time>2020-06-25T14:16:08.000Z</time>
      </trkpt>
      <trkpt lat="46.1275" lon="4.67335">
        <ele>225.19999694824</ele>
        <time>2020-06-25T14:16:09.000Z</time>
      </trkpt>
      <trkpt lat="46.12754" lon="4.67333">
        <ele>225.39999389648</ele>
        <time>2020-06-25T14:16:10.000Z</time>
      </trkpt>
      <trkpt lat="46.12758" lon="4.67331">
        <ele>225.39999389648</ele>
        <time>2020-06-25T14:16:11.000Z</time>
      </trkpt>
      <trkpt lat="46.12786" lon="4.67314">
        <ele>225.80000305176</ele>
        <time>2020-06-25T14:16:18.000Z</time>
      </trkpt>
      <trkpt lat="46.12838" lon="4.67332">
        <ele>228.80000305176</ele>
        <time>2020-06-25T14:16:29.000Z</time>
      </trkpt>
      <trkpt lat="46.12843" lon="4.67334">
        <ele>229.19999694824</ele>
        <time>2020-06-25T14:16:30.000Z</time>
      </trkpt>
      <trkpt lat="46.12862" lon="4.67344">
        <ele>229.80000305176</ele>
        <time>2020-06-25T14:16:34.000Z</time>
      </trkpt>
      <trkpt lat="46.12884" lon="4.67385">
        <ele>230.39999389648</ele>
        <time>2020-06-25T14:16:41.000Z</time>
      </trkpt>
      <trkpt lat="46.12902" lon="4.67516">
        <ele>233.60000610352</ele>
        <time>2020-06-25T14:16:59.000Z</time>
      </trkpt>
      <trkpt lat="46.12906" lon="4.67583">
        <ele>236.60000610352</ele>
        <time>2020-06-25T14:17:08.000Z</time>
      </trkpt>
      <trkpt lat="46.12906" lon="4.67591">
        <ele>236.80000305176</ele>
        <time>2020-06-25T14:17:09.000Z</time>
      </trkpt>
      <trkpt lat="46.12909" lon="4.67642">
        <ele>239</ele>
        <time>2020-06-25T14:17:16.000Z</time>
      </trkpt>
      <trkpt lat="46.12911" lon="4.67677">
        <ele>240</ele>
        <time>2020-06-25T14:17:21.000Z</time>
      </trkpt>
      <trkpt lat="46.12913" lon="4.67691">
        <ele>240.80000305176</ele>
        <time>2020-06-25T14:17:23.000Z</time>
      </trkpt>
      <trkpt lat="46.12915" lon="4.67704">
        <ele>241</ele>
        <time>2020-06-25T14:17:25.000Z</time>
      </trkpt>
      <trkpt lat="46.12936" lon="4.67738">
        <ele>243.80000305176</ele>
        <time>2020-06-25T14:17:32.000Z</time>
      </trkpt>
      <trkpt lat="46.12944" lon="4.67783">
        <ele>246.80000305176</ele>
        <time>2020-06-25T14:17:43.000Z</time>
      </trkpt>
      <trkpt lat="46.1294" lon="4.67857">
        <ele>247.39999389648</ele>
        <time>2020-06-25T14:17:56.000Z</time>
      </trkpt>
      <trkpt lat="46.12934" lon="4.67864">
        <ele>248.80000305176</ele>
        <time>2020-06-25T14:18:00.000Z</time>
      </trkpt>
      <trkpt lat="46.12939" lon="4.6788">
        <ele>250</ele>
        <time>2020-06-25T14:18:05.000Z</time>
      </trkpt>
      <trkpt lat="46.12977" lon="4.67902">
        <ele>252</ele>
        <time>2020-06-25T14:18:19.000Z</time>
      </trkpt>
      <trkpt lat="46.12978" lon="4.67902">
        <ele>252.39999389648</ele>
        <time>2020-06-25T14:18:24.000Z</time>
      </trkpt>
      <trkpt lat="46.12987" lon="4.67899">
        <ele>253</ele>
        <time>2020-06-25T14:20:14.000Z</time>
      </trkpt>
      <trkpt lat="46.13" lon="4.67908">
        <ele>253</ele>
        <time>2020-06-25T14:20:18.000Z</time>
      </trkpt>
      <trkpt lat="46.13012" lon="4.67916">
        <ele>253</ele>
        <time>2020-06-25T14:20:22.000Z</time>
      </trkpt>
      <trkpt lat="46.13015" lon="4.6793">
        <ele>253</ele>
        <time>2020-06-25T14:20:27.000Z</time>
      </trkpt>
      <trkpt lat="46.12989" lon="4.68027">
        <ele>252</ele>
        <time>2020-06-25T14:20:41.000Z</time>
      </trkpt>
      <trkpt lat="46.12972" lon="4.68095">
        <ele>250.80000305176</ele>
        <time>2020-06-25T14:20:50.000Z</time>
      </trkpt>
      <trkpt lat="46.12971" lon="4.68214">
        <ele>250</ele>
        <time>2020-06-25T14:21:05.000Z</time>
      </trkpt>
      <trkpt lat="46.12958" lon="4.68334">
        <ele>248.39999389648</ele>
        <time>2020-06-25T14:21:19.000Z</time>
      </trkpt>
      <trkpt lat="46.12953" lon="4.68396">
        <ele>247.39999389648</ele>
        <time>2020-06-25T14:21:29.000Z</time>
      </trkpt>
      <trkpt lat="46.12947" lon="4.6849">
        <ele>246.19999694824</ele>
        <time>2020-06-25T14:21:43.000Z</time>
      </trkpt>
      <trkpt lat="46.1294" lon="4.68607">
        <ele>243.19999694824</ele>
        <time>2020-06-25T14:21:55.000Z</time>
      </trkpt>
      <trkpt lat="46.12943" lon="4.68701">
        <ele>240</ele>
        <time>2020-06-25T14:22:04.000Z</time>
      </trkpt>
      <trkpt lat="46.12952" lon="4.68767">
        <ele>239.19999694824</ele>
        <time>2020-06-25T14:22:12.000Z</time>
      </trkpt>
      <trkpt lat="46.12952" lon="4.688">
        <ele>239.19999694824</ele>
        <time>2020-06-25T14:22:17.000Z</time>
      </trkpt>
      <trkpt lat="46.12952" lon="4.6886">
        <ele>239</ele>
        <time>2020-06-25T14:22:24.000Z</time>
      </trkpt>
      <trkpt lat="46.12954" lon="4.68878">
        <ele>238.39999389648</ele>
        <time>2020-06-25T14:22:26.000Z</time>
      </trkpt>
      <trkpt lat="46.1298" lon="4.68951">
        <ele>234.80000305176</ele>
        <time>2020-06-25T14:22:35.000Z</time>
      </trkpt>
      <trkpt lat="46.1299" lon="4.68982">
        <ele>232.60000610352</ele>
        <time>2020-06-25T14:22:40.000Z</time>
      </trkpt>
      <trkpt lat="46.12991" lon="4.68989">
        <ele>232.19999694824</ele>
        <time>2020-06-25T14:22:41.000Z</time>
      </trkpt>
      <trkpt lat="46.12993" lon="4.69025">
        <ele>230.60000610352</ele>
        <time>2020-06-25T14:22:47.000Z</time>
      </trkpt>
      <trkpt lat="46.12993" lon="4.69039">
        <ele>229.19999694824</ele>
        <time>2020-06-25T14:22:49.000Z</time>
      </trkpt>
      <trkpt lat="46.12993" lon="4.69046">
        <ele>229</ele>
        <time>2020-06-25T14:22:50.000Z</time>
      </trkpt>
      <trkpt lat="46.12994" lon="4.69053">
        <ele>228.80000305176</ele>
        <time>2020-06-25T14:22:51.000Z</time>
      </trkpt>
      <trkpt lat="46.13003" lon="4.69101">
        <ele>226</ele>
        <time>2020-06-25T14:22:58.000Z</time>
      </trkpt>
      <trkpt lat="46.13005" lon="4.69115">
        <ele>224.60000610352</ele>
        <time>2020-06-25T14:23:06.000Z</time>
      </trkpt>
      <trkpt lat="46.13014" lon="4.69111">
        <ele>224.60000610352</ele>
        <time>2020-06-25T14:23:15.000Z</time>
      </trkpt>
      <trkpt lat="46.13017" lon="4.69108">
        <ele>224.60000610352</ele>
        <time>2020-06-25T14:23:16.000Z</time>
      </trkpt>
      <trkpt lat="46.13021" lon="4.69101">
        <ele>224.80000305176</ele>
        <time>2020-06-25T14:23:18.000Z</time>
      </trkpt>
      <trkpt lat="46.13034" lon="4.69088">
        <ele>225</ele>
        <time>2020-06-25T14:23:22.000Z</time>
      </trkpt>
      <trkpt lat="46.1305" lon="4.69091">
        <ele>225</ele>
        <time>2020-06-25T14:23:26.000Z</time>
      </trkpt>
      <trkpt lat="46.13113" lon="4.69111">
        <ele>225.19999694824</ele>
        <time>2020-06-25T14:23:40.000Z</time>
      </trkpt>
      <trkpt lat="46.13116" lon="4.69112">
        <ele>225.19999694824</ele>
        <time>2020-06-25T14:23:41.000Z</time>
      </trkpt>
      <trkpt lat="46.13143" lon="4.69098">
        <ele>225.39999389648</ele>
        <time>2020-06-25T14:23:51.000Z</time>
      </trkpt>
      <trkpt lat="46.13159" lon="4.69096">
        <ele>225.60000610352</ele>
        <time>2020-06-25T14:23:55.000Z</time>
      </trkpt>
      <trkpt lat="46.13181" lon="4.69092">
        <ele>226</ele>
        <time>2020-06-25T14:24:02.000Z</time>
      </trkpt>
      <trkpt lat="46.13184" lon="4.69092">
        <ele>226.60000610352</ele>
        <time>2020-06-25T14:24:09.000Z</time>
      </trkpt>
      <trkpt lat="46.13176" lon="4.69092">
        <ele>226.80000305176</ele>
        <time>2020-06-25T14:24:40.000Z</time>
      </trkpt>
      <trkpt lat="46.13173" lon="4.69092">
        <ele>226.80000305176</ele>
        <time>2020-06-25T14:24:41.000Z</time>
      </trkpt>
      <trkpt lat="46.13121" lon="4.69107">
        <ele>225.80000305176</ele>
        <time>2020-06-25T14:24:54.000Z</time>
      </trkpt>
      <trkpt lat="46.13088" lon="4.69187">
        <ele>225</ele>
        <time>2020-06-25T14:25:07.000Z</time>
      </trkpt>
      <trkpt lat="46.13073" lon="4.69227">
        <ele>223.19999694824</ele>
        <time>2020-06-25T14:25:13.000Z</time>
      </trkpt>
      <trkpt lat="46.13059" lon="4.69268">
        <ele>222.39999389648</ele>
        <time>2020-06-25T14:25:19.000Z</time>
      </trkpt>
      <trkpt lat="46.13041" lon="4.6932">
        <ele>221.60000610352</ele>
        <time>2020-06-25T14:25:30.000Z</time>
      </trkpt>
      <trkpt lat="46.13049" lon="4.6933">
        <ele>221.60000610352</ele>
        <time>2020-06-25T14:25:34.000Z</time>
      </trkpt>
      <trkpt lat="46.13089" lon="4.69404">
        <ele>221</ele>
        <time>2020-06-25T14:25:48.000Z</time>
      </trkpt>
      <trkpt lat="46.13095" lon="4.69415">
        <ele>221</ele>
        <time>2020-06-25T14:25:51.000Z</time>
      </trkpt>
      <trkpt lat="46.13112" lon="4.69403">
        <ele>220.39999389648</ele>
        <time>2020-06-25T14:26:01.000Z</time>
      </trkpt>
      <trkpt lat="46.13143" lon="4.6937">
        <ele>220.60000610352</ele>
        <time>2020-06-25T14:26:16.000Z</time>
      </trkpt>
      <trkpt lat="46.13183" lon="4.69346">
        <ele>220.80000305176</ele>
        <time>2020-06-25T14:26:28.000Z</time>
      </trkpt>
      <trkpt lat="46.13184" lon="4.69342">
        <ele>221.60000610352</ele>
        <time>2020-06-25T14:26:34.000Z</time>
      </trkpt>
      <trkpt lat="46.13174" lon="4.69347">
        <ele>221.80000305176</ele>
        <time>2020-06-25T14:26:41.000Z</time>
      </trkpt>
      <trkpt lat="46.13124" lon="4.69384">
        <ele>220.80000305176</ele>
        <time>2020-06-25T14:26:54.000Z</time>
      </trkpt>
      <trkpt lat="46.1308" lon="4.69435">
        <ele>219.60000610352</ele>
        <time>2020-06-25T14:27:06.000Z</time>
      </trkpt>
      <trkpt lat="46.13048" lon="4.69472">
        <ele>219.19999694824</ele>
        <time>2020-06-25T14:27:14.000Z</time>
      </trkpt>
      <trkpt lat="46.13042" lon="4.69512">
        <ele>218.39999389648</ele>
        <time>2020-06-25T14:27:21.000Z</time>
      </trkpt>
      <trkpt lat="46.13046" lon="4.69533">
        <ele>218</ele>
        <time>2020-06-25T14:27:24.000Z</time>
      </trkpt>
      <trkpt lat="46.13035" lon="4.69557">
        <ele>217.39999389648</ele>
        <time>2020-06-25T14:27:29.000Z</time>
      </trkpt>
      <trkpt lat="46.12975" lon="4.69588">
        <ele>216.60000610352</ele>
        <time>2020-06-25T14:27:42.000Z</time>
      </trkpt>
      <trkpt lat="46.1292" lon="4.696">
        <ele>217.60000610352</ele>
        <time>2020-06-25T14:27:55.000Z</time>
      </trkpt>
      <trkpt lat="46.12915" lon="4.69603">
        <ele>218</ele>
        <time>2020-06-25T14:27:57.000Z</time>
      </trkpt>
      <trkpt lat="46.12912" lon="4.69607">
        <ele>218</ele>
        <time>2020-06-25T14:27:58.000Z</time>
      </trkpt>
      <trkpt lat="46.1291" lon="4.69613">
        <ele>218</ele>
        <time>2020-06-25T14:27:59.000Z</time>
      </trkpt>
      <trkpt lat="46.129" lon="4.69683">
        <ele>216.80000305176</ele>
        <time>2020-06-25T14:28:08.000Z</time>
      </trkpt>
      <trkpt lat="46.12909" lon="4.69723">
        <ele>216</ele>
        <time>2020-06-25T14:28:13.000Z</time>
      </trkpt>
      <trkpt lat="46.12913" lon="4.6973">
        <ele>215.80000305176</ele>
        <time>2020-06-25T14:28:14.000Z</time>
      </trkpt>
      <trkpt lat="46.12918" lon="4.69736">
        <ele>215.39999389648</ele>
        <time>2020-06-25T14:28:15.000Z</time>
      </trkpt>
      <trkpt lat="46.12923" lon="4.69742">
        <ele>215.19999694824</ele>
        <time>2020-06-25T14:28:16.000Z</time>
      </trkpt>
      <trkpt lat="46.12952" lon="4.69755">
        <ele>215</ele>
        <time>2020-06-25T14:28:21.000Z</time>
      </trkpt>
      <trkpt lat="46.13051" lon="4.69761">
        <ele>215.19999694824</ele>
        <time>2020-06-25T14:28:37.000Z</time>
      </trkpt>
      <trkpt lat="46.13115" lon="4.69773">
        <ele>216.60000610352</ele>
        <time>2020-06-25T14:28:49.000Z</time>
      </trkpt>
      <trkpt lat="46.13143" lon="4.69792">
        <ele>218</ele>
        <time>2020-06-25T14:28:56.000Z</time>
      </trkpt>
      <trkpt lat="46.13157" lon="4.69809">
        <ele>218.80000305176</ele>
        <time>2020-06-25T14:29:00.000Z</time>
      </trkpt>
      <trkpt lat="46.13191" lon="4.69868">
        <ele>220.60000610352</ele>
        <time>2020-06-25T14:29:10.000Z</time>
      </trkpt>
      <trkpt lat="46.13195" lon="4.6987">
        <ele>220.80000305176</ele>
        <time>2020-06-25T14:29:12.000Z</time>
      </trkpt>
      <trkpt lat="46.13197" lon="4.69867">
        <ele>220.80000305176</ele>
        <time>2020-06-25T14:29:13.000Z</time>
      </trkpt>
      <trkpt lat="46.13199" lon="4.69864">
        <ele>220.80000305176</ele>
        <time>2020-06-25T14:29:14.000Z</time>
      </trkpt>
      <trkpt lat="46.13202" lon="4.6986">
        <ele>220.80000305176</ele>
        <time>2020-06-25T14:29:15.000Z</time>
      </trkpt>
      <trkpt lat="46.13205" lon="4.69857">
        <ele>221</ele>
        <time>2020-06-25T14:29:16.000Z</time>
      </trkpt>
      <trkpt lat="46.13209" lon="4.69855">
        <ele>221</ele>
        <time>2020-06-25T14:29:17.000Z</time>
      </trkpt>
      <trkpt lat="46.13275" lon="4.69814">
        <ele>223.60000610352</ele>
        <time>2020-06-25T14:29:31.000Z</time>
      </trkpt>
      <trkpt lat="46.13315" lon="4.69795">
        <ele>224</ele>
        <time>2020-06-25T14:29:39.000Z</time>
      </trkpt>
      <trkpt lat="46.13318" lon="4.69792">
        <ele>224</ele>
        <time>2020-06-25T14:29:40.000Z</time>
      </trkpt>
      <trkpt lat="46.13321" lon="4.69789">
        <ele>224.19999694824</ele>
        <time>2020-06-25T14:29:41.000Z</time>
      </trkpt>
      <trkpt lat="46.13322" lon="4.69786">
        <ele>224.19999694824</ele>
        <time>2020-06-25T14:29:42.000Z</time>
      </trkpt>
      <trkpt lat="46.13323" lon="4.69784">
        <ele>224.39999389648</ele>
        <time>2020-06-25T14:29:43.000Z</time>
      </trkpt>
      <trkpt lat="46.13325" lon="4.69787">
        <ele>225.39999389648</ele>
        <time>2020-06-25T14:29:50.000Z</time>
      </trkpt>
      <trkpt lat="46.13325" lon="4.69789">
        <ele>225.39999389648</ele>
        <time>2020-06-25T14:29:51.000Z</time>
      </trkpt>
      <trkpt lat="46.13325" lon="4.69791">
        <ele>225.39999389648</ele>
        <time>2020-06-25T14:29:52.000Z</time>
      </trkpt>
      <trkpt lat="46.13326" lon="4.69794">
        <ele>225.39999389648</ele>
        <time>2020-06-25T14:29:53.000Z</time>
      </trkpt>
      <trkpt lat="46.13327" lon="4.69798">
        <ele>225.39999389648</ele>
        <time>2020-06-25T14:29:54.000Z</time>
      </trkpt>
      <trkpt lat="46.13348" lon="4.69875">
        <ele>225.39999389648</ele>
        <time>2020-06-25T14:30:07.000Z</time>
      </trkpt>
      <trkpt lat="46.13359" lon="4.69913">
        <ele>225.60000610352</ele>
        <time>2020-06-25T14:30:13.000Z</time>
      </trkpt>
      <trkpt lat="46.13376" lon="4.69934">
        <ele>225.80000305176</ele>
        <time>2020-06-25T14:30:18.000Z</time>
      </trkpt>
      <trkpt lat="46.13403" lon="4.69946">
        <ele>226.39999389648</ele>
        <time>2020-06-25T14:30:25.000Z</time>
      </trkpt>
      <trkpt lat="46.13423" lon="4.69939">
        <ele>227.19999694824</ele>
        <time>2020-06-25T14:30:30.000Z</time>
      </trkpt>
      <trkpt lat="46.13453" lon="4.69923">
        <ele>227.80000305176</ele>
        <time>2020-06-25T14:30:38.000Z</time>
      </trkpt>
      <trkpt lat="46.13492" lon="4.69944">
        <ele>229.80000305176</ele>
        <time>2020-06-25T14:30:50.000Z</time>
      </trkpt>
      <trkpt lat="46.13528" lon="4.69963">
        <ele>231</ele>
        <time>2020-06-25T14:30:59.000Z</time>
      </trkpt>
      <trkpt lat="46.13546" lon="4.69971">
        <ele>232</ele>
        <time>2020-06-25T14:31:04.000Z</time>
      </trkpt>
      <trkpt lat="46.1355" lon="4.69973">
        <ele>232.39999389648</ele>
        <time>2020-06-25T14:31:06.000Z</time>
      </trkpt>
      <trkpt lat="46.13564" lon="4.69929">
        <ele>234.60000610352</ele>
        <time>2020-06-25T14:31:15.000Z</time>
      </trkpt>
      <trkpt lat="46.13572" lon="4.69884">
        <ele>235.39999389648</ele>
        <time>2020-06-25T14:31:22.000Z</time>
      </trkpt>
      <trkpt lat="46.13599" lon="4.69742">
        <ele>238.60000610352</ele>
        <time>2020-06-25T14:31:42.000Z</time>
      </trkpt>
      <trkpt lat="46.13607" lon="4.69706">
        <ele>239.60000610352</ele>
        <time>2020-06-25T14:31:48.000Z</time>
      </trkpt>
      <trkpt lat="46.13616" lon="4.69702">
        <ele>240.80000305176</ele>
        <time>2020-06-25T14:31:52.000Z</time>
      </trkpt>
      <trkpt lat="46.1369" lon="4.69715">
        <ele>243.19999694824</ele>
        <time>2020-06-25T14:32:08.000Z</time>
      </trkpt>
      <trkpt lat="46.13745" lon="4.69722">
        <ele>245.80000305176</ele>
        <time>2020-06-25T14:32:23.000Z</time>
      </trkpt>
      <trkpt lat="46.13789" lon="4.69728">
        <ele>247</ele>
        <time>2020-06-25T14:32:34.000Z</time>
      </trkpt>
      <trkpt lat="46.13836" lon="4.69734">
        <ele>247.60000610352</ele>
        <time>2020-06-25T14:32:47.000Z</time>
      </trkpt>
      <trkpt lat="46.13908" lon="4.69743">
        <ele>247.60000610352</ele>
        <time>2020-06-25T14:33:02.000Z</time>
      </trkpt>
      <trkpt lat="46.13969" lon="4.69751">
        <ele>247</ele>
        <time>2020-06-25T14:33:14.000Z</time>
      </trkpt>
      <trkpt lat="46.14032" lon="4.69787">
        <ele>246.39999389648</ele>
        <time>2020-06-25T14:33:30.000Z</time>
      </trkpt>
      <trkpt lat="46.14037" lon="4.69788">
        <ele>246.39999389648</ele>
        <time>2020-06-25T14:33:32.000Z</time>
      </trkpt>
      <trkpt lat="46.14043" lon="4.69782">
        <ele>246.60000610352</ele>
        <time>2020-06-25T14:33:36.000Z</time>
      </trkpt>
      <trkpt lat="46.14047" lon="4.69768">
        <ele>246.80000305176</ele>
        <time>2020-06-25T14:33:40.000Z</time>
      </trkpt>
      <trkpt lat="46.14059" lon="4.69766">
        <ele>246.80000305176</ele>
        <time>2020-06-25T14:33:45.000Z</time>
      </trkpt>
      <trkpt lat="46.14085" lon="4.69771">
        <ele>245.39999389648</ele>
        <time>2020-06-25T14:33:54.000Z</time>
      </trkpt>
      <trkpt lat="46.14095" lon="4.69769">
        <ele>245</ele>
        <time>2020-06-25T14:34:05.000Z</time>
      </trkpt>
      <trkpt lat="46.14104" lon="4.69783">
        <ele>245.60000610352</ele>
        <time>2020-06-25T14:39:30.000Z</time>
      </trkpt>
      <trkpt lat="46.14102" lon="4.69791">
        <ele>245.60000610352</ele>
        <time>2020-06-25T14:39:32.000Z</time>
      </trkpt>
      <trkpt lat="46.14092" lon="4.69818">
        <ele>244.80000305176</ele>
        <time>2020-06-25T14:39:41.000Z</time>
      </trkpt>
      <trkpt lat="46.14083" lon="4.69844">
        <ele>244.80000305176</ele>
        <time>2020-06-25T14:39:47.000Z</time>
      </trkpt>
      <trkpt lat="46.14076" lon="4.69869">
        <ele>244.60000610352</ele>
        <time>2020-06-25T14:39:51.000Z</time>
      </trkpt>
      <trkpt lat="46.14064" lon="4.69913">
        <ele>244</ele>
        <time>2020-06-25T14:39:59.000Z</time>
      </trkpt>
      <trkpt lat="46.14057" lon="4.69934">
        <ele>244</ele>
        <time>2020-06-25T14:40:02.000Z</time>
      </trkpt>
      <trkpt lat="46.14048" lon="4.69962">
        <ele>243.80000305176</ele>
        <time>2020-06-25T14:40:06.000Z</time>
      </trkpt>
      <trkpt lat="46.14037" lon="4.70002">
        <ele>243.39999389648</ele>
        <time>2020-06-25T14:40:15.000Z</time>
      </trkpt>
      <trkpt lat="46.14038" lon="4.70003">
        <ele>243.39999389648</ele>
        <time>2020-06-25T14:40:16.000Z</time>
      </trkpt>
      <trkpt lat="46.14035" lon="4.70023">
        <ele>244.80000305176</ele>
        <time>2020-06-25T14:40:26.000Z</time>
      </trkpt>
      <trkpt lat="46.14029" lon="4.70039">
        <ele>244.80000305176</ele>
        <time>2020-06-25T14:40:29.000Z</time>
      </trkpt>
      <trkpt lat="46.14023" lon="4.70054">
        <ele>244.60000610352</ele>
        <time>2020-06-25T14:40:31.000Z</time>
      </trkpt>
      <trkpt lat="46.14009" lon="4.70089">
        <ele>244.19999694824</ele>
        <time>2020-06-25T14:40:37.000Z</time>
      </trkpt>
      <trkpt lat="46.14002" lon="4.70116">
        <ele>243.80000305176</ele>
        <time>2020-06-25T14:40:42.000Z</time>
      </trkpt>
      <trkpt lat="46.13991" lon="4.70152">
        <ele>243.80000305176</ele>
        <time>2020-06-25T14:40:48.000Z</time>
      </trkpt>
      <trkpt lat="46.1399" lon="4.70157">
        <ele>243.80000305176</ele>
        <time>2020-06-25T14:40:49.000Z</time>
      </trkpt>
      <trkpt lat="46.13989" lon="4.70161">
        <ele>243.80000305176</ele>
        <time>2020-06-25T14:40:50.000Z</time>
      </trkpt>
      <trkpt lat="46.1399" lon="4.70165">
        <ele>243.80000305176</ele>
        <time>2020-06-25T14:40:51.000Z</time>
      </trkpt>
      <trkpt lat="46.13991" lon="4.70168">
        <ele>243.80000305176</ele>
        <time>2020-06-25T14:40:52.000Z</time>
      </trkpt>
      <trkpt lat="46.13993" lon="4.7017">
        <ele>244</ele>
        <time>2020-06-25T14:40:53.000Z</time>
      </trkpt>
      <trkpt lat="46.13996" lon="4.70172">
        <ele>244</ele>
        <time>2020-06-25T14:40:54.000Z</time>
      </trkpt>
      <trkpt lat="46.14019" lon="4.70197">
        <ele>244</ele>
        <time>2020-06-25T14:41:02.000Z</time>
      </trkpt>
      <trkpt lat="46.14048" lon="4.7022">
        <ele>242.60000610352</ele>
        <time>2020-06-25T14:41:11.000Z</time>
      </trkpt>
      <trkpt lat="46.14065" lon="4.70225">
        <ele>242.19999694824</ele>
        <time>2020-06-25T14:41:15.000Z</time>
      </trkpt>
      <trkpt lat="46.14075" lon="4.70224">
        <ele>242</ele>
        <time>2020-06-25T14:41:17.000Z</time>
      </trkpt>
      <trkpt lat="46.14123" lon="4.70202">
        <ele>239.19999694824</ele>
        <time>2020-06-25T14:41:26.000Z</time>
      </trkpt>
      <trkpt lat="46.14136" lon="4.70198">
        <ele>238.39999389648</ele>
        <time>2020-06-25T14:41:29.000Z</time>
      </trkpt>
      <trkpt lat="46.1417" lon="4.70214">
        <ele>237.39999389648</ele>
        <time>2020-06-25T14:41:36.000Z</time>
      </trkpt>
      <trkpt lat="46.14204" lon="4.70217">
        <ele>235.80000305176</ele>
        <time>2020-06-25T14:41:46.000Z</time>
      </trkpt>
      <trkpt lat="46.14207" lon="4.70218">
        <ele>235.39999389648</ele>
        <time>2020-06-25T14:41:52.000Z</time>
      </trkpt>
      <trkpt lat="46.1422" lon="4.70214">
        <ele>235.19999694824</ele>
        <time>2020-06-25T14:41:58.000Z</time>
      </trkpt>
      <trkpt lat="46.14224" lon="4.70215">
        <ele>235.19999694824</ele>
        <time>2020-06-25T14:41:59.000Z</time>
      </trkpt>
      <trkpt lat="46.14303" lon="4.7024">
        <ele>232.39999389648</ele>
        <time>2020-06-25T14:42:15.000Z</time>
      </trkpt>
      <trkpt lat="46.14308" lon="4.70247">
        <ele>232.19999694824</ele>
        <time>2020-06-25T14:42:17.000Z</time>
      </trkpt>
      <trkpt lat="46.14309" lon="4.70326">
        <ele>230</ele>
        <time>2020-06-25T14:42:28.000Z</time>
      </trkpt>
      <trkpt lat="46.14309" lon="4.7033">
        <ele>229.80000305176</ele>
        <time>2020-06-25T14:42:29.000Z</time>
      </trkpt>
      <trkpt lat="46.14319" lon="4.70342">
        <ele>229.39999389648</ele>
        <time>2020-06-25T14:42:33.000Z</time>
      </trkpt>
      <trkpt lat="46.14324" lon="4.70367">
        <ele>229</ele>
        <time>2020-06-25T14:42:37.000Z</time>
      </trkpt>
      <trkpt lat="46.14323" lon="4.704">
        <ele>228.60000610352</ele>
        <time>2020-06-25T14:42:41.000Z</time>
      </trkpt>
      <trkpt lat="46.14324" lon="4.70497">
        <ele>225.60000610352</ele>
        <time>2020-06-25T14:42:52.000Z</time>
      </trkpt>
      <trkpt lat="46.14324" lon="4.70564">
        <ele>224</ele>
        <time>2020-06-25T14:43:00.000Z</time>
      </trkpt>
      <trkpt lat="46.14348" lon="4.70594">
        <ele>223.80000305176</ele>
        <time>2020-06-25T14:43:08.000Z</time>
      </trkpt>
      <trkpt lat="46.14418" lon="4.70568">
        <ele>223.80000305176</ele>
        <time>2020-06-25T14:43:21.000Z</time>
      </trkpt>
      <trkpt lat="46.14442" lon="4.70581">
        <ele>223.80000305176</ele>
        <time>2020-06-25T14:43:26.000Z</time>
      </trkpt>
      <trkpt lat="46.14515" lon="4.70682">
        <ele>221</ele>
        <time>2020-06-25T14:43:42.000Z</time>
      </trkpt>
      <trkpt lat="46.14533" lon="4.70704">
        <ele>220.80000305176</ele>
        <time>2020-06-25T14:43:46.000Z</time>
      </trkpt>
      <trkpt lat="46.14543" lon="4.70724">
        <ele>220.60000610352</ele>
        <time>2020-06-25T14:43:49.000Z</time>
      </trkpt>
      <trkpt lat="46.14575" lon="4.70788">
        <ele>219.60000610352</ele>
        <time>2020-06-25T14:43:59.000Z</time>
      </trkpt>
      <trkpt lat="46.14583" lon="4.70797">
        <ele>219.39999389648</ele>
        <time>2020-06-25T14:44:01.000Z</time>
      </trkpt>
      <trkpt lat="46.14595" lon="4.7081">
        <ele>219.39999389648</ele>
        <time>2020-06-25T14:44:04.000Z</time>
      </trkpt>
      <trkpt lat="46.14618" lon="4.70871">
        <ele>219.19999694824</ele>
        <time>2020-06-25T14:44:14.000Z</time>
      </trkpt>
      <trkpt lat="46.14628" lon="4.70889">
        <ele>219</ele>
        <time>2020-06-25T14:44:17.000Z</time>
      </trkpt>
      <trkpt lat="46.14634" lon="4.70906">
        <ele>218.80000305176</ele>
        <time>2020-06-25T14:44:20.000Z</time>
      </trkpt>
      <trkpt lat="46.14644" lon="4.70927">
        <ele>218.80000305176</ele>
        <time>2020-06-25T14:44:25.000Z</time>
      </trkpt>
      <trkpt lat="46.14641" lon="4.70946">
        <ele>219.19999694824</ele>
        <time>2020-06-25T14:44:37.000Z</time>
      </trkpt>
      <trkpt lat="46.14629" lon="4.70946">
        <ele>219.39999389648</ele>
        <time>2020-06-25T14:45:28.000Z</time>
      </trkpt>
      <trkpt lat="46.14605" lon="4.70955">
        <ele>219.39999389648</ele>
        <time>2020-06-25T14:45:36.000Z</time>
      </trkpt>
      <trkpt lat="46.14604" lon="4.70983">
        <ele>220.60000610352</ele>
        <time>2020-06-25T14:45:49.000Z</time>
      </trkpt>
      <trkpt lat="46.14604" lon="4.70983">
        <ele>220.80000305176</ele>
        <time>2020-06-25T14:45:50.000Z</time>
      </trkpt>
      <trkpt lat="46.14605" lon="4.70969">
        <ele>221</ele>
        <time>2020-06-25T14:46:00.000Z</time>
      </trkpt>
      <trkpt lat="46.14604" lon="4.70965">
        <ele>221.19999694824</ele>
        <time>2020-06-25T14:46:01.000Z</time>
      </trkpt>
      <trkpt lat="46.14615" lon="4.70951">
        <ele>221.19999694824</ele>
        <time>2020-06-25T14:46:07.000Z</time>
      </trkpt>
      <trkpt lat="46.14647" lon="4.70948">
        <ele>220.39999389648</ele>
        <time>2020-06-25T14:46:17.000Z</time>
      </trkpt>
      <trkpt lat="46.14667" lon="4.70975">
        <ele>219.39999389648</ele>
        <time>2020-06-25T14:46:23.000Z</time>
      </trkpt>
      <trkpt lat="46.14688" lon="4.71022">
        <ele>217.80000305176</ele>
        <time>2020-06-25T14:46:30.000Z</time>
      </trkpt>
      <trkpt lat="46.14701" lon="4.71129">
        <ele>216.39999389648</ele>
        <time>2020-06-25T14:46:43.000Z</time>
      </trkpt>
      <trkpt lat="46.14718" lon="4.71253">
        <ele>215.80000305176</ele>
        <time>2020-06-25T14:46:58.000Z</time>
      </trkpt>
      <trkpt lat="46.14745" lon="4.71365">
        <ele>215.60000610352</ele>
        <time>2020-06-25T14:47:13.000Z</time>
      </trkpt>
      <trkpt lat="46.1477" lon="4.71496">
        <ele>214.39999389648</ele>
        <time>2020-06-25T14:47:29.000Z</time>
      </trkpt>
      <trkpt lat="46.14779" lon="4.71609">
        <ele>213.60000610352</ele>
        <time>2020-06-25T14:47:41.000Z</time>
      </trkpt>
      <trkpt lat="46.14782" lon="4.71622">
        <ele>211.80000305176</ele>
        <time>2020-06-25T14:47:44.000Z</time>
      </trkpt>
      <trkpt lat="46.14827" lon="4.71642">
        <ele>210.80000305176</ele>
        <time>2020-06-25T14:47:53.000Z</time>
      </trkpt>
      <trkpt lat="46.14848" lon="4.71651">
        <ele>210.39999389648</ele>
        <time>2020-06-25T14:47:57.000Z</time>
      </trkpt>
      <trkpt lat="46.14873" lon="4.71674">
        <ele>210</ele>
        <time>2020-06-25T14:48:02.000Z</time>
      </trkpt>
      <trkpt lat="46.14902" lon="4.71685">
        <ele>209.80000305176</ele>
        <time>2020-06-25T14:48:07.000Z</time>
      </trkpt>
      <trkpt lat="46.14971" lon="4.71694">
        <ele>211.39999389648</ele>
        <time>2020-06-25T14:48:19.000Z</time>
      </trkpt>
      <trkpt lat="46.1501" lon="4.7174">
        <ele>214.80000305176</ele>
        <time>2020-06-25T14:48:28.000Z</time>
      </trkpt>
      <trkpt lat="46.15024" lon="4.71766">
        <ele>215.60000610352</ele>
        <time>2020-06-25T14:48:32.000Z</time>
      </trkpt>
      <trkpt lat="46.15065" lon="4.71841">
        <ele>218</ele>
        <time>2020-06-25T14:48:44.000Z</time>
      </trkpt>
      <trkpt lat="46.15102" lon="4.71904">
        <ele>219.19999694824</ele>
        <time>2020-06-25T14:48:54.000Z</time>
      </trkpt>
      <trkpt lat="46.15146" lon="4.71941">
        <ele>220.19999694824</ele>
        <time>2020-06-25T14:49:05.000Z</time>
      </trkpt>
      <trkpt lat="46.15141" lon="4.7199">
        <ele>221.19999694824</ele>
        <time>2020-06-25T14:49:14.000Z</time>
      </trkpt>
      <trkpt lat="46.15154" lon="4.71995">
        <ele>221.60000610352</ele>
        <time>2020-06-25T14:49:18.000Z</time>
      </trkpt>
      <trkpt lat="46.15256" lon="4.71978">
        <ele>221.19999694824</ele>
        <time>2020-06-25T14:49:35.000Z</time>
      </trkpt>
      <trkpt lat="46.15275" lon="4.71976">
        <ele>221</ele>
        <time>2020-06-25T14:49:38.000Z</time>
      </trkpt>
      <trkpt lat="46.15299" lon="4.71977">
        <ele>221</ele>
        <time>2020-06-25T14:49:44.000Z</time>
      </trkpt>
      <trkpt lat="46.15296" lon="4.71969">
        <ele>222.19999694824</ele>
        <time>2020-06-25T14:49:51.000Z</time>
      </trkpt>
      <trkpt lat="46.15281" lon="4.71971">
        <ele>222.39999389648</ele>
        <time>2020-06-25T14:49:56.000Z</time>
      </trkpt>
      <trkpt lat="46.15273" lon="4.71969">
        <ele>222.39999389648</ele>
        <time>2020-06-25T14:49:58.000Z</time>
      </trkpt>
      <trkpt lat="46.15272" lon="4.71943">
        <ele>222.60000610352</ele>
        <time>2020-06-25T14:50:03.000Z</time>
      </trkpt>
      <trkpt lat="46.15313" lon="4.71827">
        <ele>223.19999694824</ele>
        <time>2020-06-25T14:50:19.000Z</time>
      </trkpt>
      <trkpt lat="46.1534" lon="4.71788">
        <ele>224.19999694824</ele>
        <time>2020-06-25T14:50:26.000Z</time>
      </trkpt>
      <trkpt lat="46.15372" lon="4.71713">
        <ele>225.39999389648</ele>
        <time>2020-06-25T14:50:38.000Z</time>
      </trkpt>
      <trkpt lat="46.15386" lon="4.71698">
        <ele>225.80000305176</ele>
        <time>2020-06-25T14:50:42.000Z</time>
      </trkpt>
      <trkpt lat="46.15411" lon="4.7165">
        <ele>226</ele>
        <time>2020-06-25T14:50:51.000Z</time>
      </trkpt>
      <trkpt lat="46.15423" lon="4.71584">
        <ele>226.19999694824</ele>
        <time>2020-06-25T14:50:59.000Z</time>
      </trkpt>
      <trkpt lat="46.15426" lon="4.71567">
        <ele>226.19999694824</ele>
        <time>2020-06-25T14:51:01.000Z</time>
      </trkpt>
      <trkpt lat="46.15466" lon="4.7147">
        <ele>226.60000610352</ele>
        <time>2020-06-25T14:51:14.000Z</time>
      </trkpt>
      <trkpt lat="46.15459" lon="4.71425">
        <ele>226.60000610352</ele>
        <time>2020-06-25T14:51:20.000Z</time>
      </trkpt>
      <trkpt lat="46.15441" lon="4.71391">
        <ele>226.60000610352</ele>
        <time>2020-06-25T14:51:25.000Z</time>
      </trkpt>
      <trkpt lat="46.15434" lon="4.71346">
        <ele>226.80000305176</ele>
        <time>2020-06-25T14:51:31.000Z</time>
      </trkpt>
      <trkpt lat="46.15435" lon="4.71325">
        <ele>226.80000305176</ele>
        <time>2020-06-25T14:51:35.000Z</time>
      </trkpt>
      <trkpt lat="46.15443" lon="4.71327">
        <ele>227.39999389648</ele>
        <time>2020-06-25T14:51:39.000Z</time>
      </trkpt>
      <trkpt lat="46.1548" lon="4.71341">
        <ele>228.39999389648</ele>
        <time>2020-06-25T14:51:47.000Z</time>
      </trkpt>
      <trkpt lat="46.15538" lon="4.7136">
        <ele>228.39999389648</ele>
        <time>2020-06-25T14:51:58.000Z</time>
      </trkpt>
      <trkpt lat="46.1559" lon="4.71382">
        <ele>228.39999389648</ele>
        <time>2020-06-25T14:52:08.000Z</time>
      </trkpt>
      <trkpt lat="46.15608" lon="4.71397">
        <ele>228.60000610352</ele>
        <time>2020-06-25T14:52:12.000Z</time>
      </trkpt>
      <trkpt lat="46.15659" lon="4.71462">
        <ele>228.60000610352</ele>
        <time>2020-06-25T14:52:24.000Z</time>
      </trkpt>
      <trkpt lat="46.15663" lon="4.715">
        <ele>228.60000610352</ele>
        <time>2020-06-25T14:52:30.000Z</time>
      </trkpt>
      <trkpt lat="46.15646" lon="4.71552">
        <ele>228.19999694824</ele>
        <time>2020-06-25T14:52:37.000Z</time>
      </trkpt>
      <trkpt lat="46.15653" lon="4.71593">
        <ele>228</ele>
        <time>2020-06-25T14:52:43.000Z</time>
      </trkpt>
      <trkpt lat="46.15662" lon="4.7161">
        <ele>227.80000305176</ele>
        <time>2020-06-25T14:52:47.000Z</time>
      </trkpt>
      <trkpt lat="46.15668" lon="4.71638">
        <ele>228</ele>
        <time>2020-06-25T14:52:54.000Z</time>
      </trkpt>
      <trkpt lat="46.15673" lon="4.71638">
        <ele>228</ele>
        <time>2020-06-25T14:52:55.000Z</time>
      </trkpt>
      <trkpt lat="46.15768" lon="4.71637">
        <ele>228.19999694824</ele>
        <time>2020-06-25T14:53:11.000Z</time>
      </trkpt>
      <trkpt lat="46.15793" lon="4.71637">
        <ele>228</ele>
        <time>2020-06-25T14:53:15.000Z</time>
      </trkpt>
      <trkpt lat="46.15913" lon="4.71635">
        <ele>228.19999694824</ele>
        <time>2020-06-25T14:53:34.000Z</time>
      </trkpt>
      <trkpt lat="46.15988" lon="4.71633">
        <ele>229</ele>
        <time>2020-06-25T14:53:47.000Z</time>
      </trkpt>
      <trkpt lat="46.16071" lon="4.71632">
        <ele>229.80000305176</ele>
        <time>2020-06-25T14:54:02.000Z</time>
      </trkpt>
      <trkpt lat="46.16085" lon="4.71638">
        <ele>230.19999694824</ele>
        <time>2020-06-25T14:54:11.000Z</time>
      </trkpt>
      <trkpt lat="46.16085" lon="4.71638">
        <ele>230.60000610352</ele>
        <time>2020-06-25T14:54:13.000Z</time>
      </trkpt>
      <trkpt lat="46.16087" lon="4.71657">
        <ele>230.80000305176</ele>
        <time>2020-06-25T14:54:21.000Z</time>
      </trkpt>
      <trkpt lat="46.16087" lon="4.71664">
        <ele>230.80000305176</ele>
        <time>2020-06-25T14:54:22.000Z</time>
      </trkpt>
      <trkpt lat="46.16083" lon="4.71736">
        <ele>230</ele>
        <time>2020-06-25T14:54:31.000Z</time>
      </trkpt>
      <trkpt lat="46.16081" lon="4.71752">
        <ele>229.80000305176</ele>
        <time>2020-06-25T14:54:33.000Z</time>
      </trkpt>
      <trkpt lat="46.161" lon="4.71774">
        <ele>229.39999389648</ele>
        <time>2020-06-25T14:54:40.000Z</time>
      </trkpt>
      <trkpt lat="46.16106" lon="4.71774">
        <ele>229.39999389648</ele>
        <time>2020-06-25T14:54:41.000Z</time>
      </trkpt>
      <trkpt lat="46.16177" lon="4.71769">
        <ele>228.39999389648</ele>
        <time>2020-06-25T14:54:53.000Z</time>
      </trkpt>
      <trkpt lat="46.1624" lon="4.71808">
        <ele>226.19999694824</ele>
        <time>2020-06-25T14:55:04.000Z</time>
      </trkpt>
      <trkpt lat="46.16274" lon="4.71831">
        <ele>223.80000305176</ele>
        <time>2020-06-25T14:55:09.000Z</time>
      </trkpt>
      <trkpt lat="46.16316" lon="4.71808">
        <ele>220</ele>
        <time>2020-06-25T14:55:17.000Z</time>
      </trkpt>
      <trkpt lat="46.16327" lon="4.71783">
        <ele>219.39999389648</ele>
        <time>2020-06-25T14:55:20.000Z</time>
      </trkpt>
      <trkpt lat="46.16363" lon="4.71754">
        <ele>216</ele>
        <time>2020-06-25T14:55:28.000Z</time>
      </trkpt>
      <trkpt lat="46.16431" lon="4.71762">
        <ele>213.19999694824</ele>
        <time>2020-06-25T14:55:39.000Z</time>
      </trkpt>
      <trkpt lat="46.16442" lon="4.71763">
        <ele>212.80000305176</ele>
        <time>2020-06-25T14:55:41.000Z</time>
      </trkpt>
      <trkpt lat="46.16496" lon="4.71797">
        <ele>212.39999389648</ele>
        <time>2020-06-25T14:55:52.000Z</time>
      </trkpt>
      <trkpt lat="46.16518" lon="4.71811">
        <ele>212.60000610352</ele>
        <time>2020-06-25T14:55:59.000Z</time>
      </trkpt>
      <trkpt lat="46.16519" lon="4.71827">
        <ele>213</ele>
        <time>2020-06-25T14:56:04.000Z</time>
      </trkpt>
      <trkpt lat="46.16518" lon="4.71832">
        <ele>213.39999389648</ele>
        <time>2020-06-25T14:56:06.000Z</time>
      </trkpt>
      <trkpt lat="46.1652" lon="4.7182">
        <ele>213.80000305176</ele>
        <time>2020-06-25T14:56:13.000Z</time>
      </trkpt>
      <trkpt lat="46.16521" lon="4.71813">
        <ele>213.80000305176</ele>
        <time>2020-06-25T14:56:15.000Z</time>
      </trkpt>
      <trkpt lat="46.16528" lon="4.7177">
        <ele>213.80000305176</ele>
        <time>2020-06-25T14:56:28.000Z</time>
      </trkpt>
      <trkpt lat="46.16547" lon="4.71672">
        <ele>213.19999694824</ele>
        <time>2020-06-25T14:56:40.000Z</time>
      </trkpt>
      <trkpt lat="46.16562" lon="4.71637">
        <ele>213.19999694824</ele>
        <time>2020-06-25T14:56:45.000Z</time>
      </trkpt>
      <trkpt lat="46.16599" lon="4.71565">
        <ele>216.60000610352</ele>
        <time>2020-06-25T14:56:58.000Z</time>
      </trkpt>
      <trkpt lat="46.16607" lon="4.71543">
        <ele>219.19999694824</ele>
        <time>2020-06-25T14:57:02.000Z</time>
      </trkpt>
      <trkpt lat="46.16611" lon="4.71532">
        <ele>221</ele>
        <time>2020-06-25T14:57:04.000Z</time>
      </trkpt>
      <trkpt lat="46.16615" lon="4.71514">
        <ele>222.60000610352</ele>
        <time>2020-06-25T14:57:07.000Z</time>
      </trkpt>
      <trkpt lat="46.16623" lon="4.71459">
        <ele>226</ele>
        <time>2020-06-25T14:57:16.000Z</time>
      </trkpt>
      <trkpt lat="46.16628" lon="4.71434">
        <ele>227.39999389648</ele>
        <time>2020-06-25T14:57:21.000Z</time>
      </trkpt>
      <trkpt lat="46.16643" lon="4.71432">
        <ele>229.19999694824</ele>
        <time>2020-06-25T14:57:26.000Z</time>
      </trkpt>
      <trkpt lat="46.16658" lon="4.71438">
        <ele>230.39999389648</ele>
        <time>2020-06-25T14:57:31.000Z</time>
      </trkpt>
      <trkpt lat="46.16661" lon="4.71479">
        <ele>234.19999694824</ele>
        <time>2020-06-25T14:57:39.000Z</time>
      </trkpt>
      <trkpt lat="46.16671" lon="4.7156">
        <ele>235.19999694824</ele>
        <time>2020-06-25T14:57:53.000Z</time>
      </trkpt>
      <trkpt lat="46.16686" lon="4.71566">
        <ele>235.19999694824</ele>
        <time>2020-06-25T14:57:58.000Z</time>
      </trkpt>
      <trkpt lat="46.16762" lon="4.7155">
        <ele>238.19999694824</ele>
        <time>2020-06-25T14:58:15.000Z</time>
      </trkpt>
      <trkpt lat="46.16796" lon="4.71515">
        <ele>240</ele>
        <time>2020-06-25T14:58:24.000Z</time>
      </trkpt>
      <trkpt lat="46.16808" lon="4.71496">
        <ele>240.80000305176</ele>
        <time>2020-06-25T14:58:28.000Z</time>
      </trkpt>
      <trkpt lat="46.16812" lon="4.71492">
        <ele>241.19999694824</ele>
        <time>2020-06-25T14:58:29.000Z</time>
      </trkpt>
      <trkpt lat="46.16857" lon="4.7143">
        <ele>244.19999694824</ele>
        <time>2020-06-25T14:58:44.000Z</time>
      </trkpt>
      <trkpt lat="46.1686" lon="4.71428">
        <ele>244.39999389648</ele>
        <time>2020-06-25T14:58:45.000Z</time>
      </trkpt>
      <trkpt lat="46.16863" lon="4.71428">
        <ele>244.60000610352</ele>
        <time>2020-06-25T14:58:46.000Z</time>
      </trkpt>
      <trkpt lat="46.16866" lon="4.71428">
        <ele>244.80000305176</ele>
        <time>2020-06-25T14:58:47.000Z</time>
      </trkpt>
      <trkpt lat="46.1687" lon="4.71428">
        <ele>244.80000305176</ele>
        <time>2020-06-25T14:58:48.000Z</time>
      </trkpt>
      <trkpt lat="46.16874" lon="4.71427">
        <ele>245</ele>
        <time>2020-06-25T14:58:49.000Z</time>
      </trkpt>
      <trkpt lat="46.16924" lon="4.71421">
        <ele>245.19999694824</ele>
        <time>2020-06-25T14:58:59.000Z</time>
      </trkpt>
      <trkpt lat="46.16928" lon="4.71423">
        <ele>245</ele>
        <time>2020-06-25T14:59:00.000Z</time>
      </trkpt>
      <trkpt lat="46.16932" lon="4.71427">
        <ele>244.80000305176</ele>
        <time>2020-06-25T14:59:01.000Z</time>
      </trkpt>
      <trkpt lat="46.16936" lon="4.71441">
        <ele>244.60000610352</ele>
        <time>2020-06-25T14:59:03.000Z</time>
      </trkpt>
      <trkpt lat="46.16949" lon="4.71515">
        <ele>241.19999694824</ele>
        <time>2020-06-25T14:59:12.000Z</time>
      </trkpt>
      <trkpt lat="46.1695" lon="4.71522">
        <ele>241.19999694824</ele>
        <time>2020-06-25T14:59:13.000Z</time>
      </trkpt>
      <trkpt lat="46.16955" lon="4.71554">
        <ele>238.19999694824</ele>
        <time>2020-06-25T14:59:17.000Z</time>
      </trkpt>
      <trkpt lat="46.16956" lon="4.71564">
        <ele>238.19999694824</ele>
        <time>2020-06-25T14:59:18.000Z</time>
      </trkpt>
      <trkpt lat="46.16969" lon="4.71649">
        <ele>234.60000610352</ele>
        <time>2020-06-25T14:59:25.000Z</time>
      </trkpt>
      <trkpt lat="46.16978" lon="4.71705">
        <ele>230.19999694824</ele>
        <time>2020-06-25T14:59:29.000Z</time>
      </trkpt>
      <trkpt lat="46.16985" lon="4.71755">
        <ele>226.60000610352</ele>
        <time>2020-06-25T14:59:33.000Z</time>
      </trkpt>
      <trkpt lat="46.16992" lon="4.71797">
        <ele>223.19999694824</ele>
        <time>2020-06-25T14:59:38.000Z</time>
      </trkpt>
      <trkpt lat="46.17007" lon="4.71791">
        <ele>222.60000610352</ele>
        <time>2020-06-25T14:59:43.000Z</time>
      </trkpt>
      <trkpt lat="46.17018" lon="4.71771">
        <ele>222.60000610352</ele>
        <time>2020-06-25T14:59:46.000Z</time>
      </trkpt>
      <trkpt lat="46.17055" lon="4.71723">
        <ele>223</ele>
        <time>2020-06-25T14:59:55.000Z</time>
      </trkpt>
      <trkpt lat="46.17077" lon="4.71701">
        <ele>223.60000610352</ele>
        <time>2020-06-25T15:00:00.000Z</time>
      </trkpt>
      <trkpt lat="46.17098" lon="4.71687">
        <ele>224</ele>
        <time>2020-06-25T15:00:05.000Z</time>
      </trkpt>
      <trkpt lat="46.17139" lon="4.71658">
        <ele>225</ele>
        <time>2020-06-25T15:00:14.000Z</time>
      </trkpt>
      <trkpt lat="46.17197" lon="4.71635">
        <ele>225</ele>
        <time>2020-06-25T15:00:24.000Z</time>
      </trkpt>
      <trkpt lat="46.17208" lon="4.71629">
        <ele>224.80000305176</ele>
        <time>2020-06-25T15:00:26.000Z</time>
      </trkpt>
      <trkpt lat="46.17219" lon="4.71624">
        <ele>224.80000305176</ele>
        <time>2020-06-25T15:00:28.000Z</time>
      </trkpt>
      <trkpt lat="46.17265" lon="4.716">
        <ele>224.39999389648</ele>
        <time>2020-06-25T15:00:36.000Z</time>
      </trkpt>
      <trkpt lat="46.17336" lon="4.71608">
        <ele>224</ele>
        <time>2020-06-25T15:00:47.000Z</time>
      </trkpt>
      <trkpt lat="46.17412" lon="4.71667">
        <ele>220.80000305176</ele>
        <time>2020-06-25T15:00:59.000Z</time>
      </trkpt>
      <trkpt lat="46.17465" lon="4.71728">
        <ele>218.39999389648</ele>
        <time>2020-06-25T15:01:07.000Z</time>
      </trkpt>
      <trkpt lat="46.17494" lon="4.71799">
        <ele>216.39999389648</ele>
        <time>2020-06-25T15:01:13.000Z</time>
      </trkpt>
      <trkpt lat="46.17517" lon="4.71841">
        <ele>214.19999694824</ele>
        <time>2020-06-25T15:01:17.000Z</time>
      </trkpt>
      <trkpt lat="46.17574" lon="4.71911">
        <ele>211.19999694824</ele>
        <time>2020-06-25T15:01:27.000Z</time>
      </trkpt>
      <trkpt lat="46.17582" lon="4.71922">
        <ele>210.80000305176</ele>
        <time>2020-06-25T15:01:35.000Z</time>
      </trkpt>
      <trkpt lat="46.17591" lon="4.71933">
        <ele>211.60000610352</ele>
        <time>2020-06-25T15:01:42.000Z</time>
      </trkpt>
      <trkpt lat="46.1763" lon="4.71985">
        <ele>211</ele>
        <time>2020-06-25T15:01:51.000Z</time>
      </trkpt>
      <trkpt lat="46.17749" lon="4.72067">
        <ele>210.60000610352</ele>
        <time>2020-06-25T15:02:12.000Z</time>
      </trkpt>
      <trkpt lat="46.17777" lon="4.72088">
        <ele>210.60000610352</ele>
        <time>2020-06-25T15:02:17.000Z</time>
      </trkpt>
      <trkpt lat="46.17831" lon="4.72134">
        <ele>211.39999389648</ele>
        <time>2020-06-25T15:02:28.000Z</time>
      </trkpt>
      <trkpt lat="46.17859" lon="4.72176">
        <ele>212.80000305176</ele>
        <time>2020-06-25T15:02:35.000Z</time>
      </trkpt>
      <trkpt lat="46.17873" lon="4.72209">
        <ele>214.80000305176</ele>
        <time>2020-06-25T15:02:40.000Z</time>
      </trkpt>
      <trkpt lat="46.17884" lon="4.72235">
        <ele>217</ele>
        <time>2020-06-25T15:02:44.000Z</time>
      </trkpt>
      <trkpt lat="46.17886" lon="4.72241">
        <ele>217.80000305176</ele>
        <time>2020-06-25T15:02:45.000Z</time>
      </trkpt>
      <trkpt lat="46.17879" lon="4.72334">
        <ele>220</ele>
        <time>2020-06-25T15:02:57.000Z</time>
      </trkpt>
      <trkpt lat="46.17871" lon="4.72477">
        <ele>221.39999389648</ele>
        <time>2020-06-25T15:03:15.000Z</time>
      </trkpt>
      <trkpt lat="46.17874" lon="4.72525">
        <ele>221.60000610352</ele>
        <time>2020-06-25T15:03:21.000Z</time>
      </trkpt>
      <trkpt lat="46.17916" lon="4.72593">
        <ele>221.80000305176</ele>
        <time>2020-06-25T15:03:32.000Z</time>
      </trkpt>
      <trkpt lat="46.17947" lon="4.72632">
        <ele>222.60000610352</ele>
        <time>2020-06-25T15:03:43.000Z</time>
      </trkpt>
      <trkpt lat="46.17949" lon="4.72635">
        <ele>222.60000610352</ele>
        <time>2020-06-25T15:03:44.000Z</time>
      </trkpt>
      <trkpt lat="46.17973" lon="4.72666">
        <ele>223</ele>
        <time>2020-06-25T15:03:50.000Z</time>
      </trkpt>
      <trkpt lat="46.18049" lon="4.72774">
        <ele>222.60000610352</ele>
        <time>2020-06-25T15:04:07.000Z</time>
      </trkpt>
      <trkpt lat="46.18127" lon="4.72872">
        <ele>222.60000610352</ele>
        <time>2020-06-25T15:04:24.000Z</time>
      </trkpt>
      <trkpt lat="46.18223" lon="4.72929">
        <ele>223.39999389648</ele>
        <time>2020-06-25T15:04:41.000Z</time>
      </trkpt>
      <trkpt lat="46.18266" lon="4.72959">
        <ele>223.39999389648</ele>
        <time>2020-06-25T15:04:49.000Z</time>
      </trkpt>
      <trkpt lat="46.18341" lon="4.72962">
        <ele>224</ele>
        <time>2020-06-25T15:05:02.000Z</time>
      </trkpt>
      <trkpt lat="46.18377" lon="4.72956">
        <ele>223.19999694824</ele>
        <time>2020-06-25T15:05:08.000Z</time>
      </trkpt>
      <trkpt lat="46.18391" lon="4.72946">
        <ele>222</ele>
        <time>2020-06-25T15:05:11.000Z</time>
      </trkpt>
      <trkpt lat="46.18414" lon="4.72912">
        <ele>220.60000610352</ele>
        <time>2020-06-25T15:05:17.000Z</time>
      </trkpt>
      <trkpt lat="46.18448" lon="4.729">
        <ele>217</ele>
        <time>2020-06-25T15:05:24.000Z</time>
      </trkpt>
      <trkpt lat="46.18451" lon="4.72904">
        <ele>216.80000305176</ele>
        <time>2020-06-25T15:05:25.000Z</time>
      </trkpt>
      <trkpt lat="46.18453" lon="4.7291">
        <ele>216.39999389648</ele>
        <time>2020-06-25T15:05:26.000Z</time>
      </trkpt>
      <trkpt lat="46.185" lon="4.73044">
        <ele>214</ele>
        <time>2020-06-25T15:05:44.000Z</time>
      </trkpt>
      <trkpt lat="46.18524" lon="4.73114">
        <ele>214.60000610352</ele>
        <time>2020-06-25T15:05:57.000Z</time>
      </trkpt>
      <trkpt lat="46.18524" lon="4.73114">
        <ele>215.19999694824</ele>
        <time>2020-06-25T15:06:00.000Z</time>
      </trkpt>
      <trkpt lat="46.18521" lon="4.73119">
        <ele>217.39999389648</ele>
        <time>2020-06-25T15:06:33.000Z</time>
      </trkpt>
      <trkpt lat="46.18517" lon="4.73189">
        <ele>216.60000610352</ele>
        <time>2020-06-25T15:06:44.000Z</time>
      </trkpt>
      <trkpt lat="46.18515" lon="4.73298">
        <ele>214.60000610352</ele>
        <time>2020-06-25T15:06:58.000Z</time>
      </trkpt>
      <trkpt lat="46.18513" lon="4.73326">
        <ele>214.19999694824</ele>
        <time>2020-06-25T15:07:08.000Z</time>
      </trkpt>
      <trkpt lat="46.18513" lon="4.73326">
        <ele>214.19999694824</ele>
        <time>2020-06-25T15:07:09.000Z</time>
      </trkpt>
      <trkpt lat="46.18506" lon="4.73322">
        <ele>215</ele>
        <time>2020-06-25T15:07:18.000Z</time>
      </trkpt>
      <trkpt lat="46.18503" lon="4.7332">
        <ele>215</ele>
        <time>2020-06-25T15:07:19.000Z</time>
      </trkpt>
      <trkpt lat="46.18499" lon="4.73318">
        <ele>215</ele>
        <time>2020-06-25T15:07:20.000Z</time>
      </trkpt>
      <trkpt lat="46.18491" lon="4.73315">
        <ele>215</ele>
        <time>2020-06-25T15:07:22.000Z</time>
      </trkpt>
      <trkpt lat="46.18487" lon="4.73314">
        <ele>215</ele>
        <time>2020-06-25T15:07:23.000Z</time>
      </trkpt>
      <trkpt lat="46.18482" lon="4.73315">
        <ele>214.80000305176</ele>
        <time>2020-06-25T15:07:24.000Z</time>
      </trkpt>
      <trkpt lat="46.18478" lon="4.73316">
        <ele>214.80000305176</ele>
        <time>2020-06-25T15:07:25.000Z</time>
      </trkpt>
      <trkpt lat="46.18474" lon="4.73318">
        <ele>214.60000610352</ele>
        <time>2020-06-25T15:07:26.000Z</time>
      </trkpt>
      <trkpt lat="46.18437" lon="4.73316">
        <ele>211.19999694824</ele>
        <time>2020-06-25T15:07:36.000Z</time>
      </trkpt>
      <trkpt lat="46.18428" lon="4.73313">
        <ele>210.60000610352</ele>
        <time>2020-06-25T15:07:38.000Z</time>
      </trkpt>
      <trkpt lat="46.1841" lon="4.73304">
        <ele>210.19999694824</ele>
        <time>2020-06-25T15:07:42.000Z</time>
      </trkpt>
      <trkpt lat="46.18377" lon="4.73306">
        <ele>209</ele>
        <time>2020-06-25T15:07:53.000Z</time>
      </trkpt>
      <trkpt lat="46.18365" lon="4.73352">
        <ele>209</ele>
        <time>2020-06-25T15:08:04.000Z</time>
      </trkpt>
      <trkpt lat="46.18377" lon="4.73365">
        <ele>208.19999694824</ele>
        <time>2020-06-25T15:08:10.000Z</time>
      </trkpt>
      <trkpt lat="46.18394" lon="4.73374">
        <ele>208</ele>
        <time>2020-06-25T15:08:14.000Z</time>
      </trkpt>
      <trkpt lat="46.18415" lon="4.73422">
        <ele>206.80000305176</ele>
        <time>2020-06-25T15:08:22.000Z</time>
      </trkpt>
      <trkpt lat="46.18398" lon="4.73476">
        <ele>206.19999694824</ele>
        <time>2020-06-25T15:08:30.000Z</time>
      </trkpt>
      <trkpt lat="46.18392" lon="4.73488">
        <ele>206</ele>
        <time>2020-06-25T15:08:32.000Z</time>
      </trkpt>
      <trkpt lat="46.18396" lon="4.73502">
        <ele>205.80000305176</ele>
        <time>2020-06-25T15:08:36.000Z</time>
      </trkpt>
      <trkpt lat="46.184" lon="4.73503">
        <ele>205.80000305176</ele>
        <time>2020-06-25T15:08:37.000Z</time>
      </trkpt>
      <trkpt lat="46.18405" lon="4.73504">
        <ele>206</ele>
        <time>2020-06-25T15:08:38.000Z</time>
      </trkpt>
      <trkpt lat="46.18478" lon="4.73516">
        <ele>206.80000305176</ele>
        <time>2020-06-25T15:08:51.000Z</time>
      </trkpt>
      <trkpt lat="46.18494" lon="4.73518">
        <ele>207.19999694824</ele>
        <time>2020-06-25T15:08:54.000Z</time>
      </trkpt>
      <trkpt lat="46.18536" lon="4.73534">
        <ele>210.39999389648</ele>
        <time>2020-06-25T15:09:06.000Z</time>
      </trkpt>
      <trkpt lat="46.18564" lon="4.73534">
        <ele>212</ele>
        <time>2020-06-25T15:09:13.000Z</time>
      </trkpt>
      <trkpt lat="46.18568" lon="4.73535">
        <ele>212.19999694824</ele>
        <time>2020-06-25T15:09:14.000Z</time>
      </trkpt>
      <trkpt lat="46.18601" lon="4.73552">
        <ele>213.19999694824</ele>
        <time>2020-06-25T15:09:22.000Z</time>
      </trkpt>
      <trkpt lat="46.18611" lon="4.73572">
        <ele>213.19999694824</ele>
        <time>2020-06-25T15:09:26.000Z</time>
      </trkpt>
      <trkpt lat="46.18614" lon="4.73593">
        <ele>213.19999694824</ele>
        <time>2020-06-25T15:09:29.000Z</time>
      </trkpt>
      <trkpt lat="46.18612" lon="4.7362">
        <ele>213.19999694824</ele>
        <time>2020-06-25T15:09:32.000Z</time>
      </trkpt>
      <trkpt lat="46.18594" lon="4.73712">
        <ele>210.19999694824</ele>
        <time>2020-06-25T15:09:42.000Z</time>
      </trkpt>
      <trkpt lat="46.18589" lon="4.73756">
        <ele>208.60000610352</ele>
        <time>2020-06-25T15:09:48.000Z</time>
      </trkpt>
      <trkpt lat="46.18588" lon="4.73792">
        <ele>207.80000305176</ele>
        <time>2020-06-25T15:09:53.000Z</time>
      </trkpt>
      <trkpt lat="46.18594" lon="4.73838">
        <ele>207.39999389648</ele>
        <time>2020-06-25T15:09:58.000Z</time>
      </trkpt>
      <trkpt lat="46.18604" lon="4.73876">
        <ele>207</ele>
        <time>2020-06-25T15:10:02.000Z</time>
      </trkpt>
      <trkpt lat="46.18609" lon="4.7392">
        <ele>205.60000610352</ele>
        <time>2020-06-25T15:10:07.000Z</time>
      </trkpt>
      <trkpt lat="46.18607" lon="4.73946">
        <ele>204.39999389648</ele>
        <time>2020-06-25T15:10:11.000Z</time>
      </trkpt>
      <trkpt lat="46.18598" lon="4.73983">
        <ele>203.60000610352</ele>
        <time>2020-06-25T15:10:19.000Z</time>
      </trkpt>
      <trkpt lat="46.18612" lon="4.73998">
        <ele>203.60000610352</ele>
        <time>2020-06-25T15:10:25.000Z</time>
      </trkpt>
      <trkpt lat="46.18627" lon="4.74">
        <ele>203.39999389648</ele>
        <time>2020-06-25T15:10:28.000Z</time>
      </trkpt>
      <trkpt lat="46.18655" lon="4.74003">
        <ele>203.19999694824</ele>
        <time>2020-06-25T15:10:33.000Z</time>
      </trkpt>
      <trkpt lat="46.18686" lon="4.74008">
        <ele>202.80000305176</ele>
        <time>2020-06-25T15:10:39.000Z</time>
      </trkpt>
      <trkpt lat="46.18683" lon="4.74037">
        <ele>201.60000610352</ele>
        <time>2020-06-25T15:10:46.000Z</time>
      </trkpt>
      <trkpt lat="46.18654" lon="4.74076">
        <ele>200.80000305176</ele>
        <time>2020-06-25T15:10:54.000Z</time>
      </trkpt>
      <trkpt lat="46.18638" lon="4.74098">
        <ele>200.60000610352</ele>
        <time>2020-06-25T15:11:02.000Z</time>
      </trkpt>
      <trkpt lat="46.18648" lon="4.74109">
        <ele>200.80000305176</ele>
        <time>2020-06-25T15:11:06.000Z</time>
      </trkpt>
      <trkpt lat="46.18722" lon="4.74146">
        <ele>199.60000610352</ele>
        <time>2020-06-25T15:11:20.000Z</time>
      </trkpt>
      <trkpt lat="46.18727" lon="4.74148">
        <ele>199.60000610352</ele>
        <time>2020-06-25T15:11:21.000Z</time>
      </trkpt>
      <trkpt lat="46.18736" lon="4.74149">
        <ele>199.39999389648</ele>
        <time>2020-06-25T15:11:23.000Z</time>
      </trkpt>
      <trkpt lat="46.1879" lon="4.74177">
        <ele>199.19999694824</ele>
        <time>2020-06-25T15:11:36.000Z</time>
      </trkpt>
      <trkpt lat="46.18792" lon="4.74177">
        <ele>199.39999389648</ele>
        <time>2020-06-25T15:11:37.000Z</time>
      </trkpt>
      <trkpt lat="46.1881" lon="4.74177">
        <ele>199.80000305176</ele>
        <time>2020-06-25T15:11:42.000Z</time>
      </trkpt>
      <trkpt lat="46.1889" lon="4.74195">
        <ele>199.19999694824</ele>
        <time>2020-06-25T15:11:56.000Z</time>
      </trkpt>
      <trkpt lat="46.18986" lon="4.74207">
        <ele>200.39999389648</ele>
        <time>2020-06-25T15:12:12.000Z</time>
      </trkpt>
      <trkpt lat="46.19109" lon="4.74217">
        <ele>200.19999694824</ele>
        <time>2020-06-25T15:12:32.000Z</time>
      </trkpt>
      <trkpt lat="46.19194" lon="4.74217">
        <ele>197.80000305176</ele>
        <time>2020-06-25T15:12:45.000Z</time>
      </trkpt>
      <trkpt lat="46.19199" lon="4.74215">
        <ele>197.39999389648</ele>
        <time>2020-06-25T15:12:46.000Z</time>
      </trkpt>
      <trkpt lat="46.19203" lon="4.74211">
        <ele>197</ele>
        <time>2020-06-25T15:12:47.000Z</time>
      </trkpt>
      <trkpt lat="46.19207" lon="4.74206">
        <ele>196.39999389648</ele>
        <time>2020-06-25T15:12:48.000Z</time>
      </trkpt>
      <trkpt lat="46.19211" lon="4.74199">
        <ele>196</ele>
        <time>2020-06-25T15:12:49.000Z</time>
      </trkpt>
      <trkpt lat="46.19214" lon="4.74192">
        <ele>195.80000305176</ele>
        <time>2020-06-25T15:12:50.000Z</time>
      </trkpt>
      <trkpt lat="46.19217" lon="4.74184">
        <ele>195.80000305176</ele>
        <time>2020-06-25T15:12:51.000Z</time>
      </trkpt>
      <trkpt lat="46.19223" lon="4.74159">
        <ele>195.39999389648</ele>
        <time>2020-06-25T15:12:54.000Z</time>
      </trkpt>
      <trkpt lat="46.19225" lon="4.7415">
        <ele>195.39999389648</ele>
        <time>2020-06-25T15:12:55.000Z</time>
      </trkpt>
      <trkpt lat="46.19221" lon="4.74098">
        <ele>195.60000610352</ele>
        <time>2020-06-25T15:13:01.000Z</time>
      </trkpt>
      <trkpt lat="46.19217" lon="4.74072">
        <ele>195.80000305176</ele>
        <time>2020-06-25T15:13:04.000Z</time>
      </trkpt>
      <trkpt lat="46.19213" lon="4.74046">
        <ele>196</ele>
        <time>2020-06-25T15:13:07.000Z</time>
      </trkpt>
      <trkpt lat="46.19213" lon="4.74015">
        <ele>196.19999694824</ele>
        <time>2020-06-25T15:13:11.000Z</time>
      </trkpt>
      <trkpt lat="46.19215" lon="4.73987">
        <ele>196.60000610352</ele>
        <time>2020-06-25T15:13:15.000Z</time>
      </trkpt>
      <trkpt lat="46.19216" lon="4.73981">
        <ele>197</ele>
        <time>2020-06-25T15:13:16.000Z</time>
      </trkpt>
      <trkpt lat="46.19217" lon="4.73977">
        <ele>197.19999694824</ele>
        <time>2020-06-25T15:13:17.000Z</time>
      </trkpt>
      <trkpt lat="46.19218" lon="4.73972">
        <ele>197.60000610352</ele>
        <time>2020-06-25T15:13:20.000Z</time>
      </trkpt>
      <trkpt lat="46.1922" lon="4.7397">
        <ele>197.80000305176</ele>
        <time>2020-06-25T15:13:21.000Z</time>
      </trkpt>
      <trkpt lat="46.19223" lon="4.7397">
        <ele>197.80000305176</ele>
        <time>2020-06-25T15:13:22.000Z</time>
      </trkpt>
      <trkpt lat="46.19226" lon="4.7397">
        <ele>197.80000305176</ele>
        <time>2020-06-25T15:13:23.000Z</time>
      </trkpt>
      <trkpt lat="46.19234" lon="4.73991">
        <ele>197.80000305176</ele>
        <time>2020-06-25T15:13:28.000Z</time>
      </trkpt>
      <trkpt lat="46.19228" lon="4.7404">
        <ele>197.39999389648</ele>
        <time>2020-06-25T15:13:34.000Z</time>
      </trkpt>
      <trkpt lat="46.19238" lon="4.74088">
        <ele>196</ele>
        <time>2020-06-25T15:13:40.000Z</time>
      </trkpt>
      <trkpt lat="46.19257" lon="4.74154">
        <ele>195</ele>
        <time>2020-06-25T15:13:48.000Z</time>
      </trkpt>
      <trkpt lat="46.19262" lon="4.74179">
        <ele>194.60000610352</ele>
        <time>2020-06-25T15:13:51.000Z</time>
      </trkpt>
      <trkpt lat="46.19265" lon="4.74186">
        <ele>194.60000610352</ele>
        <time>2020-06-25T15:13:52.000Z</time>
      </trkpt>
      <trkpt lat="46.19268" lon="4.74193">
        <ele>194.60000610352</ele>
        <time>2020-06-25T15:13:53.000Z</time>
      </trkpt>
      <trkpt lat="46.19276" lon="4.74205">
        <ele>194.39999389648</ele>
        <time>2020-06-25T15:13:55.000Z</time>
      </trkpt>
      <trkpt lat="46.19345" lon="4.74265">
        <ele>193.39999389648</ele>
        <time>2020-06-25T15:14:08.000Z</time>
      </trkpt>
      <trkpt lat="46.19388" lon="4.74301">
        <ele>192.80000305176</ele>
        <time>2020-06-25T15:14:16.000Z</time>
      </trkpt>
      <trkpt lat="46.19406" lon="4.74334">
        <ele>192.80000305176</ele>
        <time>2020-06-25T15:14:21.000Z</time>
      </trkpt>
      <trkpt lat="46.19412" lon="4.7436">
        <ele>192.60000610352</ele>
        <time>2020-06-25T15:14:24.000Z</time>
      </trkpt>
      <trkpt lat="46.19414" lon="4.74394">
        <ele>192.39999389648</ele>
        <time>2020-06-25T15:14:28.000Z</time>
      </trkpt>
      <trkpt lat="46.1941" lon="4.74411">
        <ele>192.19999694824</ele>
        <time>2020-06-25T15:14:30.000Z</time>
      </trkpt>
      <trkpt lat="46.19378" lon="4.74547">
        <ele>191.39999389648</ele>
        <time>2020-06-25T15:14:47.000Z</time>
      </trkpt>
      <trkpt lat="46.19373" lon="4.74573">
        <ele>191.39999389648</ele>
        <time>2020-06-25T15:14:50.000Z</time>
      </trkpt>
      <trkpt lat="46.19358" lon="4.74736">
        <ele>189.80000305176</ele>
        <time>2020-06-25T15:15:08.000Z</time>
      </trkpt>
      <trkpt lat="46.19357" lon="4.74783">
        <ele>189.60000610352</ele>
        <time>2020-06-25T15:15:13.000Z</time>
      </trkpt>
      <trkpt lat="46.19352" lon="4.74892">
        <ele>189</ele>
        <time>2020-06-25T15:15:25.000Z</time>
      </trkpt>
      <trkpt lat="46.19306" lon="4.75002">
        <ele>188.39999389648</ele>
        <time>2020-06-25T15:15:39.000Z</time>
      </trkpt>
      <trkpt lat="46.19264" lon="4.75126">
        <ele>187.60000610352</ele>
        <time>2020-06-25T15:15:54.000Z</time>
      </trkpt>
      <trkpt lat="46.19271" lon="4.75179">
        <ele>187.60000610352</ele>
        <time>2020-06-25T15:16:00.000Z</time>
      </trkpt>
      <trkpt lat="46.19281" lon="4.75307">
        <ele>187.19999694824</ele>
        <time>2020-06-25T15:16:14.000Z</time>
      </trkpt>
      <trkpt lat="46.19283" lon="4.75316">
        <ele>187.19999694824</ele>
        <time>2020-06-25T15:16:15.000Z</time>
      </trkpt>
      <trkpt lat="46.19285" lon="4.75454">
        <ele>185.39999389648</ele>
        <time>2020-06-25T15:16:30.000Z</time>
      </trkpt>
      <trkpt lat="46.19284" lon="4.75478">
        <ele>185.39999389648</ele>
        <time>2020-06-25T15:16:33.000Z</time>
      </trkpt>
      <trkpt lat="46.19295" lon="4.75508">
        <ele>186.39999389648</ele>
        <time>2020-06-25T15:16:38.000Z</time>
      </trkpt>
      <trkpt lat="46.19317" lon="4.75527">
        <ele>187.39999389648</ele>
        <time>2020-06-25T15:16:42.000Z</time>
      </trkpt>
      <trkpt lat="46.19395" lon="4.75607">
        <ele>187</ele>
        <time>2020-06-25T15:16:57.000Z</time>
      </trkpt>
      <trkpt lat="46.19406" lon="4.75616">
        <ele>187</ele>
        <time>2020-06-25T15:16:59.000Z</time>
      </trkpt>
      <trkpt lat="46.19498" lon="4.757">
        <ele>187.80000305176</ele>
        <time>2020-06-25T15:17:17.000Z</time>
      </trkpt>
      <trkpt lat="46.19534" lon="4.75731">
        <ele>188.60000610352</ele>
        <time>2020-06-25T15:17:24.000Z</time>
      </trkpt>
      <trkpt lat="46.19591" lon="4.75726">
        <ele>190</ele>
        <time>2020-06-25T15:17:35.000Z</time>
      </trkpt>
      <trkpt lat="46.196" lon="4.75724">
        <ele>190</ele>
        <time>2020-06-25T15:17:37.000Z</time>
      </trkpt>
      <trkpt lat="46.1961" lon="4.75724">
        <ele>190.19999694824</ele>
        <time>2020-06-25T15:17:39.000Z</time>
      </trkpt>
      <trkpt lat="46.19665" lon="4.75762">
        <ele>191.19999694824</ele>
        <time>2020-06-25T15:17:50.000Z</time>
      </trkpt>
      <trkpt lat="46.19674" lon="4.7577">
        <ele>191.19999694824</ele>
        <time>2020-06-25T15:17:52.000Z</time>
      </trkpt>
      <trkpt lat="46.19707" lon="4.7577">
        <ele>192.19999694824</ele>
        <time>2020-06-25T15:18:00.000Z</time>
      </trkpt>
      <trkpt lat="46.19715" lon="4.75759">
        <ele>192.19999694824</ele>
        <time>2020-06-25T15:18:02.000Z</time>
      </trkpt>
      <trkpt lat="46.19784" lon="4.7564">
        <ele>192.80000305176</ele>
        <time>2020-06-25T15:18:20.000Z</time>
      </trkpt>
      <trkpt lat="46.19854" lon="4.75529">
        <ele>193.19999694824</ele>
        <time>2020-06-25T15:18:37.000Z</time>
      </trkpt>
      <trkpt lat="46.19922" lon="4.75424">
        <ele>194.39999389648</ele>
        <time>2020-06-25T15:18:54.000Z</time>
      </trkpt>
      <trkpt lat="46.19957" lon="4.75306">
        <ele>194.39999389648</ele>
        <time>2020-06-25T15:19:09.000Z</time>
      </trkpt>
      <trkpt lat="46.19961" lon="4.75283">
        <ele>194.19999694824</ele>
        <time>2020-06-25T15:19:12.000Z</time>
      </trkpt>
      <trkpt lat="46.1997" lon="4.75146">
        <ele>193.19999694824</ele>
        <time>2020-06-25T15:19:28.000Z</time>
      </trkpt>
      <trkpt lat="46.19993" lon="4.7499">
        <ele>193.39999389648</ele>
        <time>2020-06-25T15:19:46.000Z</time>
      </trkpt>
      <trkpt lat="46.2002" lon="4.74817">
        <ele>194.60000610352</ele>
        <time>2020-06-25T15:20:06.000Z</time>
      </trkpt>
      <trkpt lat="46.20038" lon="4.74698">
        <ele>195</ele>
        <time>2020-06-25T15:20:20.000Z</time>
      </trkpt>
      <trkpt lat="46.20038" lon="4.74675">
        <ele>195</ele>
        <time>2020-06-25T15:20:23.000Z</time>
      </trkpt>
      <trkpt lat="46.20036" lon="4.74662">
        <ele>195</ele>
        <time>2020-06-25T15:20:25.000Z</time>
      </trkpt>
      <trkpt lat="46.20042" lon="4.74633">
        <ele>196</ele>
        <time>2020-06-25T15:20:33.000Z</time>
      </trkpt>
      <trkpt lat="46.20047" lon="4.74632">
        <ele>196</ele>
        <time>2020-06-25T15:20:34.000Z</time>
      </trkpt>
      <trkpt lat="46.20097" lon="4.74653">
        <ele>196.60000610352</ele>
        <time>2020-06-25T15:20:47.000Z</time>
      </trkpt>
      <trkpt lat="46.20109" lon="4.74657">
        <ele>196.60000610352</ele>
        <time>2020-06-25T15:20:50.000Z</time>
      </trkpt>
      <trkpt lat="46.20167" lon="4.74687">
        <ele>197.80000305176</ele>
        <time>2020-06-25T15:21:01.000Z</time>
      </trkpt>
      <trkpt lat="46.20196" lon="4.74696">
        <ele>198.39999389648</ele>
        <time>2020-06-25T15:21:06.000Z</time>
      </trkpt>
      <trkpt lat="46.20226" lon="4.74701">
        <ele>199.39999389648</ele>
        <time>2020-06-25T15:21:11.000Z</time>
      </trkpt>
      <trkpt lat="46.20237" lon="4.74701">
        <ele>199.80000305176</ele>
        <time>2020-06-25T15:21:13.000Z</time>
      </trkpt>
      <trkpt lat="46.20247" lon="4.74701">
        <ele>199.80000305176</ele>
        <time>2020-06-25T15:21:15.000Z</time>
      </trkpt>
      <trkpt lat="46.2027" lon="4.74696">
        <ele>200.39999389648</ele>
        <time>2020-06-25T15:21:20.000Z</time>
      </trkpt>
      <trkpt lat="46.20299" lon="4.74698">
        <ele>202.19999694824</ele>
        <time>2020-06-25T15:21:26.000Z</time>
      </trkpt>
      <trkpt lat="46.20365" lon="4.74729">
        <ele>205.60000610352</ele>
        <time>2020-06-25T15:21:40.000Z</time>
      </trkpt>
      <trkpt lat="46.20388" lon="4.74735">
        <ele>208.60000610352</ele>
        <time>2020-06-25T15:21:49.000Z</time>
      </trkpt>
      <trkpt lat="46.204" lon="4.74736">
        <ele>210</ele>
        <time>2020-06-25T15:21:52.000Z</time>
      </trkpt>
      <trkpt lat="46.20462" lon="4.74741">
        <ele>211.19999694824</ele>
        <time>2020-06-25T15:22:07.000Z</time>
      </trkpt>
      <trkpt lat="46.20487" lon="4.74736">
        <ele>211</ele>
        <time>2020-06-25T15:22:16.000Z</time>
      </trkpt>
      <trkpt lat="46.20498" lon="4.74748">
        <ele>210.39999389648</ele>
        <time>2020-06-25T15:22:20.000Z</time>
      </trkpt>
      <trkpt lat="46.2054" lon="4.74818">
        <ele>207</ele>
        <time>2020-06-25T15:22:29.000Z</time>
      </trkpt>
      <trkpt lat="46.20567" lon="4.74858">
        <ele>203.80000305176</ele>
        <time>2020-06-25T15:22:34.000Z</time>
      </trkpt>
      <trkpt lat="46.20589" lon="4.7489">
        <ele>201.60000610352</ele>
        <time>2020-06-25T15:22:38.000Z</time>
      </trkpt>
      <trkpt lat="46.20666" lon="4.74993">
        <ele>199.39999389648</ele>
        <time>2020-06-25T15:22:53.000Z</time>
      </trkpt>
      <trkpt lat="46.20755" lon="4.75092">
        <ele>199</ele>
        <time>2020-06-25T15:23:11.000Z</time>
      </trkpt>
      <trkpt lat="46.20848" lon="4.75204">
        <ele>200.60000610352</ele>
        <time>2020-06-25T15:23:31.000Z</time>
      </trkpt>
      <trkpt lat="46.20876" lon="4.75249">
        <ele>201.19999694824</ele>
        <time>2020-06-25T15:23:38.000Z</time>
      </trkpt>
      <trkpt lat="46.20928" lon="4.75302">
        <ele>204.60000610352</ele>
        <time>2020-06-25T15:23:49.000Z</time>
      </trkpt>
      <trkpt lat="46.20992" lon="4.75342">
        <ele>207.60000610352</ele>
        <time>2020-06-25T15:24:01.000Z</time>
      </trkpt>
      <trkpt lat="46.21044" lon="4.75374">
        <ele>210.80000305176</ele>
        <time>2020-06-25T15:24:11.000Z</time>
      </trkpt>
      <trkpt lat="46.21061" lon="4.75389">
        <ele>212.19999694824</ele>
        <time>2020-06-25T15:24:15.000Z</time>
      </trkpt>
      <trkpt lat="46.21078" lon="4.754">
        <ele>213.39999389648</ele>
        <time>2020-06-25T15:24:19.000Z</time>
      </trkpt>
      <trkpt lat="46.2109" lon="4.75435">
        <ele>215.19999694824</ele>
        <time>2020-06-25T15:24:26.000Z</time>
      </trkpt>
      <trkpt lat="46.21087" lon="4.755">
        <ele>215.60000610352</ele>
        <time>2020-06-25T15:24:34.000Z</time>
      </trkpt>
      <trkpt lat="46.21096" lon="4.75524">
        <ele>215.60000610352</ele>
        <time>2020-06-25T15:24:38.000Z</time>
      </trkpt>
      <trkpt lat="46.21186" lon="4.75582">
        <ele>213.80000305176</ele>
        <time>2020-06-25T15:24:50.000Z</time>
      </trkpt>
      <trkpt lat="46.21204" lon="4.75595">
        <ele>213</ele>
        <time>2020-06-25T15:24:52.000Z</time>
      </trkpt>
      <trkpt lat="46.21242" lon="4.75621">
        <ele>209.80000305176</ele>
        <time>2020-06-25T15:24:56.000Z</time>
      </trkpt>
      <trkpt lat="46.21279" lon="4.75646">
        <ele>206.60000610352</ele>
        <time>2020-06-25T15:25:00.000Z</time>
      </trkpt>
      <trkpt lat="46.21314" lon="4.7567">
        <ele>204.60000610352</ele>
        <time>2020-06-25T15:25:04.000Z</time>
      </trkpt>
      <trkpt lat="46.21344" lon="4.75653">
        <ele>203.60000610352</ele>
        <time>2020-06-25T15:25:10.000Z</time>
      </trkpt>
      <trkpt lat="46.21356" lon="4.75621">
        <ele>202.80000305176</ele>
        <time>2020-06-25T15:25:14.000Z</time>
      </trkpt>
      <trkpt lat="46.21376" lon="4.75575">
        <ele>202.80000305176</ele>
        <time>2020-06-25T15:25:20.000Z</time>
      </trkpt>
      <trkpt lat="46.21418" lon="4.75501">
        <ele>203.19999694824</ele>
        <time>2020-06-25T15:25:31.000Z</time>
      </trkpt>
      <trkpt lat="46.21426" lon="4.75491">
        <ele>203.60000610352</ele>
        <time>2020-06-25T15:25:34.000Z</time>
      </trkpt>
      <trkpt lat="46.21428" lon="4.75492">
        <ele>204.39999389648</ele>
        <time>2020-06-25T15:25:41.000Z</time>
      </trkpt>
    </trkseg>
  </trk>
</gpx>